<?xml version='1.0' encoding='UTF-8'?><gpx version="1.1" creator="JPX - https://github.com/jenetics/jpx" xmlns="http://www.topografix.com/GPX/1/1"><trk><trkseg><trkpt lat="42.0845433" lon="12.1796333"><ele>269.0</ele><time>2026-03-22T08:24:57.476Z</time></trkpt><trkpt lat="42.08464" lon="12.1796317"><ele>269.0</ele><time>2026-03-22T08:24:59.477Z</time></trkpt><trkpt lat="42.0847483" lon="12.1796267"><ele>269.0</ele><time>2026-03-22T08:25:01.482Z</time></trkpt><trkpt lat="42.0848667" lon="12.1796117"><ele>269.0</ele><time>2026-03-22T08:25:03.482Z</time></trkpt><trkpt lat="42.0849617" lon="12.179545"><ele>269.0</ele><time>2026-03-22T08:25:05.477Z</time></trkpt><trkpt lat="42.08504" lon="12.1794467"><ele>269.4</ele><time>2026-03-22T08:25:07.482Z</time></trkpt><trkpt lat="42.085115" lon="12.1793533"><ele>269.79999999999995</ele><time>2026-03-22T08:25:09.484Z</time></trkpt><trkpt lat="42.0851867" lon="12.1792567"><ele>270.20000000000005</ele><time>2026-03-22T08:25:11.477Z</time></trkpt><trkpt lat="42.0852533" lon="12.17917"><ele>270.6</ele><time>2026-03-22T08:25:13.479Z</time></trkpt><trkpt lat="42.0853083" lon="12.17909"><ele>271.0</ele><time>2026-03-22T08:25:15.476Z</time></trkpt><trkpt lat="42.08534" lon="12.178985"><ele>271.0</ele><time>2026-03-22T08:25:17.476Z</time></trkpt><trkpt lat="42.0853483" lon="12.178875"><ele>271.0</ele><time>2026-03-22T08:25:19.481Z</time></trkpt><trkpt lat="42.0853167" lon="12.1787767"><ele>271.0</ele><time>2026-03-22T08:25:21.478Z</time></trkpt><trkpt lat="42.0852567" lon="12.1786983"><ele>271.0</ele><time>2026-03-22T08:25:23.48Z</time></trkpt><trkpt lat="42.08518" lon="12.1786567"><ele>271.0</ele><time>2026-03-22T08:25:25.48Z</time></trkpt><trkpt lat="42.0851033" lon="12.1786483"><ele>271.0</ele><time>2026-03-22T08:25:27.479Z</time></trkpt><trkpt lat="42.085035" lon="12.1786267"><ele>271.0</ele><time>2026-03-22T08:25:29.481Z</time></trkpt><trkpt lat="42.0849733" lon="12.17859"><ele>271.0</ele><time>2026-03-22T08:25:31.478Z</time></trkpt><trkpt lat="42.084925" lon="12.178535"><ele>271.0</ele><time>2026-03-22T08:25:33.486Z</time></trkpt><trkpt lat="42.08486" lon="12.1784483"><ele>271.0</ele><time>2026-03-22T08:25:36.485Z</time></trkpt><trkpt lat="42.08479" lon="12.1783733"><ele>271.0</ele><time>2026-03-22T08:25:39.483Z</time></trkpt><trkpt lat="42.084725" lon="12.1783017"><ele>271.0</ele><time>2026-03-22T08:25:42.479Z</time></trkpt><trkpt lat="42.0846633" lon="12.1782283"><ele>272.0</ele><time>2026-03-22T08:25:45.477Z</time></trkpt><trkpt lat="42.0846083" lon="12.17815"><ele>273.0</ele><time>2026-03-22T08:25:48.479Z</time></trkpt><trkpt lat="42.0845567" lon="12.1780733"><ele>274.0</ele><time>2026-03-22T08:25:51.481Z</time></trkpt><trkpt lat="42.0845133" lon="12.1780033"><ele>275.0</ele><time>2026-03-22T08:25:54.477Z</time></trkpt><trkpt lat="42.084455" lon="12.1779483"><ele>276.0</ele><time>2026-03-22T08:25:57.479Z</time></trkpt><trkpt lat="42.0844117" lon="12.1778733"><ele>277.0</ele><time>2026-03-22T08:26:00.485Z</time></trkpt><trkpt lat="42.084375" lon="12.1777917"><ele>278.0</ele><time>2026-03-22T08:26:03.48Z</time></trkpt><trkpt lat="42.0843283" lon="12.17772"><ele>278.0</ele><time>2026-03-22T08:26:06.48Z</time></trkpt><trkpt lat="42.0842833" lon="12.177635"><ele>278.0</ele><time>2026-03-22T08:26:09.482Z</time></trkpt><trkpt lat="42.0842633" lon="12.1775517"><ele>278.0</ele><time>2026-03-22T08:26:11.483Z</time></trkpt><trkpt lat="42.0842517" lon="12.1774667"><ele>278.0</ele><time>2026-03-22T08:26:13.484Z</time></trkpt><trkpt lat="42.0842517" lon="12.177345"><ele>278.0</ele><time>2026-03-22T08:26:16.482Z</time></trkpt><trkpt lat="42.0842517" lon="12.1772583"><ele>278.0</ele><time>2026-03-22T08:26:18.481Z</time></trkpt><trkpt lat="42.0842483" lon="12.177165"><ele>278.0</ele><time>2026-03-22T08:26:20.482Z</time></trkpt><trkpt lat="42.0842433" lon="12.177065"><ele>278.5</ele><time>2026-03-22T08:26:22.482Z</time></trkpt><trkpt lat="42.0842417" lon="12.17696"><ele>279.0</ele><time>2026-03-22T08:26:24.48Z</time></trkpt><trkpt lat="42.0842367" lon="12.1768617"><ele>279.5</ele><time>2026-03-22T08:26:26.482Z</time></trkpt><trkpt lat="42.0842283" lon="12.1767617"><ele>280.0</ele><time>2026-03-22T08:26:28.482Z</time></trkpt><trkpt lat="42.084225" lon="12.176665"><ele>280.5</ele><time>2026-03-22T08:26:30.487Z</time></trkpt><trkpt lat="42.0842217" lon="12.1765633"><ele>281.0</ele><time>2026-03-22T08:26:32.483Z</time></trkpt><trkpt lat="42.084215" lon="12.1764583"><ele>281.1666666666667</ele><time>2026-03-22T08:26:34.482Z</time></trkpt><trkpt lat="42.0842067" lon="12.176345"><ele>281.33333333333337</ele><time>2026-03-22T08:26:36.485Z</time></trkpt><trkpt lat="42.0842" lon="12.176235"><ele>281.5</ele><time>2026-03-22T08:26:38.485Z</time></trkpt><trkpt lat="42.0841967" lon="12.176125"><ele>281.6666666666667</ele><time>2026-03-22T08:26:40.481Z</time></trkpt><trkpt lat="42.084195" lon="12.176015"><ele>281.8333333333333</ele><time>2026-03-22T08:26:42.482Z</time></trkpt><trkpt lat="42.08419" lon="12.1759133"><ele>282.0</ele><time>2026-03-22T08:26:44.481Z</time></trkpt><trkpt lat="42.0841783" lon="12.1758167"><ele>282.0</ele><time>2026-03-22T08:26:46.484Z</time></trkpt><trkpt lat="42.0841783" lon="12.175715"><ele>282.0</ele><time>2026-03-22T08:26:48.479Z</time></trkpt><trkpt lat="42.0841833" lon="12.1756167"><ele>282.0</ele><time>2026-03-22T08:26:50.477Z</time></trkpt><trkpt lat="42.08419" lon="12.1754917"><ele>282.0</ele><time>2026-03-22T08:26:53.481Z</time></trkpt><trkpt lat="42.0841917" lon="12.1754"><ele>282.0</ele><time>2026-03-22T08:26:55.478Z</time></trkpt><trkpt lat="42.084195" lon="12.175275"><ele>282.0</ele><time>2026-03-22T08:26:58.475Z</time></trkpt><trkpt lat="42.084205" lon="12.1751483"><ele>282.2857142857143</ele><time>2026-03-22T08:27:01.477Z</time></trkpt><trkpt lat="42.0841983" lon="12.17506"><ele>282.57142857142856</ele><time>2026-03-22T08:27:03.482Z</time></trkpt><trkpt lat="42.0841883" lon="12.1749667"><ele>282.85714285714283</ele><time>2026-03-22T08:27:05.484Z</time></trkpt><trkpt lat="42.08418" lon="12.1748767"><ele>283.1428571428571</ele><time>2026-03-22T08:27:07.479Z</time></trkpt><trkpt lat="42.0841733" lon="12.1747883"><ele>283.4285714285714</ele><time>2026-03-22T08:27:09.479Z</time></trkpt><trkpt lat="42.084175" lon="12.1747033"><ele>283.7142857142857</ele><time>2026-03-22T08:27:11.476Z</time></trkpt><trkpt lat="42.0841767" lon="12.1746133"><ele>284.0</ele><time>2026-03-22T08:27:13.478Z</time></trkpt><trkpt lat="42.0841717" lon="12.174525"><ele>284.5</ele><time>2026-03-22T08:27:15.482Z</time></trkpt><trkpt lat="42.084165" lon="12.1744383"><ele>285.0</ele><time>2026-03-22T08:27:17.479Z</time></trkpt><trkpt lat="42.0841667" lon="12.17432"><ele>285.5</ele><time>2026-03-22T08:27:20.482Z</time></trkpt><trkpt lat="42.084165" lon="12.1742083"><ele>286.0</ele><time>2026-03-22T08:27:23.482Z</time></trkpt><trkpt lat="42.0841567" lon="12.174095"><ele>286.5</ele><time>2026-03-22T08:27:26.484Z</time></trkpt><trkpt lat="42.08415" lon="12.1739983"><ele>287.0</ele><time>2026-03-22T08:27:29.483Z</time></trkpt><trkpt lat="42.0841483" lon="12.173905"><ele>287.5</ele><time>2026-03-22T08:27:32.477Z</time></trkpt><trkpt lat="42.08415" lon="12.1738133"><ele>288.0</ele><time>2026-03-22T08:27:35.479Z</time></trkpt><trkpt lat="42.0841517" lon="12.173725"><ele>288.5</ele><time>2026-03-22T08:27:38.485Z</time></trkpt><trkpt lat="42.084145" lon="12.1736317"><ele>289.0</ele><time>2026-03-22T08:27:41.478Z</time></trkpt><trkpt lat="42.084135" lon="12.1735183"><ele>289.5</ele><time>2026-03-22T08:27:45.481Z</time></trkpt><trkpt lat="42.0841283" lon="12.1734067"><ele>290.0</ele><time>2026-03-22T08:27:48.48Z</time></trkpt><trkpt lat="42.0841283" lon="12.1732983"><ele>290.0</ele><time>2026-03-22T08:27:51.481Z</time></trkpt><trkpt lat="42.0841317" lon="12.1731967"><ele>290.0</ele><time>2026-03-22T08:27:54.482Z</time></trkpt><trkpt lat="42.0841333" lon="12.1730983"><ele>290.0</ele><time>2026-03-22T08:27:57.479Z</time></trkpt><trkpt lat="42.0841283" lon="12.17301"><ele>290.0</ele><time>2026-03-22T08:28:00.477Z</time></trkpt><trkpt lat="42.0841367" lon="12.1729"><ele>290.0</ele><time>2026-03-22T08:28:04.476Z</time></trkpt><trkpt lat="42.0841317" lon="12.172795"><ele>290.0</ele><time>2026-03-22T08:28:07.478Z</time></trkpt><trkpt lat="42.0841217" lon="12.1726967"><ele>290.0</ele><time>2026-03-22T08:28:11.476Z</time></trkpt><trkpt lat="42.0841133" lon="12.1726083"><ele>290.6666666666667</ele><time>2026-03-22T08:28:15.481Z</time></trkpt><trkpt lat="42.0841083" lon="12.1725133"><ele>291.33333333333337</ele><time>2026-03-22T08:28:19.479Z</time></trkpt><trkpt lat="42.0841083" lon="12.17241"><ele>292.0</ele><time>2026-03-22T08:28:23.482Z</time></trkpt><trkpt lat="42.0841117" lon="12.1723083"><ele>292.6666666666667</ele><time>2026-03-22T08:28:26.481Z</time></trkpt><trkpt lat="42.0841117" lon="12.17221"><ele>293.3333333333333</ele><time>2026-03-22T08:28:29.48Z</time></trkpt><trkpt lat="42.0841067" lon="12.1721133"><ele>294.0</ele><time>2026-03-22T08:28:32.476Z</time></trkpt><trkpt lat="42.0840983" lon="12.1719883"><ele>294.3333333333333</ele><time>2026-03-22T08:28:35.48Z</time></trkpt><trkpt lat="42.0840933" lon="12.1718767"><ele>294.6666666666667</ele><time>2026-03-22T08:28:38.483Z</time></trkpt><trkpt lat="42.0840967" lon="12.1717633"><ele>295.0</ele><time>2026-03-22T08:28:41.478Z</time></trkpt><trkpt lat="42.0840933" lon="12.1716467"><ele>295.33333333333337</ele><time>2026-03-22T08:28:44.481Z</time></trkpt><trkpt lat="42.0840833" lon="12.17152"><ele>295.6666666666667</ele><time>2026-03-22T08:28:47.48Z</time></trkpt><trkpt lat="42.0841333" lon="12.1714133"><ele>296.0</ele><time>2026-03-22T08:28:50.476Z</time></trkpt><trkpt lat="42.0842217" lon="12.1713733"><ele>296.33333333333337</ele><time>2026-03-22T08:28:53.478Z</time></trkpt><trkpt lat="42.0845483" lon="12.1711967"><ele>296.6666666666667</ele><time>2026-03-22T08:29:04.485Z</time></trkpt><trkpt lat="42.0846117" lon="12.1711683"><ele>297.0</ele><time>2026-03-22T08:29:06.475Z</time></trkpt><trkpt lat="42.0847033" lon="12.171165"><ele>297.0</ele><time>2026-03-22T08:29:09.477Z</time></trkpt><trkpt lat="42.0847733" lon="12.1711667"><ele>297.0</ele><time>2026-03-22T08:29:11.478Z</time></trkpt><trkpt lat="42.0848433" lon="12.1711667"><ele>297.0</ele><time>2026-03-22T08:29:13.482Z</time></trkpt><trkpt lat="42.0849117" lon="12.1711667"><ele>297.0</ele><time>2026-03-22T08:29:15.477Z</time></trkpt><trkpt lat="42.084985" lon="12.1711683"><ele>297.0</ele><time>2026-03-22T08:29:17.476Z</time></trkpt><trkpt lat="42.0850617" lon="12.17117"><ele>297.0</ele><time>2026-03-22T08:29:19.478Z</time></trkpt><trkpt lat="42.0851367" lon="12.1711667"><ele>297.0</ele><time>2026-03-22T08:29:21.477Z</time></trkpt><trkpt lat="42.0852" lon="12.1711633"><ele>297.42857142857144</ele><time>2026-03-22T08:29:23.483Z</time></trkpt><trkpt lat="42.0852667" lon="12.17116"><ele>297.8571428571429</ele><time>2026-03-22T08:29:25.477Z</time></trkpt><trkpt lat="42.0853617" lon="12.171155"><ele>298.2857142857143</ele><time>2026-03-22T08:29:28.481Z</time></trkpt><trkpt lat="42.0854267" lon="12.1711633"><ele>298.7142857142857</ele><time>2026-03-22T08:29:30.476Z</time></trkpt><trkpt lat="42.0854933" lon="12.1711617"><ele>299.1428571428571</ele><time>2026-03-22T08:29:32.476Z</time></trkpt><trkpt lat="42.085565" lon="12.1711667"><ele>299.57142857142856</ele><time>2026-03-22T08:29:34.478Z</time></trkpt><trkpt lat="42.085635" lon="12.171175"><ele>300.0</ele><time>2026-03-22T08:29:36.477Z</time></trkpt><trkpt lat="42.0857283" lon="12.17118"><ele>299.8333333333333</ele><time>2026-03-22T08:29:39.478Z</time></trkpt><trkpt lat="42.08583" lon="12.17118"><ele>299.6666666666667</ele><time>2026-03-22T08:29:42.477Z</time></trkpt><trkpt lat="42.0858967" lon="12.1711833"><ele>299.5</ele><time>2026-03-22T08:29:44.476Z</time></trkpt><trkpt lat="42.0859617" lon="12.17119"><ele>299.33333333333337</ele><time>2026-03-22T08:29:46.479Z</time></trkpt><trkpt lat="42.086035" lon="12.171195"><ele>299.1666666666667</ele><time>2026-03-22T08:29:48.478Z</time></trkpt><trkpt lat="42.0861133" lon="12.1712"><ele>299.0</ele><time>2026-03-22T08:29:50.479Z</time></trkpt><trkpt lat="42.0861867" lon="12.1712117"><ele>299.0</ele><time>2026-03-22T08:29:52.483Z</time></trkpt><trkpt lat="42.0862583" lon="12.1712183"><ele>299.0</ele><time>2026-03-22T08:29:54.477Z</time></trkpt><trkpt lat="42.0863233" lon="12.1711683"><ele>299.0</ele><time>2026-03-22T08:29:57.479Z</time></trkpt><trkpt lat="42.08634" lon="12.1710833"><ele>299.0</ele><time>2026-03-22T08:29:59.48Z</time></trkpt><trkpt lat="42.08634" lon="12.17099"><ele>299.0</ele><time>2026-03-22T08:30:01.483Z</time></trkpt><trkpt lat="42.0863433" lon="12.1708767"><ele>299.0</ele><time>2026-03-22T08:30:03.48Z</time></trkpt><trkpt lat="42.086365" lon="12.1707533"><ele>298.8</ele><time>2026-03-22T08:30:05.476Z</time></trkpt><trkpt lat="42.0864117" lon="12.1706233"><ele>298.59999999999997</ele><time>2026-03-22T08:30:07.48Z</time></trkpt><trkpt lat="42.0864683" lon="12.1704867"><ele>298.4</ele><time>2026-03-22T08:30:09.478Z</time></trkpt><trkpt lat="42.08653" lon="12.1703233"><ele>298.2</ele><time>2026-03-22T08:30:11.478Z</time></trkpt><trkpt lat="42.08657" lon="12.1702317"><ele>298.0</ele><time>2026-03-22T08:30:12.476Z</time></trkpt><trkpt lat="42.0866083" lon="12.1701333"><ele>298.0</ele><time>2026-03-22T08:30:13.476Z</time></trkpt><trkpt lat="42.0866517" lon="12.1700417"><ele>298.0</ele><time>2026-03-22T08:30:14.477Z</time></trkpt><trkpt lat="42.0866917" lon="12.1699433"><ele>298.0</ele><time>2026-03-22T08:30:15.487Z</time></trkpt><trkpt lat="42.0867383" lon="12.16985"><ele>298.0</ele><time>2026-03-22T08:30:16.477Z</time></trkpt><trkpt lat="42.0867767" lon="12.169765"><ele>298.0</ele><time>2026-03-22T08:30:17.476Z</time></trkpt><trkpt lat="42.086815" lon="12.16968"><ele>298.0</ele><time>2026-03-22T08:30:18.479Z</time></trkpt><trkpt lat="42.0868533" lon="12.1696017"><ele>297.8333333333333</ele><time>2026-03-22T08:30:19.48Z</time></trkpt><trkpt lat="42.0868883" lon="12.1695233"><ele>297.66666666666663</ele><time>2026-03-22T08:30:20.475Z</time></trkpt><trkpt lat="42.0869233" lon="12.1694467"><ele>297.5</ele><time>2026-03-22T08:30:21.481Z</time></trkpt><trkpt lat="42.0869567" lon="12.1693667"><ele>297.3333333333333</ele><time>2026-03-22T08:30:22.478Z</time></trkpt><trkpt lat="42.0869933" lon="12.169295"><ele>297.1666666666667</ele><time>2026-03-22T08:30:23.476Z</time></trkpt><trkpt lat="42.08706" lon="12.16917"><ele>297.0</ele><time>2026-03-22T08:30:25.479Z</time></trkpt><trkpt lat="42.08711" lon="12.1690517"><ele>297.3333333333333</ele><time>2026-03-22T08:30:27.479Z</time></trkpt><trkpt lat="42.087165" lon="12.16895"><ele>297.6666666666667</ele><time>2026-03-22T08:30:29.478Z</time></trkpt><trkpt lat="42.0872117" lon="12.1688733"><ele>298.0</ele><time>2026-03-22T08:30:31.478Z</time></trkpt><trkpt lat="42.08725" lon="12.168805"><ele>298.33333333333337</ele><time>2026-03-22T08:30:33.476Z</time></trkpt><trkpt lat="42.0873117" lon="12.1687117"><ele>298.6666666666667</ele><time>2026-03-22T08:30:36.479Z</time></trkpt><trkpt lat="42.0873533" lon="12.1686467"><ele>299.0</ele><time>2026-03-22T08:30:38.478Z</time></trkpt><trkpt lat="42.0873967" lon="12.16858"><ele>299.2857142857143</ele><time>2026-03-22T08:30:40.475Z</time></trkpt><trkpt lat="42.087445" lon="12.1685117"><ele>299.57142857142856</ele><time>2026-03-22T08:30:42.477Z</time></trkpt><trkpt lat="42.087505" lon="12.168415"><ele>299.8571428571429</ele><time>2026-03-22T08:30:45.479Z</time></trkpt><trkpt lat="42.0875483" lon="12.16835"><ele>300.1428571428571</ele><time>2026-03-22T08:30:47.476Z</time></trkpt><trkpt lat="42.0875933" lon="12.16829"><ele>300.42857142857144</ele><time>2026-03-22T08:30:49.476Z</time></trkpt><trkpt lat="42.08764" lon="12.1682283"><ele>300.7142857142857</ele><time>2026-03-22T08:30:51.477Z</time></trkpt><trkpt lat="42.0877" lon="12.168165"><ele>301.0</ele><time>2026-03-22T08:30:53.477Z</time></trkpt><trkpt lat="42.087765" lon="12.1680833"><ele>301.0</ele><time>2026-03-22T08:30:55.481Z</time></trkpt><trkpt lat="42.0878333" lon="12.1679967"><ele>301.0</ele><time>2026-03-22T08:30:57.496Z</time></trkpt><trkpt lat="42.0879017" lon="12.1678967"><ele>301.0</ele><time>2026-03-22T08:30:59.481Z</time></trkpt><trkpt lat="42.0879733" lon="12.1678"><ele>301.0</ele><time>2026-03-22T08:31:01.479Z</time></trkpt><trkpt lat="42.088055" lon="12.1677"><ele>301.0</ele><time>2026-03-22T08:31:03.476Z</time></trkpt><trkpt lat="42.088135" lon="12.1675867"><ele>301.0</ele><time>2026-03-22T08:31:05.477Z</time></trkpt><trkpt lat="42.0882183" lon="12.1674667"><ele>301.0</ele><time>2026-03-22T08:31:07.478Z</time></trkpt><trkpt lat="42.0882683" lon="12.167415"><ele>301.0</ele><time>2026-03-22T08:31:08.476Z</time></trkpt><trkpt lat="42.0883167" lon="12.16736"><ele>301.0</ele><time>2026-03-22T08:31:09.477Z</time></trkpt><trkpt lat="42.0883883" lon="12.1672567"><ele>301.0</ele><time>2026-03-22T08:31:11.479Z</time></trkpt><trkpt lat="42.0883833" lon="12.1671517"><ele>301.0</ele><time>2026-03-22T08:31:13.479Z</time></trkpt><trkpt lat="42.0882883" lon="12.1670433"><ele>301.0</ele><time>2026-03-22T08:31:15.482Z</time></trkpt><trkpt lat="42.0882317" lon="12.1669817"><ele>301.0</ele><time>2026-03-22T08:31:16.477Z</time></trkpt><trkpt lat="42.0881817" lon="12.1669267"><ele>301.0</ele><time>2026-03-22T08:31:17.479Z</time></trkpt><trkpt lat="42.08813" lon="12.1668733"><ele>301.0</ele><time>2026-03-22T08:31:18.48Z</time></trkpt><trkpt lat="42.0880767" lon="12.1668233"><ele>301.0</ele><time>2026-03-22T08:31:19.483Z</time></trkpt><trkpt lat="42.0879767" lon="12.1667167"><ele>301.0</ele><time>2026-03-22T08:31:21.485Z</time></trkpt><trkpt lat="42.0879283" lon="12.166655"><ele>301.0</ele><time>2026-03-22T08:31:22.488Z</time></trkpt><trkpt lat="42.08788" lon="12.166595"><ele>301.0</ele><time>2026-03-22T08:31:23.482Z</time></trkpt><trkpt lat="42.0878283" lon="12.1665333"><ele>301.0</ele><time>2026-03-22T08:31:24.478Z</time></trkpt><trkpt lat="42.0877833" lon="12.1664683"><ele>301.0</ele><time>2026-03-22T08:31:25.478Z</time></trkpt><trkpt lat="42.08774" lon="12.1664017"><ele>301.0</ele><time>2026-03-22T08:31:26.478Z</time></trkpt><trkpt lat="42.087695" lon="12.1663417"><ele>301.0</ele><time>2026-03-22T08:31:27.489Z</time></trkpt><trkpt lat="42.0876067" lon="12.1662483"><ele>301.0</ele><time>2026-03-22T08:31:29.479Z</time></trkpt><trkpt lat="42.0875267" lon="12.1661567"><ele>300.75</ele><time>2026-03-22T08:31:31.483Z</time></trkpt><trkpt lat="42.0874467" lon="12.1660633"><ele>300.5</ele><time>2026-03-22T08:31:33.478Z</time></trkpt><trkpt lat="42.0873617" lon="12.1659717"><ele>300.25</ele><time>2026-03-22T08:31:35.478Z</time></trkpt><trkpt lat="42.0872633" lon="12.16588"><ele>300.0</ele><time>2026-03-22T08:31:37.479Z</time></trkpt><trkpt lat="42.0871667" lon="12.1657783"><ele>299.25</ele><time>2026-03-22T08:31:39.48Z</time></trkpt><trkpt lat="42.0870783" lon="12.165665"><ele>298.5</ele><time>2026-03-22T08:31:41.479Z</time></trkpt><trkpt lat="42.0869883" lon="12.165555"><ele>297.75</ele><time>2026-03-22T08:31:43.477Z</time></trkpt><trkpt lat="42.0868967" lon="12.16545"><ele>297.0</ele><time>2026-03-22T08:31:45.481Z</time></trkpt><trkpt lat="42.086805" lon="12.1653433"><ele>297.0</ele><time>2026-03-22T08:31:47.478Z</time></trkpt><trkpt lat="42.0867133" lon="12.1652267"><ele>297.0</ele><time>2026-03-22T08:31:49.479Z</time></trkpt><trkpt lat="42.0866283" lon="12.165115"><ele>297.0</ele><time>2026-03-22T08:31:51.482Z</time></trkpt><trkpt lat="42.0865367" lon="12.1650083"><ele>297.0</ele><time>2026-03-22T08:31:53.48Z</time></trkpt><trkpt lat="42.0864417" lon="12.1649083"><ele>297.2</ele><time>2026-03-22T08:31:55.477Z</time></trkpt><trkpt lat="42.0863517" lon="12.16481"><ele>297.4</ele><time>2026-03-22T08:31:57.485Z</time></trkpt><trkpt lat="42.0862583" lon="12.1647283"><ele>297.6</ele><time>2026-03-22T08:31:59.479Z</time></trkpt><trkpt lat="42.08617" lon="12.1646383"><ele>297.8</ele><time>2026-03-22T08:32:01.479Z</time></trkpt><trkpt lat="42.0860833" lon="12.1645483"><ele>298.0</ele><time>2026-03-22T08:32:03.482Z</time></trkpt><trkpt lat="42.0860017" lon="12.1644533"><ele>298.0</ele><time>2026-03-22T08:32:05.48Z</time></trkpt><trkpt lat="42.0859233" lon="12.1643567"><ele>298.0</ele><time>2026-03-22T08:32:07.481Z</time></trkpt><trkpt lat="42.0858417" lon="12.1642717"><ele>298.0</ele><time>2026-03-22T08:32:09.478Z</time></trkpt><trkpt lat="42.0857567" lon="12.1641883"><ele>298.0</ele><time>2026-03-22T08:32:11.48Z</time></trkpt><trkpt lat="42.0856633" lon="12.1641133"><ele>298.0</ele><time>2026-03-22T08:32:13.485Z</time></trkpt><trkpt lat="42.0855633" lon="12.1640467"><ele>296.75</ele><time>2026-03-22T08:32:15.482Z</time></trkpt><trkpt lat="42.0854633" lon="12.1639733"><ele>295.5</ele><time>2026-03-22T08:32:17.478Z</time></trkpt><trkpt lat="42.0853667" lon="12.1639017"><ele>294.25</ele><time>2026-03-22T08:32:19.477Z</time></trkpt><trkpt lat="42.08526" lon="12.1638433"><ele>293.0</ele><time>2026-03-22T08:32:21.477Z</time></trkpt><trkpt lat="42.0851583" lon="12.1637667"><ele>293.0</ele><time>2026-03-22T08:32:23.486Z</time></trkpt><trkpt lat="42.085045" lon="12.1637067"><ele>293.0</ele><time>2026-03-22T08:32:25.483Z</time></trkpt><trkpt lat="42.084985" lon="12.16368"><ele>293.0</ele><time>2026-03-22T08:32:26.481Z</time></trkpt><trkpt lat="42.084915" lon="12.16365"><ele>293.0</ele><time>2026-03-22T08:32:27.483Z</time></trkpt><trkpt lat="42.08484" lon="12.1636167"><ele>293.0</ele><time>2026-03-22T08:32:28.477Z</time></trkpt><trkpt lat="42.0847617" lon="12.1635783"><ele>293.0</ele><time>2026-03-22T08:32:29.482Z</time></trkpt><trkpt lat="42.0846817" lon="12.163535"><ele>292.0</ele><time>2026-03-22T08:32:30.479Z</time></trkpt><trkpt lat="42.0845983" lon="12.16349"><ele>291.0</ele><time>2026-03-22T08:32:31.488Z</time></trkpt><trkpt lat="42.0845117" lon="12.1634433"><ele>290.0</ele><time>2026-03-22T08:32:32.479Z</time></trkpt><trkpt lat="42.084425" lon="12.1633917"><ele>289.0</ele><time>2026-03-22T08:32:33.483Z</time></trkpt><trkpt lat="42.08434" lon="12.1633433"><ele>288.0</ele><time>2026-03-22T08:32:34.481Z</time></trkpt><trkpt lat="42.0842517" lon="12.1632917"><ele>288.0</ele><time>2026-03-22T08:32:35.481Z</time></trkpt><trkpt lat="42.0841717" lon="12.1632483"><ele>288.0</ele><time>2026-03-22T08:32:36.478Z</time></trkpt><trkpt lat="42.0840817" lon="12.1632067"><ele>288.0</ele><time>2026-03-22T08:32:37.481Z</time></trkpt><trkpt lat="42.0839867" lon="12.163165"><ele>288.0</ele><time>2026-03-22T08:32:38.48Z</time></trkpt><trkpt lat="42.0839033" lon="12.1631167"><ele>288.0</ele><time>2026-03-22T08:32:39.482Z</time></trkpt><trkpt lat="42.083825" lon="12.1630733"><ele>286.7142857142857</ele><time>2026-03-22T08:32:40.477Z</time></trkpt><trkpt lat="42.08376" lon="12.163035"><ele>285.42857142857144</ele><time>2026-03-22T08:32:41.478Z</time></trkpt><trkpt lat="42.0836983" lon="12.1630033"><ele>284.1428571428571</ele><time>2026-03-22T08:32:42.48Z</time></trkpt><trkpt lat="42.083635" lon="12.1629683"><ele>282.8571428571429</ele><time>2026-03-22T08:32:43.477Z</time></trkpt><trkpt lat="42.0835733" lon="12.16293"><ele>281.57142857142856</ele><time>2026-03-22T08:32:44.477Z</time></trkpt><trkpt lat="42.0835033" lon="12.1628983"><ele>280.2857142857143</ele><time>2026-03-22T08:32:45.48Z</time></trkpt><trkpt lat="42.0834367" lon="12.1628733"><ele>279.0</ele><time>2026-03-22T08:32:46.476Z</time></trkpt><trkpt lat="42.0833767" lon="12.16284"><ele>279.0</ele><time>2026-03-22T08:32:47.478Z</time></trkpt><trkpt lat="42.0833167" lon="12.1628067"><ele>279.0</ele><time>2026-03-22T08:32:48.476Z</time></trkpt><trkpt lat="42.0832583" lon="12.1627733"><ele>279.0</ele><time>2026-03-22T08:32:49.476Z</time></trkpt><trkpt lat="42.0831983" lon="12.1627467"><ele>279.0</ele><time>2026-03-22T08:32:50.476Z</time></trkpt><trkpt lat="42.0830867" lon="12.1626867"><ele>279.0</ele><time>2026-03-22T08:32:52.48Z</time></trkpt><trkpt lat="42.08299" lon="12.16262"><ele>279.0</ele><time>2026-03-22T08:32:54.478Z</time></trkpt><trkpt lat="42.0828917" lon="12.16256"><ele>279.0</ele><time>2026-03-22T08:32:56.481Z</time></trkpt><trkpt lat="42.0827867" lon="12.16251"><ele>279.0</ele><time>2026-03-22T08:32:58.478Z</time></trkpt><trkpt lat="42.0826817" lon="12.1624617"><ele>279.0</ele><time>2026-03-22T08:33:00.483Z</time></trkpt><trkpt lat="42.0825867" lon="12.1624267"><ele>279.0</ele><time>2026-03-22T08:33:02.477Z</time></trkpt><trkpt lat="42.0825017" lon="12.1623867"><ele>279.0</ele><time>2026-03-22T08:33:04.477Z</time></trkpt><trkpt lat="42.0824283" lon="12.162335"><ele>278.2857142857143</ele><time>2026-03-22T08:33:06.48Z</time></trkpt><trkpt lat="42.0823683" lon="12.162305"><ele>277.57142857142856</ele><time>2026-03-22T08:33:08.478Z</time></trkpt><trkpt lat="42.0823" lon="12.1622717"><ele>276.8571428571429</ele><time>2026-03-22T08:33:13.48Z</time></trkpt><trkpt lat="42.0822317" lon="12.1622367"><ele>276.1428571428571</ele><time>2026-03-22T08:33:16.478Z</time></trkpt><trkpt lat="42.0821633" lon="12.1621967"><ele>275.42857142857144</ele><time>2026-03-22T08:33:19.476Z</time></trkpt><trkpt lat="42.0821017" lon="12.1621717"><ele>274.7142857142857</ele><time>2026-03-22T08:33:22.478Z</time></trkpt><trkpt lat="42.08203" lon="12.1621167"><ele>274.0</ele><time>2026-03-22T08:33:28.483Z</time></trkpt><trkpt lat="42.0819583" lon="12.1620883"><ele>274.0</ele><time>2026-03-22T08:33:33.481Z</time></trkpt><trkpt lat="42.0818817" lon="12.1620583"><ele>274.0</ele><time>2026-03-22T08:33:36.479Z</time></trkpt><trkpt lat="42.0818167" lon="12.1620017"><ele>274.0</ele><time>2026-03-22T08:33:38.478Z</time></trkpt><trkpt lat="42.0817217" lon="12.16194"><ele>274.0</ele><time>2026-03-22T08:33:40.48Z</time></trkpt><trkpt lat="42.081625" lon="12.1618833"><ele>274.0</ele><time>2026-03-22T08:33:42.479Z</time></trkpt><trkpt lat="42.0815683" lon="12.1618"><ele>274.0</ele><time>2026-03-22T08:33:45.479Z</time></trkpt><trkpt lat="42.0815867" lon="12.161695"><ele>274.0</ele><time>2026-03-22T08:33:47.479Z</time></trkpt><trkpt lat="42.08161" lon="12.1615467"><ele>274.0</ele><time>2026-03-22T08:33:49.479Z</time></trkpt><trkpt lat="42.08163" lon="12.1614617"><ele>274.0</ele><time>2026-03-22T08:33:50.486Z</time></trkpt><trkpt lat="42.081655" lon="12.161365"><ele>274.0</ele><time>2026-03-22T08:33:51.482Z</time></trkpt><trkpt lat="42.0816817" lon="12.1612567"><ele>274.0</ele><time>2026-03-22T08:33:52.483Z</time></trkpt><trkpt lat="42.0817067" lon="12.161135"><ele>273.59999999999997</ele><time>2026-03-22T08:33:53.482Z</time></trkpt><trkpt lat="42.0817367" lon="12.16101"><ele>273.2</ele><time>2026-03-22T08:33:54.481Z</time></trkpt><trkpt lat="42.0817717" lon="12.1608683"><ele>272.79999999999995</ele><time>2026-03-22T08:33:55.492Z</time></trkpt><trkpt lat="42.081805" lon="12.1607233"><ele>272.4</ele><time>2026-03-22T08:33:56.48Z</time></trkpt><trkpt lat="42.08184" lon="12.1605783"><ele>272.0</ele><time>2026-03-22T08:33:57.481Z</time></trkpt><trkpt lat="42.081875" lon="12.1604333"><ele>271.8</ele><time>2026-03-22T08:33:58.486Z</time></trkpt><trkpt lat="42.08191" lon="12.1602917"><ele>271.6</ele><time>2026-03-22T08:33:59.48Z</time></trkpt><trkpt lat="42.081945" lon="12.160155"><ele>271.40000000000003</ele><time>2026-03-22T08:34:00.487Z</time></trkpt><trkpt lat="42.08198" lon="12.16002"><ele>271.2</ele><time>2026-03-22T08:34:01.481Z</time></trkpt><trkpt lat="42.0820133" lon="12.1598867"><ele>271.0</ele><time>2026-03-22T08:34:02.477Z</time></trkpt><trkpt lat="42.082045" lon="12.1597533"><ele>269.8</ele><time>2026-03-22T08:34:03.478Z</time></trkpt><trkpt lat="42.082075" lon="12.1596217"><ele>268.6</ele><time>2026-03-22T08:34:04.48Z</time></trkpt><trkpt lat="42.0821033" lon="12.1594933"><ele>267.4</ele><time>2026-03-22T08:34:05.486Z</time></trkpt><trkpt lat="42.08213" lon="12.1593667"><ele>266.2</ele><time>2026-03-22T08:34:06.479Z</time></trkpt><trkpt lat="42.0821567" lon="12.159245"><ele>265.0</ele><time>2026-03-22T08:34:07.481Z</time></trkpt><trkpt lat="42.0821883" lon="12.1591267"><ele>264.5</ele><time>2026-03-22T08:34:08.481Z</time></trkpt><trkpt lat="42.0822167" lon="12.15901"><ele>264.0</ele><time>2026-03-22T08:34:09.481Z</time></trkpt><trkpt lat="42.0822467" lon="12.158895"><ele>263.5</ele><time>2026-03-22T08:34:10.481Z</time></trkpt><trkpt lat="42.0822717" lon="12.1587833"><ele>263.0</ele><time>2026-03-22T08:34:11.485Z</time></trkpt><trkpt lat="42.0822983" lon="12.1586683"><ele>262.5</ele><time>2026-03-22T08:34:12.478Z</time></trkpt><trkpt lat="42.0823183" lon="12.1585633"><ele>262.0</ele><time>2026-03-22T08:34:13.476Z</time></trkpt><trkpt lat="42.082345" lon="12.1584533"><ele>262.0</ele><time>2026-03-22T08:34:14.481Z</time></trkpt><trkpt lat="42.0823767" lon="12.1583533"><ele>262.0</ele><time>2026-03-22T08:34:15.481Z</time></trkpt><trkpt lat="42.0824033" lon="12.158255"><ele>262.0</ele><time>2026-03-22T08:34:16.486Z</time></trkpt><trkpt lat="42.0824233" lon="12.1581667"><ele>262.0</ele><time>2026-03-22T08:34:17.499Z</time></trkpt><trkpt lat="42.082445" lon="12.1580767"><ele>262.0</ele><time>2026-03-22T08:34:18.483Z</time></trkpt><trkpt lat="42.082465" lon="12.1579917"><ele>262.0</ele><time>2026-03-22T08:34:19.484Z</time></trkpt><trkpt lat="42.0824883" lon="12.1579117"><ele>262.0</ele><time>2026-03-22T08:34:20.481Z</time></trkpt><trkpt lat="42.0825083" lon="12.15783"><ele>262.25</ele><time>2026-03-22T08:34:21.477Z</time></trkpt><trkpt lat="42.082545" lon="12.1576783"><ele>262.5</ele><time>2026-03-22T08:34:23.476Z</time></trkpt><trkpt lat="42.0825817" lon="12.1575333"><ele>262.75</ele><time>2026-03-22T08:34:25.479Z</time></trkpt><trkpt lat="42.0826233" lon="12.157385"><ele>263.0</ele><time>2026-03-22T08:34:27.479Z</time></trkpt><trkpt lat="42.0826617" lon="12.1572367"><ele>263.2</ele><time>2026-03-22T08:34:29.478Z</time></trkpt><trkpt lat="42.0826983" lon="12.157085"><ele>263.4</ele><time>2026-03-22T08:34:31.482Z</time></trkpt><trkpt lat="42.0827333" lon="12.1569417"><ele>263.59999999999997</ele><time>2026-03-22T08:34:33.485Z</time></trkpt><trkpt lat="42.0827633" lon="12.1568"><ele>263.8</ele><time>2026-03-22T08:34:35.48Z</time></trkpt><trkpt lat="42.0827917" lon="12.1566683"><ele>264.0</ele><time>2026-03-22T08:34:37.478Z</time></trkpt><trkpt lat="42.0828267" lon="12.1565433"><ele>263.8</ele><time>2026-03-22T08:34:39.486Z</time></trkpt><trkpt lat="42.0828617" lon="12.156405"><ele>263.59999999999997</ele><time>2026-03-22T08:34:41.483Z</time></trkpt><trkpt lat="42.0828933" lon="12.156265"><ele>263.4</ele><time>2026-03-22T08:34:43.483Z</time></trkpt><trkpt lat="42.08292" lon="12.1561383"><ele>263.2</ele><time>2026-03-22T08:34:45.484Z</time></trkpt><trkpt lat="42.0829533" lon="12.1560133"><ele>263.0</ele><time>2026-03-22T08:34:47.48Z</time></trkpt><trkpt lat="42.0829883" lon="12.1558767"><ele>263.0</ele><time>2026-03-22T08:34:49.485Z</time></trkpt><trkpt lat="42.0830283" lon="12.1557267"><ele>263.0</ele><time>2026-03-22T08:34:51.477Z</time></trkpt><trkpt lat="42.0830483" lon="12.155645"><ele>263.0</ele><time>2026-03-22T08:34:52.48Z</time></trkpt><trkpt lat="42.0830683" lon="12.1555617"><ele>263.0</ele><time>2026-03-22T08:34:53.482Z</time></trkpt><trkpt lat="42.0831083" lon="12.1554033"><ele>263.0</ele><time>2026-03-22T08:34:55.481Z</time></trkpt><trkpt lat="42.0831467" lon="12.15525"><ele>263.0</ele><time>2026-03-22T08:34:57.487Z</time></trkpt><trkpt lat="42.08318" lon="12.1551"><ele>263.0</ele><time>2026-03-22T08:34:59.48Z</time></trkpt><trkpt lat="42.08321" lon="12.1549467"><ele>263.0</ele><time>2026-03-22T08:35:01.482Z</time></trkpt><trkpt lat="42.08324" lon="12.1548017"><ele>263.0</ele><time>2026-03-22T08:35:03.478Z</time></trkpt><trkpt lat="42.0832767" lon="12.1546667"><ele>263.75</ele><time>2026-03-22T08:35:05.482Z</time></trkpt><trkpt lat="42.08332" lon="12.1545267"><ele>264.5</ele><time>2026-03-22T08:35:07.481Z</time></trkpt><trkpt lat="42.08336" lon="12.15438"><ele>265.25</ele><time>2026-03-22T08:35:09.479Z</time></trkpt><trkpt lat="42.0834017" lon="12.1542333"><ele>266.0</ele><time>2026-03-22T08:35:11.481Z</time></trkpt><trkpt lat="42.083435" lon="12.154095"><ele>266.8</ele><time>2026-03-22T08:35:13.479Z</time></trkpt><trkpt lat="42.0834733" lon="12.1539633"><ele>267.6</ele><time>2026-03-22T08:35:15.485Z</time></trkpt><trkpt lat="42.0835083" lon="12.1538367"><ele>268.4</ele><time>2026-03-22T08:35:17.482Z</time></trkpt><trkpt lat="42.08354" lon="12.1537133"><ele>269.2</ele><time>2026-03-22T08:35:19.479Z</time></trkpt><trkpt lat="42.0835683" lon="12.1535917"><ele>270.0</ele><time>2026-03-22T08:35:21.482Z</time></trkpt><trkpt lat="42.0835883" lon="12.1534783"><ele>270.0</ele><time>2026-03-22T08:35:23.481Z</time></trkpt><trkpt lat="42.0836117" lon="12.1533633"><ele>270.0</ele><time>2026-03-22T08:35:25.477Z</time></trkpt><trkpt lat="42.0836417" lon="12.1532583"><ele>270.0</ele><time>2026-03-22T08:35:27.48Z</time></trkpt><trkpt lat="42.08367" lon="12.1531617"><ele>270.0</ele><time>2026-03-22T08:35:29.477Z</time></trkpt><trkpt lat="42.0836983" lon="12.153075"><ele>270.0</ele><time>2026-03-22T08:35:31.478Z</time></trkpt><trkpt lat="42.08372" lon="12.1529833"><ele>270.0</ele><time>2026-03-22T08:35:33.481Z</time></trkpt><trkpt lat="42.0837383" lon="12.1529"><ele>271.0</ele><time>2026-03-22T08:35:35.477Z</time></trkpt><trkpt lat="42.0837567" lon="12.152815"><ele>272.0</ele><time>2026-03-22T08:35:37.479Z</time></trkpt><trkpt lat="42.083775" lon="12.1527283"><ele>273.0</ele><time>2026-03-22T08:35:39.483Z</time></trkpt><trkpt lat="42.083795" lon="12.1526383"><ele>274.0</ele><time>2026-03-22T08:35:41.478Z</time></trkpt><trkpt lat="42.0838233" lon="12.1525217"><ele>275.0</ele><time>2026-03-22T08:35:44.482Z</time></trkpt><trkpt lat="42.083855" lon="12.1524033"><ele>276.0</ele><time>2026-03-22T08:35:47.478Z</time></trkpt><trkpt lat="42.0838817" lon="12.1522833"><ele>276.3333333333333</ele><time>2026-03-22T08:35:50.476Z</time></trkpt><trkpt lat="42.0839117" lon="12.1521683"><ele>276.6666666666667</ele><time>2026-03-22T08:35:53.481Z</time></trkpt><trkpt lat="42.083945" lon="12.15206"><ele>277.0</ele><time>2026-03-22T08:35:56.483Z</time></trkpt><trkpt lat="42.0839717" lon="12.1519483"><ele>277.33333333333337</ele><time>2026-03-22T08:35:59.48Z</time></trkpt><trkpt lat="42.083995" lon="12.1518317"><ele>277.6666666666667</ele><time>2026-03-22T08:36:02.481Z</time></trkpt><trkpt lat="42.0840283" lon="12.1517283"><ele>278.0</ele><time>2026-03-22T08:36:05.477Z</time></trkpt><trkpt lat="42.0840583" lon="12.1516233"><ele>278.0</ele><time>2026-03-22T08:36:08.486Z</time></trkpt><trkpt lat="42.0840833" lon="12.1515117"><ele>278.0</ele><time>2026-03-22T08:36:11.479Z</time></trkpt><trkpt lat="42.08411" lon="12.1514083"><ele>278.0</ele><time>2026-03-22T08:36:14.478Z</time></trkpt><trkpt lat="42.0841383" lon="12.1513117"><ele>278.0</ele><time>2026-03-22T08:36:17.48Z</time></trkpt><trkpt lat="42.0841633" lon="12.1512117"><ele>278.0</ele><time>2026-03-22T08:36:20.479Z</time></trkpt><trkpt lat="42.0841667" lon="12.1511183"><ele>278.0</ele><time>2026-03-22T08:36:23.478Z</time></trkpt><trkpt lat="42.0842083" lon="12.1510267"><ele>278.0</ele><time>2026-03-22T08:36:27.477Z</time></trkpt><trkpt lat="42.084185" lon="12.1509317"><ele>278.0</ele><time>2026-03-22T08:36:32.478Z</time></trkpt><trkpt lat="42.0841867" lon="12.15076"><ele>278.0</ele><time>2026-03-22T08:37:12.48Z</time></trkpt><trkpt lat="42.0842183" lon="12.15064"><ele>278.0</ele><time>2026-03-22T08:37:15.478Z</time></trkpt><trkpt lat="42.0842583" lon="12.15055"><ele>278.0</ele><time>2026-03-22T08:37:17.479Z</time></trkpt><trkpt lat="42.0842783" lon="12.1504467"><ele>278.0</ele><time>2026-03-22T08:37:19.476Z</time></trkpt><trkpt lat="42.0843" lon="12.15034"><ele>278.0</ele><time>2026-03-22T08:37:21.482Z</time></trkpt><trkpt lat="42.0843317" lon="12.1502267"><ele>278.0</ele><time>2026-03-22T08:37:23.48Z</time></trkpt><trkpt lat="42.0843617" lon="12.1501117"><ele>278.0</ele><time>2026-03-22T08:37:25.476Z</time></trkpt><trkpt lat="42.08438" lon="12.1499883"><ele>278.0</ele><time>2026-03-22T08:37:27.481Z</time></trkpt><trkpt lat="42.0844083" lon="12.1498633"><ele>278.0</ele><time>2026-03-22T08:37:29.479Z</time></trkpt><trkpt lat="42.0844433" lon="12.1497583"><ele>278.0</ele><time>2026-03-22T08:37:31.482Z</time></trkpt><trkpt lat="42.0844717" lon="12.1496633"><ele>278.0</ele><time>2026-03-22T08:37:33.482Z</time></trkpt><trkpt lat="42.0845067" lon="12.14954"><ele>278.0</ele><time>2026-03-22T08:37:35.476Z</time></trkpt><trkpt lat="42.08453" lon="12.1493917"><ele>278.0</ele><time>2026-03-22T08:37:37.48Z</time></trkpt><trkpt lat="42.08456" lon="12.1492367"><ele>278.0</ele><time>2026-03-22T08:37:39.478Z</time></trkpt><trkpt lat="42.08458" lon="12.1491517"><ele>278.0</ele><time>2026-03-22T08:37:40.477Z</time></trkpt><trkpt lat="42.0846017" lon="12.1490617"><ele>278.0</ele><time>2026-03-22T08:37:41.485Z</time></trkpt><trkpt lat="42.0846267" lon="12.14897"><ele>278.0</ele><time>2026-03-22T08:37:42.479Z</time></trkpt><trkpt lat="42.0846533" lon="12.1488733"><ele>278.0</ele><time>2026-03-22T08:37:43.479Z</time></trkpt><trkpt lat="42.084675" lon="12.1487717"><ele>278.0</ele><time>2026-03-22T08:37:44.483Z</time></trkpt><trkpt lat="42.0846933" lon="12.1486733"><ele>278.0</ele><time>2026-03-22T08:37:45.483Z</time></trkpt><trkpt lat="42.0847133" lon="12.14858"><ele>277.25</ele><time>2026-03-22T08:37:46.477Z</time></trkpt><trkpt lat="42.0847467" lon="12.1484283"><ele>276.5</ele><time>2026-03-22T08:37:48.481Z</time></trkpt><trkpt lat="42.0847717" lon="12.14829"><ele>275.75</ele><time>2026-03-22T08:37:50.477Z</time></trkpt><trkpt lat="42.084805" lon="12.148135"><ele>275.0</ele><time>2026-03-22T08:37:52.48Z</time></trkpt><trkpt lat="42.0848267" lon="12.14798"><ele>274.0</ele><time>2026-03-22T08:37:54.482Z</time></trkpt><trkpt lat="42.0848467" lon="12.1478183"><ele>273.0</ele><time>2026-03-22T08:37:56.486Z</time></trkpt><trkpt lat="42.0848633" lon="12.1476633"><ele>272.0</ele><time>2026-03-22T08:37:58.479Z</time></trkpt><trkpt lat="42.0848817" lon="12.1475167"><ele>271.0</ele><time>2026-03-22T08:38:00.477Z</time></trkpt><trkpt lat="42.0848933" lon="12.1473783"><ele>271.0</ele><time>2026-03-22T08:38:02.48Z</time></trkpt><trkpt lat="42.0849167" lon="12.1472417"><ele>271.0</ele><time>2026-03-22T08:38:04.478Z</time></trkpt><trkpt lat="42.084945" lon="12.1470833"><ele>271.0</ele><time>2026-03-22T08:38:06.48Z</time></trkpt><trkpt lat="42.084985" lon="12.1469217"><ele>271.0</ele><time>2026-03-22T08:38:08.487Z</time></trkpt><trkpt lat="42.0850467" lon="12.1467733"><ele>271.0</ele><time>2026-03-22T08:38:10.483Z</time></trkpt><trkpt lat="42.0850833" lon="12.1467017"><ele>271.0</ele><time>2026-03-22T08:38:11.485Z</time></trkpt><trkpt lat="42.08512" lon="12.1466267"><ele>271.0</ele><time>2026-03-22T08:38:12.481Z</time></trkpt><trkpt lat="42.0851883" lon="12.146515"><ele>271.0</ele><time>2026-03-22T08:38:14.483Z</time></trkpt><trkpt lat="42.0852267" lon="12.146375"><ele>271.0</ele><time>2026-03-22T08:38:16.481Z</time></trkpt><trkpt lat="42.0852567" lon="12.1462333"><ele>270.40000000000003</ele><time>2026-03-22T08:38:18.48Z</time></trkpt><trkpt lat="42.0852767" lon="12.1460817"><ele>269.8</ele><time>2026-03-22T08:38:20.48Z</time></trkpt><trkpt lat="42.0852867" lon="12.1459267"><ele>269.20000000000005</ele><time>2026-03-22T08:38:22.483Z</time></trkpt><trkpt lat="42.0852917" lon="12.1457783"><ele>268.6</ele><time>2026-03-22T08:38:24.479Z</time></trkpt><trkpt lat="42.0852967" lon="12.1456417"><ele>268.0</ele><time>2026-03-22T08:38:26.485Z</time></trkpt><trkpt lat="42.0853067" lon="12.1455117"><ele>268.0</ele><time>2026-03-22T08:38:28.482Z</time></trkpt><trkpt lat="42.0852967" lon="12.1453833"><ele>268.0</ele><time>2026-03-22T08:38:30.478Z</time></trkpt><trkpt lat="42.0852733" lon="12.1452617"><ele>268.0</ele><time>2026-03-22T08:38:32.486Z</time></trkpt><trkpt lat="42.08524" lon="12.145165"><ele>268.0</ele><time>2026-03-22T08:38:34.478Z</time></trkpt><trkpt lat="42.0852067" lon="12.1450867"><ele>268.0</ele><time>2026-03-22T08:38:40.481Z</time></trkpt><trkpt lat="42.0851583" lon="12.14502"><ele>268.0</ele><time>2026-03-22T08:38:46.483Z</time></trkpt><trkpt lat="42.0850733" lon="12.1448933"><ele>268.16666666666663</ele><time>2026-03-22T08:38:59.477Z</time></trkpt><trkpt lat="42.085025" lon="12.1447867"><ele>268.3333333333333</ele><time>2026-03-22T08:39:02.483Z</time></trkpt><trkpt lat="42.0849917" lon="12.14469"><ele>268.5</ele><time>2026-03-22T08:39:05.479Z</time></trkpt><trkpt lat="42.0849367" lon="12.144615"><ele>268.6666666666667</ele><time>2026-03-22T08:39:08.479Z</time></trkpt><trkpt lat="42.084875" lon="12.1445183"><ele>268.83333333333337</ele><time>2026-03-22T08:39:11.486Z</time></trkpt><trkpt lat="42.0848333" lon="12.1444533"><ele>269.0</ele><time>2026-03-22T08:39:13.482Z</time></trkpt><trkpt lat="42.0847867" lon="12.1443833"><ele>269.2857142857143</ele><time>2026-03-22T08:39:15.481Z</time></trkpt><trkpt lat="42.0847383" lon="12.1443167"><ele>269.5714285714286</ele><time>2026-03-22T08:39:17.484Z</time></trkpt><trkpt lat="42.08469" lon="12.14425"><ele>269.8571428571429</ele><time>2026-03-22T08:39:19.483Z</time></trkpt><trkpt lat="42.08464" lon="12.1441883"><ele>270.14285714285717</ele><time>2026-03-22T08:39:21.48Z</time></trkpt><trkpt lat="42.0845967" lon="12.1441233"><ele>270.42857142857144</ele><time>2026-03-22T08:39:23.481Z</time></trkpt><trkpt lat="42.0845433" lon="12.1440433"><ele>270.7142857142857</ele><time>2026-03-22T08:39:25.484Z</time></trkpt><trkpt lat="42.0844833" lon="12.143945"><ele>271.0</ele><time>2026-03-22T08:39:27.477Z</time></trkpt><trkpt lat="42.0844167" lon="12.1438483"><ele>271.0</ele><time>2026-03-22T08:39:29.481Z</time></trkpt><trkpt lat="42.0843417" lon="12.14376"><ele>271.0</ele><time>2026-03-22T08:39:31.486Z</time></trkpt><trkpt lat="42.08427" lon="12.1436617"><ele>271.0</ele><time>2026-03-22T08:39:33.483Z</time></trkpt><trkpt lat="42.0842" lon="12.1435733"><ele>271.0</ele><time>2026-03-22T08:39:35.483Z</time></trkpt><trkpt lat="42.0841283" lon="12.1434983"><ele>271.0</ele><time>2026-03-22T08:39:37.486Z</time></trkpt><trkpt lat="42.0840717" lon="12.1434183"><ele>272.3333333333333</ele><time>2026-03-22T08:39:39.484Z</time></trkpt><trkpt lat="42.084005" lon="12.1433217"><ele>273.66666666666663</ele><time>2026-03-22T08:39:42.48Z</time></trkpt><trkpt lat="42.08395" lon="12.14328"><ele>275.0</ele><time>2026-03-22T08:39:44.486Z</time></trkpt><trkpt lat="42.0838817" lon="12.1432533"><ele>276.3333333333333</ele><time>2026-03-22T08:39:46.484Z</time></trkpt><trkpt lat="42.0838183" lon="12.14322"><ele>277.6666666666667</ele><time>2026-03-22T08:39:48.483Z</time></trkpt><trkpt lat="42.0837367" lon="12.1431633"><ele>279.0</ele><time>2026-03-22T08:39:51.484Z</time></trkpt><trkpt lat="42.0836567" lon="12.143135"><ele>279.1428571428571</ele><time>2026-03-22T08:39:54.479Z</time></trkpt><trkpt lat="42.0835933" lon="12.1430833"><ele>279.2857142857143</ele><time>2026-03-22T08:39:57.486Z</time></trkpt><trkpt lat="42.083535" lon="12.143035"><ele>279.42857142857144</ele><time>2026-03-22T08:40:00.486Z</time></trkpt><trkpt lat="42.0834683" lon="12.142985"><ele>279.57142857142856</ele><time>2026-03-22T08:40:03.481Z</time></trkpt><trkpt lat="42.0834017" lon="12.1429267"><ele>279.7142857142857</ele><time>2026-03-22T08:40:06.48Z</time></trkpt><trkpt lat="42.0833367" lon="12.14288"><ele>279.85714285714283</ele><time>2026-03-22T08:40:09.482Z</time></trkpt><trkpt lat="42.0832767" lon="12.14282"><ele>280.0</ele><time>2026-03-22T08:40:12.483Z</time></trkpt><trkpt lat="42.083225" lon="12.1427467"><ele>279.5</ele><time>2026-03-22T08:40:15.485Z</time></trkpt><trkpt lat="42.0831517" lon="12.1426733"><ele>279.0</ele><time>2026-03-22T08:40:18.482Z</time></trkpt><trkpt lat="42.0830933" lon="12.1426067"><ele>278.5</ele><time>2026-03-22T08:40:21.482Z</time></trkpt><trkpt lat="42.0830333" lon="12.1425367"><ele>278.0</ele><time>2026-03-22T08:40:25.486Z</time></trkpt><trkpt lat="42.0829783" lon="12.1424533"><ele>277.5</ele><time>2026-03-22T08:40:29.485Z</time></trkpt><trkpt lat="42.0829267" lon="12.14237"><ele>277.0</ele><time>2026-03-22T08:40:31.484Z</time></trkpt><trkpt lat="42.082865" lon="12.1422733"><ele>277.0</ele><time>2026-03-22T08:40:33.482Z</time></trkpt><trkpt lat="42.0827917" lon="12.142155"><ele>277.0</ele><time>2026-03-22T08:40:35.484Z</time></trkpt><trkpt lat="42.0827283" lon="12.1420333"><ele>277.0</ele><time>2026-03-22T08:40:37.482Z</time></trkpt><trkpt lat="42.0826717" lon="12.1419033"><ele>277.0</ele><time>2026-03-22T08:40:39.485Z</time></trkpt><trkpt lat="42.0826367" lon="12.1417633"><ele>277.0</ele><time>2026-03-22T08:40:41.48Z</time></trkpt><trkpt lat="42.0826167" lon="12.1416317"><ele>277.16666666666663</ele><time>2026-03-22T08:40:43.482Z</time></trkpt><trkpt lat="42.0826067" lon="12.1415017"><ele>277.3333333333333</ele><time>2026-03-22T08:40:45.482Z</time></trkpt><trkpt lat="42.0825917" lon="12.1413767"><ele>277.5</ele><time>2026-03-22T08:40:47.482Z</time></trkpt><trkpt lat="42.08256" lon="12.1412633"><ele>277.6666666666667</ele><time>2026-03-22T08:40:49.482Z</time></trkpt><trkpt lat="42.0825267" lon="12.1411617"><ele>277.83333333333337</ele><time>2026-03-22T08:40:51.487Z</time></trkpt><trkpt lat="42.0824883" lon="12.1410667"><ele>278.0</ele><time>2026-03-22T08:40:53.482Z</time></trkpt><trkpt lat="42.0824433" lon="12.14097"><ele>278.0</ele><time>2026-03-22T08:40:55.48Z</time></trkpt><trkpt lat="42.08239" lon="12.140875"><ele>278.0</ele><time>2026-03-22T08:40:57.483Z</time></trkpt><trkpt lat="42.0823333" lon="12.1407817"><ele>278.0</ele><time>2026-03-22T08:40:59.484Z</time></trkpt><trkpt lat="42.082275" lon="12.1406783"><ele>278.0</ele><time>2026-03-22T08:41:01.485Z</time></trkpt><trkpt lat="42.082195" lon="12.1405917"><ele>278.0</ele><time>2026-03-22T08:41:03.482Z</time></trkpt><trkpt lat="42.0821133" lon="12.1405267"><ele>278.5</ele><time>2026-03-22T08:41:05.481Z</time></trkpt><trkpt lat="42.08203" lon="12.14049"><ele>279.0</ele><time>2026-03-22T08:41:07.483Z</time></trkpt><trkpt lat="42.081945" lon="12.140475"><ele>279.5</ele><time>2026-03-22T08:41:09.491Z</time></trkpt><trkpt lat="42.0818633" lon="12.1404617"><ele>280.0</ele><time>2026-03-22T08:41:11.477Z</time></trkpt><trkpt lat="42.0817817" lon="12.1404417"><ele>280.5</ele><time>2026-03-22T08:41:13.478Z</time></trkpt><trkpt lat="42.0817017" lon="12.1404233"><ele>281.0</ele><time>2026-03-22T08:41:15.491Z</time></trkpt><trkpt lat="42.0816267" lon="12.14039"><ele>281.5</ele><time>2026-03-22T08:41:17.483Z</time></trkpt><trkpt lat="42.0815517" lon="12.1403667"><ele>282.0</ele><time>2026-03-22T08:41:19.482Z</time></trkpt><trkpt lat="42.081475" lon="12.1403483"><ele>282.5</ele><time>2026-03-22T08:41:21.484Z</time></trkpt><trkpt lat="42.081395" lon="12.14035"><ele>283.0</ele><time>2026-03-22T08:41:23.486Z</time></trkpt><trkpt lat="42.0813183" lon="12.1403417"><ele>283.5</ele><time>2026-03-22T08:41:25.487Z</time></trkpt><trkpt lat="42.0812383" lon="12.1403283"><ele>284.0</ele><time>2026-03-22T08:41:27.483Z</time></trkpt><trkpt lat="42.0811633" lon="12.1403117"><ele>284.0</ele><time>2026-03-22T08:41:29.48Z</time></trkpt><trkpt lat="42.0810883" lon="12.1403033"><ele>284.0</ele><time>2026-03-22T08:41:31.478Z</time></trkpt><trkpt lat="42.0810133" lon="12.1402983"><ele>284.0</ele><time>2026-03-22T08:41:33.481Z</time></trkpt><trkpt lat="42.0809367" lon="12.1403017"><ele>284.0</ele><time>2026-03-22T08:41:35.479Z</time></trkpt><trkpt lat="42.0808583" lon="12.1402967"><ele>284.0</ele><time>2026-03-22T08:41:37.485Z</time></trkpt><trkpt lat="42.0807833" lon="12.1402833"><ele>284.0</ele><time>2026-03-22T08:41:39.486Z</time></trkpt><trkpt lat="42.0807083" lon="12.1402667"><ele>283.83333333333337</ele><time>2026-03-22T08:41:41.482Z</time></trkpt><trkpt lat="42.0806383" lon="12.1402517"><ele>283.6666666666667</ele><time>2026-03-22T08:41:43.489Z</time></trkpt><trkpt lat="42.08057" lon="12.1402283"><ele>283.5</ele><time>2026-03-22T08:41:45.484Z</time></trkpt><trkpt lat="42.08051" lon="12.1401967"><ele>283.3333333333333</ele><time>2026-03-22T08:41:47.482Z</time></trkpt><trkpt lat="42.0804333" lon="12.1401217"><ele>283.16666666666663</ele><time>2026-03-22T08:41:50.484Z</time></trkpt><trkpt lat="42.0803533" lon="12.1400583"><ele>283.0</ele><time>2026-03-22T08:41:53.486Z</time></trkpt><trkpt lat="42.0802783" lon="12.1400133"><ele>283.0</ele><time>2026-03-22T08:41:56.484Z</time></trkpt><trkpt lat="42.0802017" lon="12.13995"><ele>283.0</ele><time>2026-03-22T08:41:59.485Z</time></trkpt><trkpt lat="42.0801417" lon="12.139915"><ele>283.0</ele><time>2026-03-22T08:42:01.484Z</time></trkpt><trkpt lat="42.0800633" lon="12.139875"><ele>283.0</ele><time>2026-03-22T08:42:04.483Z</time></trkpt><trkpt lat="42.079985" lon="12.1398117"><ele>283.0</ele><time>2026-03-22T08:42:07.48Z</time></trkpt><trkpt lat="42.0799317" lon="12.1397583"><ele>283.0</ele><time>2026-03-22T08:42:09.487Z</time></trkpt><trkpt lat="42.07988" lon="12.1396983"><ele>283.42857142857144</ele><time>2026-03-22T08:42:11.483Z</time></trkpt><trkpt lat="42.07982" lon="12.1396567"><ele>283.8571428571429</ele><time>2026-03-22T08:42:13.486Z</time></trkpt><trkpt lat="42.07976" lon="12.1396183"><ele>284.2857142857143</ele><time>2026-03-22T08:42:15.488Z</time></trkpt><trkpt lat="42.0797033" lon="12.1395767"><ele>284.7142857142857</ele><time>2026-03-22T08:42:17.488Z</time></trkpt><trkpt lat="42.0796483" lon="12.1395267"><ele>285.1428571428571</ele><time>2026-03-22T08:42:19.489Z</time></trkpt><trkpt lat="42.0795933" lon="12.1394667"><ele>285.57142857142856</ele><time>2026-03-22T08:42:21.487Z</time></trkpt><trkpt lat="42.07954" lon="12.1394083"><ele>286.0</ele><time>2026-03-22T08:42:23.482Z</time></trkpt><trkpt lat="42.07948" lon="12.139355"><ele>285.99999999999994</ele><time>2026-03-22T08:42:25.482Z</time></trkpt><trkpt lat="42.0794267" lon="12.1392983"><ele>286.0</ele><time>2026-03-22T08:42:27.485Z</time></trkpt><trkpt lat="42.079375" lon="12.1392383"><ele>286.0</ele><time>2026-03-22T08:42:29.478Z</time></trkpt><trkpt lat="42.0793167" lon="12.1391833"><ele>286.0</ele><time>2026-03-22T08:42:31.482Z</time></trkpt><trkpt lat="42.0792417" lon="12.1391167"><ele>286.0</ele><time>2026-03-22T08:42:34.483Z</time></trkpt><trkpt lat="42.0791867" lon="12.1390733"><ele>285.99999999999994</ele><time>2026-03-22T08:42:36.483Z</time></trkpt><trkpt lat="42.0791267" lon="12.13903"><ele>286.0</ele><time>2026-03-22T08:42:38.483Z</time></trkpt><trkpt lat="42.0790583" lon="12.138975"><ele>285.40000000000003</ele><time>2026-03-22T08:42:40.484Z</time></trkpt><trkpt lat="42.07899" lon="12.1389033"><ele>284.8</ele><time>2026-03-22T08:42:42.477Z</time></trkpt><trkpt lat="42.07891" lon="12.1388333"><ele>284.20000000000005</ele><time>2026-03-22T08:42:44.479Z</time></trkpt><trkpt lat="42.0788233" lon="12.13878"><ele>283.6</ele><time>2026-03-22T08:42:46.478Z</time></trkpt><trkpt lat="42.0787267" lon="12.1387233"><ele>283.0</ele><time>2026-03-22T08:42:48.48Z</time></trkpt><trkpt lat="42.0786267" lon="12.138655"><ele>283.0</ele><time>2026-03-22T08:42:50.478Z</time></trkpt><trkpt lat="42.0785183" lon="12.13857"><ele>283.0</ele><time>2026-03-22T08:42:52.483Z</time></trkpt><trkpt lat="42.07846" lon="12.13853"><ele>283.0</ele><time>2026-03-22T08:42:53.483Z</time></trkpt><trkpt lat="42.078405" lon="12.1384883"><ele>283.0</ele><time>2026-03-22T08:42:54.481Z</time></trkpt><trkpt lat="42.0783483" lon="12.13845"><ele>283.0</ele><time>2026-03-22T08:42:55.476Z</time></trkpt><trkpt lat="42.0782867" lon="12.13841"><ele>283.0</ele><time>2026-03-22T08:42:56.479Z</time></trkpt><trkpt lat="42.0782283" lon="12.1383683"><ele>282.66666666666663</ele><time>2026-03-22T08:42:57.487Z</time></trkpt><trkpt lat="42.0781667" lon="12.13833"><ele>282.3333333333333</ele><time>2026-03-22T08:42:58.48Z</time></trkpt><trkpt lat="42.0781067" lon="12.1382883"><ele>282.0</ele><time>2026-03-22T08:42:59.479Z</time></trkpt><trkpt lat="42.0780483" lon="12.1382467"><ele>281.6666666666667</ele><time>2026-03-22T08:43:00.478Z</time></trkpt><trkpt lat="42.07799" lon="12.138205"><ele>281.33333333333337</ele><time>2026-03-22T08:43:01.484Z</time></trkpt><trkpt lat="42.0778817" lon="12.1381267"><ele>281.0</ele><time>2026-03-22T08:43:03.491Z</time></trkpt><trkpt lat="42.0777833" lon="12.13805"><ele>281.0</ele><time>2026-03-22T08:43:05.48Z</time></trkpt><trkpt lat="42.07769" lon="12.1379667"><ele>281.0</ele><time>2026-03-22T08:43:07.478Z</time></trkpt><trkpt lat="42.0775867" lon="12.13789"><ele>281.0</ele><time>2026-03-22T08:43:09.484Z</time></trkpt><trkpt lat="42.077485" lon="12.137815"><ele>281.0</ele><time>2026-03-22T08:43:11.482Z</time></trkpt><trkpt lat="42.077385" lon="12.1377367"><ele>281.25</ele><time>2026-03-22T08:43:13.479Z</time></trkpt><trkpt lat="42.0772917" lon="12.137655"><ele>281.5</ele><time>2026-03-22T08:43:15.484Z</time></trkpt><trkpt lat="42.0772" lon="12.137575"><ele>281.75</ele><time>2026-03-22T08:43:17.481Z</time></trkpt><trkpt lat="42.07712" lon="12.1374683"><ele>282.0</ele><time>2026-03-22T08:43:19.482Z</time></trkpt><trkpt lat="42.077035" lon="12.1373517"><ele>282.0</ele><time>2026-03-22T08:43:21.488Z</time></trkpt><trkpt lat="42.0769517" lon="12.1372483"><ele>282.0</ele><time>2026-03-22T08:43:23.484Z</time></trkpt><trkpt lat="42.076865" lon="12.137155"><ele>282.0</ele><time>2026-03-22T08:43:25.481Z</time></trkpt><trkpt lat="42.0767783" lon="12.1370533"><ele>282.0</ele><time>2026-03-22T08:43:27.478Z</time></trkpt><trkpt lat="42.0766933" lon="12.1369367"><ele>282.0</ele><time>2026-03-22T08:43:29.478Z</time></trkpt><trkpt lat="42.0766267" lon="12.1368083"><ele>282.0</ele><time>2026-03-22T08:43:31.476Z</time></trkpt><trkpt lat="42.0765817" lon="12.1366733"><ele>282.0</ele><time>2026-03-22T08:43:33.475Z</time></trkpt><trkpt lat="42.07654" lon="12.1365333"><ele>282.0</ele><time>2026-03-22T08:43:35.478Z</time></trkpt><trkpt lat="42.0765" lon="12.1364"><ele>282.0</ele><time>2026-03-22T08:43:37.477Z</time></trkpt><trkpt lat="42.07645" lon="12.136275"><ele>282.4</ele><time>2026-03-22T08:43:39.483Z</time></trkpt><trkpt lat="42.076385" lon="12.1361567"><ele>282.79999999999995</ele><time>2026-03-22T08:43:41.476Z</time></trkpt><trkpt lat="42.07632" lon="12.136055"><ele>283.2</ele><time>2026-03-22T08:43:43.478Z</time></trkpt><trkpt lat="42.0762483" lon="12.1359667"><ele>283.59999999999997</ele><time>2026-03-22T08:43:45.477Z</time></trkpt><trkpt lat="42.0761567" lon="12.1358983"><ele>284.0</ele><time>2026-03-22T08:43:47.479Z</time></trkpt><trkpt lat="42.0760567" lon="12.13583"><ele>284.0</ele><time>2026-03-22T08:43:49.484Z</time></trkpt><trkpt lat="42.0759517" lon="12.1357633"><ele>284.0</ele><time>2026-03-22T08:43:51.476Z</time></trkpt><trkpt lat="42.0758433" lon="12.135705"><ele>284.0</ele><time>2026-03-22T08:43:53.476Z</time></trkpt><trkpt lat="42.0757367" lon="12.1356383"><ele>284.0</ele><time>2026-03-22T08:43:55.48Z</time></trkpt><trkpt lat="42.0756467" lon="12.13556"><ele>282.5</ele><time>2026-03-22T08:43:57.48Z</time></trkpt><trkpt lat="42.0755567" lon="12.1354633"><ele>281.0</ele><time>2026-03-22T08:43:59.481Z</time></trkpt><trkpt lat="42.0754633" lon="12.1353617"><ele>279.5</ele><time>2026-03-22T08:44:01.479Z</time></trkpt><trkpt lat="42.07536" lon="12.1352817"><ele>278.0</ele><time>2026-03-22T08:44:03.478Z</time></trkpt><trkpt lat="42.07525" lon="12.1352217"><ele>278.0</ele><time>2026-03-22T08:44:05.483Z</time></trkpt><trkpt lat="42.075145" lon="12.135155"><ele>278.0</ele><time>2026-03-22T08:44:07.48Z</time></trkpt><trkpt lat="42.0750467" lon="12.135075"><ele>278.0</ele><time>2026-03-22T08:44:09.485Z</time></trkpt><trkpt lat="42.0749533" lon="12.1350033"><ele>278.0</ele><time>2026-03-22T08:44:11.478Z</time></trkpt><trkpt lat="42.07486" lon="12.13495"><ele>278.0</ele><time>2026-03-22T08:44:13.482Z</time></trkpt><trkpt lat="42.0748" lon="12.1349233"><ele>276.5</ele><time>2026-03-22T08:44:14.482Z</time></trkpt><trkpt lat="42.0746883" lon="12.1348533"><ele>275.0</ele><time>2026-03-22T08:44:16.484Z</time></trkpt><trkpt lat="42.074585" lon="12.1347617"><ele>273.5</ele><time>2026-03-22T08:44:18.481Z</time></trkpt><trkpt lat="42.0744833" lon="12.1346733"><ele>272.0</ele><time>2026-03-22T08:44:20.484Z</time></trkpt><trkpt lat="42.0743833" lon="12.1345933"><ele>272.0</ele><time>2026-03-22T08:44:22.482Z</time></trkpt><trkpt lat="42.0742767" lon="12.1345167"><ele>272.0</ele><time>2026-03-22T08:44:24.481Z</time></trkpt><trkpt lat="42.07417" lon="12.134435"><ele>272.0</ele><time>2026-03-22T08:44:26.48Z</time></trkpt><trkpt lat="42.0741133" lon="12.134395"><ele>272.0</ele><time>2026-03-22T08:44:27.481Z</time></trkpt><trkpt lat="42.0740033" lon="12.1343117"><ele>272.0</ele><time>2026-03-22T08:44:29.485Z</time></trkpt><trkpt lat="42.0738967" lon="12.13423"><ele>271.5</ele><time>2026-03-22T08:44:31.488Z</time></trkpt><trkpt lat="42.0737917" lon="12.134145"><ele>271.0</ele><time>2026-03-22T08:44:33.483Z</time></trkpt><trkpt lat="42.0736833" lon="12.1340583"><ele>270.5</ele><time>2026-03-22T08:44:35.482Z</time></trkpt><trkpt lat="42.0735817" lon="12.1339683"><ele>270.0</ele><time>2026-03-22T08:44:37.482Z</time></trkpt><trkpt lat="42.0734783" lon="12.1338867"><ele>270.0</ele><time>2026-03-22T08:44:39.481Z</time></trkpt><trkpt lat="42.0733767" lon="12.1338017"><ele>270.0</ele><time>2026-03-22T08:44:41.478Z</time></trkpt><trkpt lat="42.073275" lon="12.1337117"><ele>270.0</ele><time>2026-03-22T08:44:43.476Z</time></trkpt><trkpt lat="42.073175" lon="12.133635"><ele>270.0</ele><time>2026-03-22T08:44:45.483Z</time></trkpt><trkpt lat="42.07308" lon="12.1335583"><ele>270.0</ele><time>2026-03-22T08:44:47.48Z</time></trkpt><trkpt lat="42.0729717" lon="12.1335083"><ele>270.0</ele><time>2026-03-22T08:44:49.482Z</time></trkpt><trkpt lat="42.072865" lon="12.1334633"><ele>270.0</ele><time>2026-03-22T08:44:51.478Z</time></trkpt><trkpt lat="42.0727567" lon="12.133415"><ele>270.0</ele><time>2026-03-22T08:44:53.484Z</time></trkpt><trkpt lat="42.0726433" lon="12.1333683"><ele>270.0</ele><time>2026-03-22T08:44:55.476Z</time></trkpt><trkpt lat="42.0725283" lon="12.1333167"><ele>270.0</ele><time>2026-03-22T08:44:57.481Z</time></trkpt><trkpt lat="42.0724117" lon="12.13328"><ele>270.0</ele><time>2026-03-22T08:44:59.48Z</time></trkpt><trkpt lat="42.0722917" lon="12.1332417"><ele>270.0</ele><time>2026-03-22T08:45:01.483Z</time></trkpt><trkpt lat="42.0721717" lon="12.133195"><ele>269.85714285714283</ele><time>2026-03-22T08:45:03.481Z</time></trkpt><trkpt lat="42.07211" lon="12.133175"><ele>269.71428571428567</ele><time>2026-03-22T08:45:04.48Z</time></trkpt><trkpt lat="42.072045" lon="12.133155"><ele>269.57142857142856</ele><time>2026-03-22T08:45:05.484Z</time></trkpt><trkpt lat="42.07198" lon="12.1331383"><ele>269.42857142857144</ele><time>2026-03-22T08:45:06.48Z</time></trkpt><trkpt lat="42.071915" lon="12.1331167"><ele>269.28571428571433</ele><time>2026-03-22T08:45:07.478Z</time></trkpt><trkpt lat="42.07185" lon="12.1330967"><ele>269.14285714285717</ele><time>2026-03-22T08:45:08.48Z</time></trkpt><trkpt lat="42.071785" lon="12.133075"><ele>269.0</ele><time>2026-03-22T08:45:09.479Z</time></trkpt><trkpt lat="42.07172" lon="12.133055"><ele>269.0</ele><time>2026-03-22T08:45:10.478Z</time></trkpt><trkpt lat="42.0716567" lon="12.1330333"><ele>269.0</ele><time>2026-03-22T08:45:11.481Z</time></trkpt><trkpt lat="42.0715917" lon="12.13301"><ele>269.0</ele><time>2026-03-22T08:45:12.479Z</time></trkpt><trkpt lat="42.071525" lon="12.132985"><ele>269.0</ele><time>2026-03-22T08:45:13.48Z</time></trkpt><trkpt lat="42.0714567" lon="12.13296"><ele>269.0</ele><time>2026-03-22T08:45:14.48Z</time></trkpt><trkpt lat="42.07139" lon="12.1329317"><ele>269.0</ele><time>2026-03-22T08:45:15.488Z</time></trkpt><trkpt lat="42.0713233" lon="12.1329017"><ele>269.0</ele><time>2026-03-22T08:45:16.485Z</time></trkpt><trkpt lat="42.0712567" lon="12.1328667"><ele>268.6666666666667</ele><time>2026-03-22T08:45:17.479Z</time></trkpt><trkpt lat="42.0711867" lon="12.1328333"><ele>268.33333333333337</ele><time>2026-03-22T08:45:18.484Z</time></trkpt><trkpt lat="42.0711167" lon="12.1327983"><ele>268.0</ele><time>2026-03-22T08:45:19.482Z</time></trkpt><trkpt lat="42.071045" lon="12.1327583"><ele>267.6666666666667</ele><time>2026-03-22T08:45:20.484Z</time></trkpt><trkpt lat="42.0709767" lon="12.132715"><ele>267.3333333333333</ele><time>2026-03-22T08:45:21.486Z</time></trkpt><trkpt lat="42.0709033" lon="12.13267"><ele>267.0</ele><time>2026-03-22T08:45:22.479Z</time></trkpt><trkpt lat="42.0708333" lon="12.13262"><ele>266.5</ele><time>2026-03-22T08:45:23.479Z</time></trkpt><trkpt lat="42.070765" lon="12.1325683"><ele>266.0</ele><time>2026-03-22T08:45:24.478Z</time></trkpt><trkpt lat="42.070695" lon="12.1325233"><ele>265.5</ele><time>2026-03-22T08:45:25.485Z</time></trkpt><trkpt lat="42.0706267" lon="12.1324783"><ele>265.0</ele><time>2026-03-22T08:45:26.479Z</time></trkpt><trkpt lat="42.0705583" lon="12.1324333"><ele>264.5</ele><time>2026-03-22T08:45:27.483Z</time></trkpt><trkpt lat="42.0704917" lon="12.13239"><ele>264.0</ele><time>2026-03-22T08:45:28.484Z</time></trkpt><trkpt lat="42.0704267" lon="12.1323417"><ele>263.8333333333333</ele><time>2026-03-22T08:45:29.481Z</time></trkpt><trkpt lat="42.07036" lon="12.1322917"><ele>263.6666666666667</ele><time>2026-03-22T08:45:30.477Z</time></trkpt><trkpt lat="42.07029" lon="12.132245"><ele>263.5</ele><time>2026-03-22T08:45:31.478Z</time></trkpt><trkpt lat="42.070215" lon="12.1321917"><ele>263.33333333333337</ele><time>2026-03-22T08:45:32.48Z</time></trkpt><trkpt lat="42.0701417" lon="12.13214"><ele>263.1666666666667</ele><time>2026-03-22T08:45:33.478Z</time></trkpt><trkpt lat="42.0700633" lon="12.1320883"><ele>263.0</ele><time>2026-03-22T08:45:34.482Z</time></trkpt><trkpt lat="42.0699817" lon="12.1320233"><ele>262.2</ele><time>2026-03-22T08:45:35.48Z</time></trkpt><trkpt lat="42.0699" lon="12.1319567"><ele>261.4</ele><time>2026-03-22T08:45:36.487Z</time></trkpt><trkpt lat="42.069815" lon="12.1318917"><ele>260.59999999999997</ele><time>2026-03-22T08:45:37.485Z</time></trkpt><trkpt lat="42.06973" lon="12.131825"><ele>259.8</ele><time>2026-03-22T08:45:38.482Z</time></trkpt><trkpt lat="42.0696467" lon="12.1317533"><ele>259.0</ele><time>2026-03-22T08:45:39.483Z</time></trkpt><trkpt lat="42.0695633" lon="12.1316833"><ele>259.0</ele><time>2026-03-22T08:45:40.485Z</time></trkpt><trkpt lat="42.0694783" lon="12.1316183"><ele>259.0</ele><time>2026-03-22T08:45:41.478Z</time></trkpt><trkpt lat="42.0693967" lon="12.1315467"><ele>259.0</ele><time>2026-03-22T08:45:42.485Z</time></trkpt><trkpt lat="42.0693183" lon="12.13147"><ele>259.0</ele><time>2026-03-22T08:45:43.482Z</time></trkpt><trkpt lat="42.0692383" lon="12.131405"><ele>259.0</ele><time>2026-03-22T08:45:44.476Z</time></trkpt><trkpt lat="42.0691567" lon="12.1313433"><ele>258.66666666666663</ele><time>2026-03-22T08:45:45.478Z</time></trkpt><trkpt lat="42.0690767" lon="12.1312817"><ele>258.3333333333333</ele><time>2026-03-22T08:45:46.479Z</time></trkpt><trkpt lat="42.069005" lon="12.1312167"><ele>258.0</ele><time>2026-03-22T08:45:47.48Z</time></trkpt><trkpt lat="42.068935" lon="12.1311517"><ele>257.6666666666667</ele><time>2026-03-22T08:45:48.48Z</time></trkpt><trkpt lat="42.0688633" lon="12.1310917"><ele>257.33333333333337</ele><time>2026-03-22T08:45:49.481Z</time></trkpt><trkpt lat="42.0687983" lon="12.1310333"><ele>257.0</ele><time>2026-03-22T08:45:50.48Z</time></trkpt><trkpt lat="42.0687317" lon="12.1309783"><ele>257.0</ele><time>2026-03-22T08:45:51.489Z</time></trkpt><trkpt lat="42.0686633" lon="12.1309267"><ele>257.0</ele><time>2026-03-22T08:45:52.483Z</time></trkpt><trkpt lat="42.0685933" lon="12.1308767"><ele>257.0</ele><time>2026-03-22T08:45:53.481Z</time></trkpt><trkpt lat="42.0685217" lon="12.1308283"><ele>257.0</ele><time>2026-03-22T08:45:54.48Z</time></trkpt><trkpt lat="42.0684483" lon="12.1307833"><ele>257.0</ele><time>2026-03-22T08:45:55.48Z</time></trkpt><trkpt lat="42.0683733" lon="12.130745"><ele>257.0</ele><time>2026-03-22T08:45:56.483Z</time></trkpt><trkpt lat="42.0682983" lon="12.1307133"><ele>256.5</ele><time>2026-03-22T08:45:57.479Z</time></trkpt><trkpt lat="42.0682267" lon="12.130685"><ele>256.0</ele><time>2026-03-22T08:45:58.48Z</time></trkpt><trkpt lat="42.0681517" lon="12.1306667"><ele>255.5</ele><time>2026-03-22T08:45:59.479Z</time></trkpt><trkpt lat="42.0680767" lon="12.130665"><ele>255.0</ele><time>2026-03-22T08:46:00.48Z</time></trkpt><trkpt lat="42.068" lon="12.130675"><ele>254.50000000000003</ele><time>2026-03-22T08:46:01.481Z</time></trkpt><trkpt lat="42.0679233" lon="12.1306917"><ele>254.0</ele><time>2026-03-22T08:46:02.48Z</time></trkpt><trkpt lat="42.0678483" lon="12.1307133"><ele>254.00000000000003</ele><time>2026-03-22T08:46:03.482Z</time></trkpt><trkpt lat="42.0677717" lon="12.1307383"><ele>254.0</ele><time>2026-03-22T08:46:04.479Z</time></trkpt><trkpt lat="42.0676983" lon="12.1307667"><ele>254.0</ele><time>2026-03-22T08:46:05.479Z</time></trkpt><trkpt lat="42.0676217" lon="12.130795"><ele>254.0</ele><time>2026-03-22T08:46:06.479Z</time></trkpt><trkpt lat="42.067545" lon="12.1308267"><ele>254.00000000000003</ele><time>2026-03-22T08:46:07.479Z</time></trkpt><trkpt lat="42.0674667" lon="12.130855"><ele>254.0</ele><time>2026-03-22T08:46:08.478Z</time></trkpt><trkpt lat="42.06739" lon="12.1308833"><ele>254.00000000000003</ele><time>2026-03-22T08:46:09.48Z</time></trkpt><trkpt lat="42.0673133" lon="12.1309133"><ele>254.0</ele><time>2026-03-22T08:46:10.483Z</time></trkpt><trkpt lat="42.0672367" lon="12.1309417"><ele>254.0</ele><time>2026-03-22T08:46:11.48Z</time></trkpt><trkpt lat="42.0671567" lon="12.1309683"><ele>254.0</ele><time>2026-03-22T08:46:12.483Z</time></trkpt><trkpt lat="42.06708" lon="12.1310017"><ele>254.00000000000003</ele><time>2026-03-22T08:46:13.482Z</time></trkpt><trkpt lat="42.067" lon="12.1310383"><ele>254.0</ele><time>2026-03-22T08:46:14.484Z</time></trkpt><trkpt lat="42.06692" lon="12.131075"><ele>254.00000000000003</ele><time>2026-03-22T08:46:15.483Z</time></trkpt><trkpt lat="42.06684" lon="12.13111"><ele>254.0</ele><time>2026-03-22T08:46:16.478Z</time></trkpt><trkpt lat="42.0667633" lon="12.1311417"><ele>254.0</ele><time>2026-03-22T08:46:17.481Z</time></trkpt><trkpt lat="42.0666817" lon="12.131175"><ele>254.0</ele><time>2026-03-22T08:46:18.481Z</time></trkpt><trkpt lat="42.0666033" lon="12.1312083"><ele>254.00000000000003</ele><time>2026-03-22T08:46:19.475Z</time></trkpt><trkpt lat="42.066525" lon="12.13124"><ele>254.0</ele><time>2026-03-22T08:46:20.479Z</time></trkpt><trkpt lat="42.0664483" lon="12.131275"><ele>253.33333333333334</ele><time>2026-03-22T08:46:21.481Z</time></trkpt><trkpt lat="42.0663733" lon="12.1313133"><ele>252.66666666666669</ele><time>2026-03-22T08:46:22.48Z</time></trkpt><trkpt lat="42.0663017" lon="12.1313517"><ele>252.0</ele><time>2026-03-22T08:46:23.483Z</time></trkpt><trkpt lat="42.06623" lon="12.13139"><ele>251.33333333333331</ele><time>2026-03-22T08:46:24.485Z</time></trkpt><trkpt lat="42.06616" lon="12.13143"><ele>250.66666666666666</ele><time>2026-03-22T08:46:25.48Z</time></trkpt><trkpt lat="42.06609" lon="12.13147"><ele>250.0</ele><time>2026-03-22T08:46:26.483Z</time></trkpt><trkpt lat="42.0660183" lon="12.1315067"><ele>249.99999999999997</ele><time>2026-03-22T08:46:27.482Z</time></trkpt><trkpt lat="42.065945" lon="12.1315417"><ele>250.0</ele><time>2026-03-22T08:46:28.479Z</time></trkpt><trkpt lat="42.0658717" lon="12.1315833"><ele>250.0</ele><time>2026-03-22T08:46:29.477Z</time></trkpt><trkpt lat="42.0658" lon="12.13162"><ele>250.0</ele><time>2026-03-22T08:46:30.481Z</time></trkpt><trkpt lat="42.0657267" lon="12.1316583"><ele>249.99999999999997</ele><time>2026-03-22T08:46:31.483Z</time></trkpt><trkpt lat="42.0656567" lon="12.1316967"><ele>250.0</ele><time>2026-03-22T08:46:32.478Z</time></trkpt><trkpt lat="42.0655867" lon="12.1317383"><ele>250.66666666666666</ele><time>2026-03-22T08:46:33.48Z</time></trkpt><trkpt lat="42.0655167" lon="12.13178"><ele>251.33333333333331</ele><time>2026-03-22T08:46:34.487Z</time></trkpt><trkpt lat="42.0654483" lon="12.1318233"><ele>252.0</ele><time>2026-03-22T08:46:35.48Z</time></trkpt><trkpt lat="42.0653783" lon="12.1318667"><ele>252.66666666666669</ele><time>2026-03-22T08:46:36.481Z</time></trkpt><trkpt lat="42.0653083" lon="12.131915"><ele>253.33333333333334</ele><time>2026-03-22T08:46:37.486Z</time></trkpt><trkpt lat="42.0652383" lon="12.13196"><ele>254.0</ele><time>2026-03-22T08:46:38.483Z</time></trkpt><trkpt lat="42.06517" lon="12.13201"><ele>254.0</ele><time>2026-03-22T08:46:39.488Z</time></trkpt><trkpt lat="42.0651033" lon="12.13206"><ele>254.0</ele><time>2026-03-22T08:46:40.481Z</time></trkpt><trkpt lat="42.06504" lon="12.1321117"><ele>254.0</ele><time>2026-03-22T08:46:41.478Z</time></trkpt><trkpt lat="42.0649783" lon="12.132165"><ele>254.0</ele><time>2026-03-22T08:46:42.478Z</time></trkpt><trkpt lat="42.064915" lon="12.1322133"><ele>254.0</ele><time>2026-03-22T08:46:43.475Z</time></trkpt><trkpt lat="42.0648533" lon="12.1322667"><ele>254.0</ele><time>2026-03-22T08:46:44.483Z</time></trkpt><trkpt lat="42.0647933" lon="12.1323217"><ele>254.0</ele><time>2026-03-22T08:46:45.476Z</time></trkpt><trkpt lat="42.0647367" lon="12.132375"><ele>253.85714285714286</ele><time>2026-03-22T08:46:46.477Z</time></trkpt><trkpt lat="42.06468" lon="12.1324283"><ele>253.71428571428572</ele><time>2026-03-22T08:46:47.48Z</time></trkpt><trkpt lat="42.0646233" lon="12.1324833"><ele>253.57142857142858</ele><time>2026-03-22T08:46:48.478Z</time></trkpt><trkpt lat="42.064565" lon="12.1325367"><ele>253.42857142857144</ele><time>2026-03-22T08:46:49.477Z</time></trkpt><trkpt lat="42.0645083" lon="12.1325917"><ele>253.28571428571428</ele><time>2026-03-22T08:46:50.477Z</time></trkpt><trkpt lat="42.0644517" lon="12.132645"><ele>253.14285714285717</ele><time>2026-03-22T08:46:51.481Z</time></trkpt><trkpt lat="42.0643967" lon="12.1327017"><ele>253.00000000000003</ele><time>2026-03-22T08:46:52.481Z</time></trkpt><trkpt lat="42.0643417" lon="12.132755"><ele>253.00000000000003</ele><time>2026-03-22T08:46:53.479Z</time></trkpt><trkpt lat="42.064285" lon="12.1328067"><ele>253.0</ele><time>2026-03-22T08:46:54.476Z</time></trkpt><trkpt lat="42.0642283" lon="12.1328617"><ele>253.00000000000003</ele><time>2026-03-22T08:46:55.479Z</time></trkpt><trkpt lat="42.064175" lon="12.132915"><ele>253.00000000000003</ele><time>2026-03-22T08:46:56.477Z</time></trkpt><trkpt lat="42.06412" lon="12.1329617"><ele>253.0</ele><time>2026-03-22T08:46:57.487Z</time></trkpt><trkpt lat="42.064065" lon="12.1330117"><ele>253.00000000000003</ele><time>2026-03-22T08:46:58.478Z</time></trkpt><trkpt lat="42.0640117" lon="12.13306"><ele>253.00000000000003</ele><time>2026-03-22T08:46:59.476Z</time></trkpt><trkpt lat="42.0639617" lon="12.1331117"><ele>252.66666666666666</ele><time>2026-03-22T08:47:00.477Z</time></trkpt><trkpt lat="42.0638733" lon="12.1332167"><ele>252.33333333333331</ele><time>2026-03-22T08:47:02.48Z</time></trkpt><trkpt lat="42.0638283" lon="12.1332767"><ele>252.0</ele><time>2026-03-22T08:47:03.477Z</time></trkpt><trkpt lat="42.063775" lon="12.1333367"><ele>251.66666666666669</ele><time>2026-03-22T08:47:04.483Z</time></trkpt><trkpt lat="42.0637183" lon="12.1333883"><ele>251.33333333333334</ele><time>2026-03-22T08:47:05.477Z</time></trkpt><trkpt lat="42.0636617" lon="12.133445"><ele>251.0</ele><time>2026-03-22T08:47:06.483Z</time></trkpt><trkpt lat="42.0635983" lon="12.1335083"><ele>251.00000000000003</ele><time>2026-03-22T08:47:07.479Z</time></trkpt><trkpt lat="42.0635333" lon="12.1335667"><ele>251.0</ele><time>2026-03-22T08:47:08.475Z</time></trkpt><trkpt lat="42.063465" lon="12.1336233"><ele>251.0</ele><time>2026-03-22T08:47:09.479Z</time></trkpt><trkpt lat="42.0633967" lon="12.133675"><ele>251.0</ele><time>2026-03-22T08:47:10.48Z</time></trkpt><trkpt lat="42.063325" lon="12.1337283"><ele>251.00000000000003</ele><time>2026-03-22T08:47:11.476Z</time></trkpt><trkpt lat="42.063255" lon="12.1337817"><ele>251.0</ele><time>2026-03-22T08:47:12.476Z</time></trkpt><trkpt lat="42.063185" lon="12.1338383"><ele>250.16666666666669</ele><time>2026-03-22T08:47:13.506Z</time></trkpt><trkpt lat="42.063115" lon="12.1338983"><ele>249.33333333333334</ele><time>2026-03-22T08:47:14.48Z</time></trkpt><trkpt lat="42.0630417" lon="12.13396"><ele>248.5</ele><time>2026-03-22T08:47:15.477Z</time></trkpt><trkpt lat="42.0629717" lon="12.1340217"><ele>247.66666666666669</ele><time>2026-03-22T08:47:16.478Z</time></trkpt><trkpt lat="42.0629033" lon="12.1340783"><ele>246.83333333333334</ele><time>2026-03-22T08:47:17.479Z</time></trkpt><trkpt lat="42.062835" lon="12.1341333"><ele>246.0</ele><time>2026-03-22T08:47:18.479Z</time></trkpt><trkpt lat="42.0627683" lon="12.1341867"><ele>246.00000000000003</ele><time>2026-03-22T08:47:19.483Z</time></trkpt><trkpt lat="42.0627017" lon="12.1342417"><ele>246.0</ele><time>2026-03-22T08:47:20.482Z</time></trkpt><trkpt lat="42.0626383" lon="12.134295"><ele>246.00000000000003</ele><time>2026-03-22T08:47:21.481Z</time></trkpt><trkpt lat="42.0625783" lon="12.1343483"><ele>246.00000000000003</ele><time>2026-03-22T08:47:22.48Z</time></trkpt><trkpt lat="42.06252" lon="12.1344017"><ele>246.0</ele><time>2026-03-22T08:47:23.477Z</time></trkpt><trkpt lat="42.0624617" lon="12.13445"><ele>246.00000000000003</ele><time>2026-03-22T08:47:24.48Z</time></trkpt><trkpt lat="42.0624067" lon="12.1345"><ele>246.00000000000003</ele><time>2026-03-22T08:47:25.486Z</time></trkpt><trkpt lat="42.0623517" lon="12.1345533"><ele>246.00000000000003</ele><time>2026-03-22T08:47:26.476Z</time></trkpt><trkpt lat="42.0622967" lon="12.134605"><ele>246.0</ele><time>2026-03-22T08:47:27.479Z</time></trkpt><trkpt lat="42.0622417" lon="12.1346483"><ele>246.00000000000003</ele><time>2026-03-22T08:47:28.481Z</time></trkpt><trkpt lat="42.062185" lon="12.1346933"><ele>246.00000000000003</ele><time>2026-03-22T08:47:29.48Z</time></trkpt><trkpt lat="42.0621233" lon="12.1347483"><ele>246.0</ele><time>2026-03-22T08:47:30.481Z</time></trkpt><trkpt lat="42.06206" lon="12.1348033"><ele>246.00000000000003</ele><time>2026-03-22T08:47:31.478Z</time></trkpt><trkpt lat="42.061995" lon="12.1348567"><ele>246.00000000000003</ele><time>2026-03-22T08:47:32.48Z</time></trkpt><trkpt lat="42.0619283" lon="12.134905"><ele>246.0</ele><time>2026-03-22T08:47:33.486Z</time></trkpt><trkpt lat="42.0618567" lon="12.1349383"><ele>246.0</ele><time>2026-03-22T08:47:34.481Z</time></trkpt><trkpt lat="42.06178" lon="12.1349533"><ele>246.0</ele><time>2026-03-22T08:47:35.476Z</time></trkpt><trkpt lat="42.061705" lon="12.13496"><ele>246.0</ele><time>2026-03-22T08:47:36.479Z</time></trkpt><trkpt lat="42.06163" lon="12.1349667"><ele>246.0</ele><time>2026-03-22T08:47:37.48Z</time></trkpt><trkpt lat="42.0615533" lon="12.1349667"><ele>246.0</ele><time>2026-03-22T08:47:38.478Z</time></trkpt><trkpt lat="42.0614817" lon="12.1349683"><ele>245.71428571428575</ele><time>2026-03-22T08:47:39.478Z</time></trkpt><trkpt lat="42.0614133" lon="12.1349683"><ele>245.42857142857144</ele><time>2026-03-22T08:47:40.482Z</time></trkpt><trkpt lat="42.0613483" lon="12.13496"><ele>245.14285714285714</ele><time>2026-03-22T08:47:41.476Z</time></trkpt><trkpt lat="42.0612817" lon="12.134935"><ele>244.85714285714286</ele><time>2026-03-22T08:47:42.483Z</time></trkpt><trkpt lat="42.0612167" lon="12.1349033"><ele>244.57142857142856</ele><time>2026-03-22T08:47:43.481Z</time></trkpt><trkpt lat="42.0611467" lon="12.1348667"><ele>244.28571428571425</ele><time>2026-03-22T08:47:44.479Z</time></trkpt><trkpt lat="42.0610783" lon="12.1348183"><ele>243.99999999999997</ele><time>2026-03-22T08:47:45.485Z</time></trkpt><trkpt lat="42.0610067" lon="12.1347733"><ele>243.49999999999997</ele><time>2026-03-22T08:47:46.481Z</time></trkpt><trkpt lat="42.0609367" lon="12.13473"><ele>243.0</ele><time>2026-03-22T08:47:47.481Z</time></trkpt><trkpt lat="42.0608683" lon="12.1346833"><ele>242.5</ele><time>2026-03-22T08:47:48.479Z</time></trkpt><trkpt lat="42.0608017" lon="12.1346333"><ele>242.0</ele><time>2026-03-22T08:47:49.486Z</time></trkpt><trkpt lat="42.0607317" lon="12.134585"><ele>241.49999999999997</ele><time>2026-03-22T08:47:50.483Z</time></trkpt><trkpt lat="42.06066" lon="12.1345333"><ele>241.0</ele><time>2026-03-22T08:47:51.482Z</time></trkpt><trkpt lat="42.06059" lon="12.1344817"><ele>240.83333333333331</ele><time>2026-03-22T08:47:52.483Z</time></trkpt><trkpt lat="42.0605167" lon="12.134435"><ele>240.66666666666666</ele><time>2026-03-22T08:47:53.479Z</time></trkpt><trkpt lat="42.0604433" lon="12.1343883"><ele>240.5</ele><time>2026-03-22T08:47:54.486Z</time></trkpt><trkpt lat="42.0603683" lon="12.13434"><ele>240.33333333333331</ele><time>2026-03-22T08:47:55.487Z</time></trkpt><trkpt lat="42.0602933" lon="12.1342917"><ele>240.16666666666666</ele><time>2026-03-22T08:47:56.479Z</time></trkpt><trkpt lat="42.0602217" lon="12.1342483"><ele>240.0</ele><time>2026-03-22T08:47:57.483Z</time></trkpt><trkpt lat="42.0601483" lon="12.134205"><ele>240.0</ele><time>2026-03-22T08:47:58.484Z</time></trkpt><trkpt lat="42.0600783" lon="12.1341617"><ele>240.0</ele><time>2026-03-22T08:47:59.48Z</time></trkpt><trkpt lat="42.060005" lon="12.134115"><ele>240.0</ele><time>2026-03-22T08:48:00.486Z</time></trkpt><trkpt lat="42.0599333" lon="12.1340667"><ele>240.0</ele><time>2026-03-22T08:48:01.481Z</time></trkpt><trkpt lat="42.05986" lon="12.1340167"><ele>240.0</ele><time>2026-03-22T08:48:02.483Z</time></trkpt><trkpt lat="42.0597867" lon="12.133965"><ele>240.0</ele><time>2026-03-22T08:48:03.48Z</time></trkpt><trkpt lat="42.0597183" lon="12.1339083"><ele>240.0</ele><time>2026-03-22T08:48:04.484Z</time></trkpt><trkpt lat="42.0596517" lon="12.1338467"><ele>240.0</ele><time>2026-03-22T08:48:05.48Z</time></trkpt><trkpt lat="42.05959" lon="12.1337817"><ele>240.0</ele><time>2026-03-22T08:48:06.483Z</time></trkpt><trkpt lat="42.05953" lon="12.133715"><ele>240.0</ele><time>2026-03-22T08:48:07.484Z</time></trkpt><trkpt lat="42.0594733" lon="12.13365"><ele>240.0</ele><time>2026-03-22T08:48:08.491Z</time></trkpt><trkpt lat="42.0594217" lon="12.1335833"><ele>240.0</ele><time>2026-03-22T08:48:09.481Z</time></trkpt><trkpt lat="42.0593733" lon="12.133515"><ele>240.0</ele><time>2026-03-22T08:48:10.486Z</time></trkpt><trkpt lat="42.0593233" lon="12.1334467"><ele>240.0</ele><time>2026-03-22T08:48:11.481Z</time></trkpt><trkpt lat="42.05928" lon="12.1333767"><ele>240.0</ele><time>2026-03-22T08:48:12.484Z</time></trkpt><trkpt lat="42.0592383" lon="12.1333067"><ele>240.0</ele><time>2026-03-22T08:48:13.489Z</time></trkpt><trkpt lat="42.0592017" lon="12.133235"><ele>240.0</ele><time>2026-03-22T08:48:14.478Z</time></trkpt><trkpt lat="42.0591633" lon="12.133165"><ele>240.0</ele><time>2026-03-22T08:48:15.484Z</time></trkpt><trkpt lat="42.05912" lon="12.1330983"><ele>240.0</ele><time>2026-03-22T08:48:16.479Z</time></trkpt><trkpt lat="42.0590817" lon="12.13303"><ele>240.5</ele><time>2026-03-22T08:48:17.482Z</time></trkpt><trkpt lat="42.0590133" lon="12.1328867"><ele>241.0</ele><time>2026-03-22T08:48:19.481Z</time></trkpt><trkpt lat="42.0589767" lon="12.132815"><ele>241.5</ele><time>2026-03-22T08:48:20.491Z</time></trkpt><trkpt lat="42.0589383" lon="12.1327433"><ele>242.0</ele><time>2026-03-22T08:48:21.48Z</time></trkpt><trkpt lat="42.0589017" lon="12.1326733"><ele>242.5</ele><time>2026-03-22T08:48:22.485Z</time></trkpt><trkpt lat="42.0588633" lon="12.1326017"><ele>243.0</ele><time>2026-03-22T08:48:23.483Z</time></trkpt><trkpt lat="42.058825" lon="12.13253"><ele>243.0</ele><time>2026-03-22T08:48:24.483Z</time></trkpt><trkpt lat="42.0587883" lon="12.1324583"><ele>243.0</ele><time>2026-03-22T08:48:25.481Z</time></trkpt><trkpt lat="42.05875" lon="12.13239"><ele>243.0</ele><time>2026-03-22T08:48:26.482Z</time></trkpt><trkpt lat="42.0586733" lon="12.1322517"><ele>243.0</ele><time>2026-03-22T08:48:28.483Z</time></trkpt><trkpt lat="42.05863" lon="12.13218"><ele>243.0</ele><time>2026-03-22T08:48:29.488Z</time></trkpt><trkpt lat="42.058585" lon="12.132105"><ele>243.0</ele><time>2026-03-22T08:48:30.481Z</time></trkpt><trkpt lat="42.0585367" lon="12.1320233"><ele>242.5</ele><time>2026-03-22T08:48:31.48Z</time></trkpt><trkpt lat="42.05849" lon="12.1319367"><ele>242.0</ele><time>2026-03-22T08:48:32.481Z</time></trkpt><trkpt lat="42.058445" lon="12.1318483"><ele>241.5</ele><time>2026-03-22T08:48:33.484Z</time></trkpt><trkpt lat="42.0583983" lon="12.1317633"><ele>241.0</ele><time>2026-03-22T08:48:34.482Z</time></trkpt><trkpt lat="42.058345" lon="12.13167"><ele>240.5</ele><time>2026-03-22T08:48:35.488Z</time></trkpt><trkpt lat="42.058295" lon="12.1315783"><ele>240.0</ele><time>2026-03-22T08:48:36.483Z</time></trkpt><trkpt lat="42.0582417" lon="12.1314833"><ele>239.5</ele><time>2026-03-22T08:48:37.481Z</time></trkpt><trkpt lat="42.05819" lon="12.1313867"><ele>239.0</ele><time>2026-03-22T08:48:38.481Z</time></trkpt><trkpt lat="42.058145" lon="12.13129"><ele>238.5</ele><time>2026-03-22T08:48:39.482Z</time></trkpt><trkpt lat="42.0581017" lon="12.1311917"><ele>238.0</ele><time>2026-03-22T08:48:40.484Z</time></trkpt><trkpt lat="42.0580633" lon="12.1310933"><ele>237.5</ele><time>2026-03-22T08:48:41.48Z</time></trkpt><trkpt lat="42.0580317" lon="12.1309967"><ele>237.0</ele><time>2026-03-22T08:48:42.479Z</time></trkpt><trkpt lat="42.0579967" lon="12.1308883"><ele>237.0</ele><time>2026-03-22T08:48:43.483Z</time></trkpt><trkpt lat="42.05797" lon="12.1307767"><ele>237.0</ele><time>2026-03-22T08:48:44.486Z</time></trkpt><trkpt lat="42.0579533" lon="12.130665"><ele>237.0</ele><time>2026-03-22T08:48:45.482Z</time></trkpt><trkpt lat="42.0579433" lon="12.1305567"><ele>237.0</ele><time>2026-03-22T08:48:46.488Z</time></trkpt><trkpt lat="42.0579433" lon="12.1304583"><ele>237.0</ele><time>2026-03-22T08:48:47.478Z</time></trkpt><trkpt lat="42.0579433" lon="12.130355"><ele>237.0</ele><time>2026-03-22T08:48:48.483Z</time></trkpt><trkpt lat="42.0579433" lon="12.1302517"><ele>237.0</ele><time>2026-03-22T08:48:49.483Z</time></trkpt><trkpt lat="42.0579567" lon="12.1300817"><ele>237.0</ele><time>2026-03-22T08:48:51.482Z</time></trkpt><trkpt lat="42.0579533" lon="12.1299833"><ele>237.0</ele><time>2026-03-22T08:48:52.48Z</time></trkpt><trkpt lat="42.0579533" lon="12.12989"><ele>237.0</ele><time>2026-03-22T08:48:53.495Z</time></trkpt><trkpt lat="42.0579517" lon="12.1297967"><ele>237.0</ele><time>2026-03-22T08:48:54.483Z</time></trkpt><trkpt lat="42.05795" lon="12.1297017"><ele>237.0</ele><time>2026-03-22T08:48:55.48Z</time></trkpt><trkpt lat="42.0579467" lon="12.12961"><ele>237.33333333333334</ele><time>2026-03-22T08:48:56.477Z</time></trkpt><trkpt lat="42.0579433" lon="12.1295167"><ele>237.66666666666669</ele><time>2026-03-22T08:48:57.479Z</time></trkpt><trkpt lat="42.05794" lon="12.129425"><ele>238.0</ele><time>2026-03-22T08:48:58.478Z</time></trkpt><trkpt lat="42.0579367" lon="12.1293333"><ele>238.33333333333334</ele><time>2026-03-22T08:48:59.479Z</time></trkpt><trkpt lat="42.0579317" lon="12.129245"><ele>238.66666666666669</ele><time>2026-03-22T08:49:00.478Z</time></trkpt><trkpt lat="42.0579283" lon="12.1291567"><ele>239.0</ele><time>2026-03-22T08:49:01.478Z</time></trkpt><trkpt lat="42.0579167" lon="12.1289933"><ele>239.0</ele><time>2026-03-22T08:49:03.48Z</time></trkpt><trkpt lat="42.0579033" lon="12.128835"><ele>238.99999999999997</ele><time>2026-03-22T08:49:05.476Z</time></trkpt><trkpt lat="42.0578833" lon="12.1286767"><ele>238.99999999999997</ele><time>2026-03-22T08:49:07.477Z</time></trkpt><trkpt lat="42.057845" lon="12.1285267"><ele>239.0</ele><time>2026-03-22T08:49:09.477Z</time></trkpt><trkpt lat="42.0578133" lon="12.1284533"><ele>239.0</ele><time>2026-03-22T08:49:10.478Z</time></trkpt><trkpt lat="42.0577717" lon="12.1283833"><ele>239.00000000000003</ele><time>2026-03-22T08:49:11.476Z</time></trkpt><trkpt lat="42.0577233" lon="12.12832"><ele>239.0</ele><time>2026-03-22T08:49:12.476Z</time></trkpt><trkpt lat="42.05767" lon="12.1282667"><ele>239.00000000000003</ele><time>2026-03-22T08:49:13.477Z</time></trkpt><trkpt lat="42.0576083" lon="12.12822"><ele>239.00000000000003</ele><time>2026-03-22T08:49:14.478Z</time></trkpt><trkpt lat="42.057545" lon="12.1281767"><ele>239.0</ele><time>2026-03-22T08:49:15.481Z</time></trkpt><trkpt lat="42.0574783" lon="12.12814"><ele>239.00000000000003</ele><time>2026-03-22T08:49:16.482Z</time></trkpt><trkpt lat="42.0574117" lon="12.128105"><ele>239.00000000000003</ele><time>2026-03-22T08:49:17.478Z</time></trkpt><trkpt lat="42.0573467" lon="12.1280667"><ele>238.42857142857144</ele><time>2026-03-22T08:49:18.478Z</time></trkpt><trkpt lat="42.0572817" lon="12.1280283"><ele>237.85714285714286</ele><time>2026-03-22T08:49:19.481Z</time></trkpt><trkpt lat="42.057215" lon="12.12799"><ele>237.28571428571428</ele><time>2026-03-22T08:49:20.479Z</time></trkpt><trkpt lat="42.0571467" lon="12.12795"><ele>236.71428571428572</ele><time>2026-03-22T08:49:21.48Z</time></trkpt><trkpt lat="42.0570817" lon="12.1279083"><ele>236.1428571428571</ele><time>2026-03-22T08:49:22.481Z</time></trkpt><trkpt lat="42.0570133" lon="12.1278633"><ele>235.57142857142856</ele><time>2026-03-22T08:49:23.48Z</time></trkpt><trkpt lat="42.0569433" lon="12.1278217"><ele>235.0</ele><time>2026-03-22T08:49:24.481Z</time></trkpt><trkpt lat="42.0568767" lon="12.1277817"><ele>234.99999999999997</ele><time>2026-03-22T08:49:25.477Z</time></trkpt><trkpt lat="42.056805" lon="12.12774"><ele>235.0</ele><time>2026-03-22T08:49:26.481Z</time></trkpt><trkpt lat="42.0567333" lon="12.1276967"><ele>235.0</ele><time>2026-03-22T08:49:27.477Z</time></trkpt><trkpt lat="42.0566567" lon="12.127655"><ele>235.0</ele><time>2026-03-22T08:49:28.479Z</time></trkpt><trkpt lat="42.05658" lon="12.127615"><ele>234.99999999999997</ele><time>2026-03-22T08:49:29.483Z</time></trkpt><trkpt lat="42.0565067" lon="12.1275767"><ele>235.0</ele><time>2026-03-22T08:49:30.479Z</time></trkpt><trkpt lat="42.0564333" lon="12.12754"><ele>234.66666666666666</ele><time>2026-03-22T08:49:31.478Z</time></trkpt><trkpt lat="42.0563633" lon="12.1275017"><ele>234.33333333333331</ele><time>2026-03-22T08:49:32.483Z</time></trkpt><trkpt lat="42.05629" lon="12.1274633"><ele>234.0</ele><time>2026-03-22T08:49:33.476Z</time></trkpt><trkpt lat="42.05622" lon="12.127425"><ele>233.66666666666669</ele><time>2026-03-22T08:49:34.479Z</time></trkpt><trkpt lat="42.0561517" lon="12.1273883"><ele>233.33333333333334</ele><time>2026-03-22T08:49:35.48Z</time></trkpt><trkpt lat="42.0560817" lon="12.1273567"><ele>233.0</ele><time>2026-03-22T08:49:36.481Z</time></trkpt><trkpt lat="42.0560133" lon="12.1273183"><ele>233.0</ele><time>2026-03-22T08:49:37.481Z</time></trkpt><trkpt lat="42.0559483" lon="12.1272783"><ele>233.0</ele><time>2026-03-22T08:49:38.48Z</time></trkpt><trkpt lat="42.0558833" lon="12.1272417"><ele>233.0</ele><time>2026-03-22T08:49:39.485Z</time></trkpt><trkpt lat="42.0558167" lon="12.12721"><ele>233.0</ele><time>2026-03-22T08:49:40.484Z</time></trkpt><trkpt lat="42.0557533" lon="12.1271783"><ele>233.0</ele><time>2026-03-22T08:49:41.48Z</time></trkpt><trkpt lat="42.0556917" lon="12.127145"><ele>233.0</ele><time>2026-03-22T08:49:42.48Z</time></trkpt><trkpt lat="42.05563" lon="12.1271067"><ele>233.0</ele><time>2026-03-22T08:49:43.483Z</time></trkpt><trkpt lat="42.0555683" lon="12.12707"><ele>233.0</ele><time>2026-03-22T08:49:44.479Z</time></trkpt><trkpt lat="42.0555083" lon="12.1270333"><ele>233.0</ele><time>2026-03-22T08:49:45.481Z</time></trkpt><trkpt lat="42.0554467" lon="12.1269933"><ele>233.0</ele><time>2026-03-22T08:49:46.481Z</time></trkpt><trkpt lat="42.0553833" lon="12.1269517"><ele>233.0</ele><time>2026-03-22T08:49:47.484Z</time></trkpt><trkpt lat="42.0553183" lon="12.1269167"><ele>233.0</ele><time>2026-03-22T08:49:48.478Z</time></trkpt><trkpt lat="42.0552533" lon="12.1268867"><ele>233.0</ele><time>2026-03-22T08:49:49.479Z</time></trkpt><trkpt lat="42.0551833" lon="12.1268583"><ele>233.0</ele><time>2026-03-22T08:49:50.478Z</time></trkpt><trkpt lat="42.0551117" lon="12.1268283"><ele>233.00000000000003</ele><time>2026-03-22T08:49:51.477Z</time></trkpt><trkpt lat="42.055035" lon="12.1268"><ele>233.0</ele><time>2026-03-22T08:49:52.48Z</time></trkpt><trkpt lat="42.0549617" lon="12.1267683"><ele>233.0</ele><time>2026-03-22T08:49:53.478Z</time></trkpt><trkpt lat="42.0548867" lon="12.126735"><ele>233.0</ele><time>2026-03-22T08:49:54.479Z</time></trkpt><trkpt lat="42.0548133" lon="12.1266967"><ele>233.00000000000003</ele><time>2026-03-22T08:49:55.481Z</time></trkpt><trkpt lat="42.0547433" lon="12.1266583"><ele>233.0</ele><time>2026-03-22T08:49:56.477Z</time></trkpt><trkpt lat="42.05467" lon="12.1266217"><ele>232.50000000000003</ele><time>2026-03-22T08:49:57.478Z</time></trkpt><trkpt lat="42.0546" lon="12.1265833"><ele>232.0</ele><time>2026-03-22T08:49:58.481Z</time></trkpt><trkpt lat="42.05453" lon="12.1265433"><ele>231.5</ele><time>2026-03-22T08:49:59.478Z</time></trkpt><trkpt lat="42.0544583" lon="12.1265033"><ele>231.0</ele><time>2026-03-22T08:50:00.478Z</time></trkpt><trkpt lat="42.0543833" lon="12.1264633"><ele>230.50000000000003</ele><time>2026-03-22T08:50:01.481Z</time></trkpt><trkpt lat="42.0543133" lon="12.12643"><ele>230.0</ele><time>2026-03-22T08:50:02.481Z</time></trkpt><trkpt lat="42.05424" lon="12.126395"><ele>230.00000000000003</ele><time>2026-03-22T08:50:03.48Z</time></trkpt><trkpt lat="42.0541617" lon="12.1263483"><ele>230.0</ele><time>2026-03-22T08:50:04.479Z</time></trkpt><trkpt lat="42.0540917" lon="12.1262933"><ele>230.0</ele><time>2026-03-22T08:50:05.479Z</time></trkpt><trkpt lat="42.054025" lon="12.126255"><ele>230.0</ele><time>2026-03-22T08:50:06.476Z</time></trkpt><trkpt lat="42.05395" lon="12.1262117"><ele>230.00000000000003</ele><time>2026-03-22T08:50:07.478Z</time></trkpt><trkpt lat="42.053875" lon="12.1261617"><ele>230.0</ele><time>2026-03-22T08:50:08.482Z</time></trkpt><trkpt lat="42.0537933" lon="12.1261217"><ele>229.50000000000003</ele><time>2026-03-22T08:50:09.479Z</time></trkpt><trkpt lat="42.0537133" lon="12.1260783"><ele>229.0</ele><time>2026-03-22T08:50:10.482Z</time></trkpt><trkpt lat="42.0536333" lon="12.126035"><ele>228.5</ele><time>2026-03-22T08:50:11.483Z</time></trkpt><trkpt lat="42.0535617" lon="12.1259833"><ele>228.0</ele><time>2026-03-22T08:50:12.482Z</time></trkpt><trkpt lat="42.0534867" lon="12.1259383"><ele>227.50000000000003</ele><time>2026-03-22T08:50:13.482Z</time></trkpt><trkpt lat="42.0534017" lon="12.125895"><ele>227.0</ele><time>2026-03-22T08:50:14.484Z</time></trkpt><trkpt lat="42.0533267" lon="12.1258567"><ele>227.2</ele><time>2026-03-22T08:50:15.483Z</time></trkpt><trkpt lat="42.0532467" lon="12.1258233"><ele>227.39999999999998</ele><time>2026-03-22T08:50:16.484Z</time></trkpt><trkpt lat="42.053175" lon="12.1258"><ele>227.60000000000002</ele><time>2026-03-22T08:50:17.478Z</time></trkpt><trkpt lat="42.053065" lon="12.1257783"><ele>227.8</ele><time>2026-03-22T08:50:19.48Z</time></trkpt><trkpt lat="42.0529717" lon="12.1258167"><ele>228.0</ele><time>2026-03-22T08:50:21.478Z</time></trkpt><trkpt lat="42.0529417" lon="12.1259217"><ele>228.0</ele><time>2026-03-22T08:50:23.478Z</time></trkpt><trkpt lat="42.0529733" lon="12.1260133"><ele>228.0</ele><time>2026-03-22T08:50:25.48Z</time></trkpt><trkpt lat="42.0530567" lon="12.12603"><ele>228.0</ele><time>2026-03-22T08:50:28.481Z</time></trkpt><trkpt lat="42.05311" lon="12.125975"><ele>228.0</ele><time>2026-03-22T08:50:30.48Z</time></trkpt><trkpt lat="42.0531833" lon="12.1259433"><ele>228.0</ele><time>2026-03-22T08:50:33.482Z</time></trkpt><trkpt lat="42.0532617" lon="12.1258917"><ele>228.0</ele><time>2026-03-22T08:55:07.483Z</time></trkpt><trkpt lat="42.0533383" lon="12.125925"><ele>227.83333333333334</ele><time>2026-03-22T08:55:10.479Z</time></trkpt><trkpt lat="42.0534167" lon="12.1259467"><ele>227.66666666666669</ele><time>2026-03-22T08:55:13.481Z</time></trkpt><trkpt lat="42.053495" lon="12.1259917"><ele>227.5</ele><time>2026-03-22T08:55:16.477Z</time></trkpt><trkpt lat="42.0535767" lon="12.1260467"><ele>227.33333333333334</ele><time>2026-03-22T08:55:19.479Z</time></trkpt><trkpt lat="42.0536583" lon="12.126105"><ele>227.16666666666669</ele><time>2026-03-22T08:55:22.48Z</time></trkpt><trkpt lat="42.05372" lon="12.1261383"><ele>227.0</ele><time>2026-03-22T08:55:24.478Z</time></trkpt><trkpt lat="42.0538033" lon="12.1262"><ele>227.00000000000003</ele><time>2026-03-22T08:55:27.478Z</time></trkpt><trkpt lat="42.0538933" lon="12.1262433"><ele>227.0</ele><time>2026-03-22T08:55:30.476Z</time></trkpt><trkpt lat="42.053955" lon="12.1262733"><ele>227.0</ele><time>2026-03-22T08:55:32.477Z</time></trkpt><trkpt lat="42.05404" lon="12.126315"><ele>227.0</ele><time>2026-03-22T08:55:35.481Z</time></trkpt><trkpt lat="42.0541267" lon="12.1263483"><ele>227.00000000000003</ele><time>2026-03-22T08:55:38.482Z</time></trkpt><trkpt lat="42.0542133" lon="12.1263933"><ele>227.0</ele><time>2026-03-22T08:55:41.478Z</time></trkpt><trkpt lat="42.054275" lon="12.1264267"><ele>227.14285714285717</ele><time>2026-03-22T08:55:43.48Z</time></trkpt><trkpt lat="42.0543417" lon="12.1264583"><ele>227.2857142857143</ele><time>2026-03-22T08:55:45.481Z</time></trkpt><trkpt lat="42.0544017" lon="12.12649"><ele>227.42857142857144</ele><time>2026-03-22T08:55:47.478Z</time></trkpt><trkpt lat="42.05446" lon="12.126525"><ele>227.57142857142856</ele><time>2026-03-22T08:55:49.479Z</time></trkpt><trkpt lat="42.0545267" lon="12.1265567"><ele>227.7142857142857</ele><time>2026-03-22T08:55:51.48Z</time></trkpt><trkpt lat="42.0545917" lon="12.1265833"><ele>227.85714285714283</ele><time>2026-03-22T08:55:53.481Z</time></trkpt><trkpt lat="42.0546533" lon="12.126615"><ele>228.0</ele><time>2026-03-22T08:55:55.479Z</time></trkpt><trkpt lat="42.0547183" lon="12.1266467"><ele>228.0</ele><time>2026-03-22T08:55:57.483Z</time></trkpt><trkpt lat="42.054785" lon="12.1266883"><ele>228.0</ele><time>2026-03-22T08:55:59.476Z</time></trkpt><trkpt lat="42.054855" lon="12.12673"><ele>228.0</ele><time>2026-03-22T08:56:01.479Z</time></trkpt><trkpt lat="42.0549217" lon="12.1267683"><ele>228.0</ele><time>2026-03-22T08:56:03.477Z</time></trkpt><trkpt lat="42.0549917" lon="12.1268083"><ele>228.0</ele><time>2026-03-22T08:56:05.48Z</time></trkpt><trkpt lat="42.055065" lon="12.126845"><ele>228.0</ele><time>2026-03-22T08:56:07.478Z</time></trkpt><trkpt lat="42.0551367" lon="12.126885"><ele>228.7142857142857</ele><time>2026-03-22T08:56:09.48Z</time></trkpt><trkpt lat="42.0552083" lon="12.126915"><ele>229.4285714285714</ele><time>2026-03-22T08:56:11.484Z</time></trkpt><trkpt lat="42.0552733" lon="12.1269483"><ele>230.14285714285714</ele><time>2026-03-22T08:56:13.487Z</time></trkpt><trkpt lat="42.0553383" lon="12.1269867"><ele>230.85714285714283</ele><time>2026-03-22T08:56:15.483Z</time></trkpt><trkpt lat="42.0554033" lon="12.1270233"><ele>231.57142857142856</ele><time>2026-03-22T08:56:17.483Z</time></trkpt><trkpt lat="42.05547" lon="12.127055"><ele>232.28571428571428</ele><time>2026-03-22T08:56:19.48Z</time></trkpt><trkpt lat="42.0555383" lon="12.1270833"><ele>233.0</ele><time>2026-03-22T08:56:21.479Z</time></trkpt><trkpt lat="42.05561" lon="12.12711"><ele>233.0</ele><time>2026-03-22T08:56:23.483Z</time></trkpt><trkpt lat="42.0556767" lon="12.1271483"><ele>233.0</ele><time>2026-03-22T08:56:25.478Z</time></trkpt><trkpt lat="42.0557417" lon="12.12719"><ele>233.0</ele><time>2026-03-22T08:56:27.478Z</time></trkpt><trkpt lat="42.0558" lon="12.1272383"><ele>233.0</ele><time>2026-03-22T08:56:29.48Z</time></trkpt><trkpt lat="42.055865" lon="12.12728"><ele>233.0</ele><time>2026-03-22T08:56:31.476Z</time></trkpt><trkpt lat="42.0559333" lon="12.1273217"><ele>233.0</ele><time>2026-03-22T08:56:33.479Z</time></trkpt><trkpt lat="42.0560017" lon="12.1273667"><ele>233.0</ele><time>2026-03-22T08:56:35.477Z</time></trkpt><trkpt lat="42.0560733" lon="12.1274083"><ele>232.83333333333334</ele><time>2026-03-22T08:56:37.477Z</time></trkpt><trkpt lat="42.0561517" lon="12.1274467"><ele>232.66666666666669</ele><time>2026-03-22T08:56:39.481Z</time></trkpt><trkpt lat="42.05623" lon="12.1274933"><ele>232.5</ele><time>2026-03-22T08:56:41.477Z</time></trkpt><trkpt lat="42.0563083" lon="12.1275333"><ele>232.33333333333331</ele><time>2026-03-22T08:56:43.478Z</time></trkpt><trkpt lat="42.0563883" lon="12.127575"><ele>232.16666666666666</ele><time>2026-03-22T08:56:45.479Z</time></trkpt><trkpt lat="42.0564683" lon="12.1276233"><ele>232.0</ele><time>2026-03-22T08:56:47.476Z</time></trkpt><trkpt lat="42.056545" lon="12.1276617"><ele>231.99999999999997</ele><time>2026-03-22T08:56:49.484Z</time></trkpt><trkpt lat="42.056615" lon="12.1277"><ele>232.0</ele><time>2026-03-22T08:56:51.481Z</time></trkpt><trkpt lat="42.0566933" lon="12.127745"><ele>232.0</ele><time>2026-03-22T08:56:53.48Z</time></trkpt><trkpt lat="42.056765" lon="12.1277883"><ele>232.0</ele><time>2026-03-22T08:56:55.478Z</time></trkpt><trkpt lat="42.0568433" lon="12.1278283"><ele>231.99999999999997</ele><time>2026-03-22T08:56:57.484Z</time></trkpt><trkpt lat="42.05692" lon="12.1278717"><ele>232.0</ele><time>2026-03-22T08:56:59.48Z</time></trkpt><trkpt lat="42.0570017" lon="12.127915"><ele>232.6</ele><time>2026-03-22T08:57:01.481Z</time></trkpt><trkpt lat="42.0570917" lon="12.1279567"><ele>233.2</ele><time>2026-03-22T08:57:03.487Z</time></trkpt><trkpt lat="42.0571833" lon="12.1279933"><ele>233.8</ele><time>2026-03-22T08:57:05.488Z</time></trkpt><trkpt lat="42.0572683" lon="12.1280367"><ele>234.4</ele><time>2026-03-22T08:57:07.487Z</time></trkpt><trkpt lat="42.0573567" lon="12.1280933"><ele>235.0</ele><time>2026-03-22T08:57:09.486Z</time></trkpt><trkpt lat="42.0574483" lon="12.1281517"><ele>235.8</ele><time>2026-03-22T08:57:11.487Z</time></trkpt><trkpt lat="42.0575367" lon="12.1282267"><ele>236.6</ele><time>2026-03-22T08:57:13.479Z</time></trkpt><trkpt lat="42.0576233" lon="12.1283167"><ele>237.39999999999998</ele><time>2026-03-22T08:57:15.485Z</time></trkpt><trkpt lat="42.0576983" lon="12.12842"><ele>238.2</ele><time>2026-03-22T08:57:17.476Z</time></trkpt><trkpt lat="42.057765" lon="12.1285317"><ele>239.0</ele><time>2026-03-22T08:57:19.481Z</time></trkpt><trkpt lat="42.057815" lon="12.1286667"><ele>239.0</ele><time>2026-03-22T08:57:21.486Z</time></trkpt><trkpt lat="42.0578433" lon="12.1288017"><ele>238.99999999999997</ele><time>2026-03-22T08:57:23.482Z</time></trkpt><trkpt lat="42.05786" lon="12.1289333"><ele>238.99999999999997</ele><time>2026-03-22T08:57:25.482Z</time></trkpt><trkpt lat="42.0578717" lon="12.1290667"><ele>239.0</ele><time>2026-03-22T08:57:27.482Z</time></trkpt><trkpt lat="42.0578817" lon="12.1292067"><ele>239.0</ele><time>2026-03-22T08:57:29.481Z</time></trkpt><trkpt lat="42.0578917" lon="12.129355"><ele>239.0</ele><time>2026-03-22T08:57:31.483Z</time></trkpt><trkpt lat="42.0579" lon="12.1295067"><ele>239.0</ele><time>2026-03-22T08:57:33.481Z</time></trkpt><trkpt lat="42.057905" lon="12.1296583"><ele>239.0</ele><time>2026-03-22T08:57:35.485Z</time></trkpt><trkpt lat="42.0579033" lon="12.1298133"><ele>239.0</ele><time>2026-03-22T08:57:37.481Z</time></trkpt><trkpt lat="42.057905" lon="12.1299733"><ele>238.6</ele><time>2026-03-22T08:57:39.48Z</time></trkpt><trkpt lat="42.0578967" lon="12.13013"><ele>238.2</ele><time>2026-03-22T08:57:41.479Z</time></trkpt><trkpt lat="42.0578933" lon="12.13028"><ele>237.79999999999998</ele><time>2026-03-22T08:57:43.479Z</time></trkpt><trkpt lat="42.0578833" lon="12.1304233"><ele>237.39999999999998</ele><time>2026-03-22T08:57:45.48Z</time></trkpt><trkpt lat="42.0578783" lon="12.1305717"><ele>237.0</ele><time>2026-03-22T08:57:47.482Z</time></trkpt><trkpt lat="42.0578733" lon="12.130705"><ele>237.0</ele><time>2026-03-22T08:57:49.48Z</time></trkpt><trkpt lat="42.0578917" lon="12.13084"><ele>237.0</ele><time>2026-03-22T08:57:51.483Z</time></trkpt><trkpt lat="42.0579333" lon="12.1309633"><ele>237.0</ele><time>2026-03-22T08:57:53.486Z</time></trkpt><trkpt lat="42.0579917" lon="12.1310817"><ele>237.0</ele><time>2026-03-22T08:57:55.48Z</time></trkpt><trkpt lat="42.0580517" lon="12.1311867"><ele>237.0</ele><time>2026-03-22T08:57:57.486Z</time></trkpt><trkpt lat="42.0580983" lon="12.131305"><ele>237.0</ele><time>2026-03-22T08:57:59.48Z</time></trkpt><trkpt lat="42.058145" lon="12.131415"><ele>237.0</ele><time>2026-03-22T08:58:01.482Z</time></trkpt><trkpt lat="42.0581883" lon="12.1315117"><ele>237.0</ele><time>2026-03-22T08:58:03.487Z</time></trkpt><trkpt lat="42.05823" lon="12.1316033"><ele>237.0</ele><time>2026-03-22T08:58:05.478Z</time></trkpt><trkpt lat="42.0582783" lon="12.1316917"><ele>237.0</ele><time>2026-03-22T08:58:07.477Z</time></trkpt><trkpt lat="42.0583167" lon="12.131775"><ele>237.0</ele><time>2026-03-22T08:58:09.48Z</time></trkpt><trkpt lat="42.058365" lon="12.131865"><ele>237.5</ele><time>2026-03-22T08:58:11.481Z</time></trkpt><trkpt lat="42.0584233" lon="12.1319517"><ele>238.0</ele><time>2026-03-22T08:58:13.481Z</time></trkpt><trkpt lat="42.0584783" lon="12.132035"><ele>238.5</ele><time>2026-03-22T08:58:15.482Z</time></trkpt><trkpt lat="42.0585317" lon="12.1321233"><ele>239.0</ele><time>2026-03-22T08:58:17.48Z</time></trkpt><trkpt lat="42.0585867" lon="12.1322117"><ele>239.5</ele><time>2026-03-22T08:58:19.483Z</time></trkpt><trkpt lat="42.0586383" lon="12.1323017"><ele>240.0</ele><time>2026-03-22T08:58:21.484Z</time></trkpt><trkpt lat="42.0586867" lon="12.1323933"><ele>240.6</ele><time>2026-03-22T08:58:23.48Z</time></trkpt><trkpt lat="42.0587383" lon="12.13248"><ele>241.2</ele><time>2026-03-22T08:58:25.483Z</time></trkpt><trkpt lat="42.0587917" lon="12.132575"><ele>241.8</ele><time>2026-03-22T08:58:27.489Z</time></trkpt><trkpt lat="42.0588467" lon="12.1326733"><ele>242.4</ele><time>2026-03-22T08:58:29.482Z</time></trkpt><trkpt lat="42.0589033" lon="12.1327733"><ele>243.0</ele><time>2026-03-22T08:58:31.483Z</time></trkpt><trkpt lat="42.0589617" lon="12.1328767"><ele>243.0</ele><time>2026-03-22T08:58:33.487Z</time></trkpt><trkpt lat="42.0590217" lon="12.1329833"><ele>243.0</ele><time>2026-03-22T08:58:35.483Z</time></trkpt><trkpt lat="42.0590867" lon="12.133085"><ele>243.0</ele><time>2026-03-22T08:58:37.481Z</time></trkpt><trkpt lat="42.059145" lon="12.1331867"><ele>243.0</ele><time>2026-03-22T08:58:39.484Z</time></trkpt><trkpt lat="42.0592083" lon="12.13329"><ele>243.0</ele><time>2026-03-22T08:58:41.479Z</time></trkpt><trkpt lat="42.0592583" lon="12.1334017"><ele>242.4</ele><time>2026-03-22T08:58:43.48Z</time></trkpt><trkpt lat="42.05932" lon="12.13351"><ele>241.8</ele><time>2026-03-22T08:58:45.476Z</time></trkpt><trkpt lat="42.059385" lon="12.133605"><ele>241.2</ele><time>2026-03-22T08:58:47.476Z</time></trkpt><trkpt lat="42.0594533" lon="12.1336967"><ele>240.6</ele><time>2026-03-22T08:58:49.48Z</time></trkpt><trkpt lat="42.059525" lon="12.1337833"><ele>240.0</ele><time>2026-03-22T08:58:51.477Z</time></trkpt><trkpt lat="42.0595967" lon="12.13387"><ele>240.0</ele><time>2026-03-22T08:58:53.475Z</time></trkpt><trkpt lat="42.05967" lon="12.1339467"><ele>240.0</ele><time>2026-03-22T08:58:55.479Z</time></trkpt><trkpt lat="42.0597467" lon="12.13401"><ele>240.0</ele><time>2026-03-22T08:58:57.482Z</time></trkpt><trkpt lat="42.0598317" lon="12.1340567"><ele>240.0</ele><time>2026-03-22T08:58:59.483Z</time></trkpt><trkpt lat="42.0599133" lon="12.1341083"><ele>240.0</ele><time>2026-03-22T08:59:01.478Z</time></trkpt><trkpt lat="42.059995" lon="12.13416"><ele>240.0</ele><time>2026-03-22T08:59:03.484Z</time></trkpt><trkpt lat="42.0600733" lon="12.1342083"><ele>240.0</ele><time>2026-03-22T08:59:05.483Z</time></trkpt><trkpt lat="42.0601517" lon="12.1342567"><ele>240.0</ele><time>2026-03-22T08:59:07.482Z</time></trkpt><trkpt lat="42.0602317" lon="12.1343017"><ele>240.0</ele><time>2026-03-22T08:59:09.483Z</time></trkpt><trkpt lat="42.0603117" lon="12.134345"><ele>240.0</ele><time>2026-03-22T08:59:11.48Z</time></trkpt><trkpt lat="42.0603867" lon="12.134395"><ele>240.0</ele><time>2026-03-22T08:59:13.476Z</time></trkpt><trkpt lat="42.0604617" lon="12.1344433"><ele>240.0</ele><time>2026-03-22T08:59:15.48Z</time></trkpt><trkpt lat="42.06054" lon="12.1344883"><ele>240.0</ele><time>2026-03-22T08:59:17.479Z</time></trkpt><trkpt lat="42.060615" lon="12.1345383"><ele>240.0</ele><time>2026-03-22T08:59:19.48Z</time></trkpt><trkpt lat="42.06069" lon="12.13459"><ele>240.0</ele><time>2026-03-22T08:59:21.479Z</time></trkpt><trkpt lat="42.0607667" lon="12.134645"><ele>240.0</ele><time>2026-03-22T08:59:23.478Z</time></trkpt><trkpt lat="42.060835" lon="12.1346933"><ele>240.0</ele><time>2026-03-22T08:59:25.476Z</time></trkpt><trkpt lat="42.0609017" lon="12.1347417"><ele>240.16666666666666</ele><time>2026-03-22T08:59:27.478Z</time></trkpt><trkpt lat="42.060975" lon="12.1347933"><ele>240.33333333333331</ele><time>2026-03-22T08:59:29.479Z</time></trkpt><trkpt lat="42.0610517" lon="12.1348433"><ele>240.5</ele><time>2026-03-22T08:59:31.477Z</time></trkpt><trkpt lat="42.06112" lon="12.1348883"><ele>240.66666666666666</ele><time>2026-03-22T08:59:33.519Z</time></trkpt><trkpt lat="42.0611867" lon="12.1349217"><ele>240.83333333333331</ele><time>2026-03-22T08:59:35.483Z</time></trkpt><trkpt lat="42.06126" lon="12.134935"><ele>241.0</ele><time>2026-03-22T08:59:37.478Z</time></trkpt><trkpt lat="42.0613333" lon="12.1349567"><ele>241.42857142857144</ele><time>2026-03-22T08:59:39.477Z</time></trkpt><trkpt lat="42.0614033" lon="12.134965"><ele>241.8571428571429</ele><time>2026-03-22T08:59:41.481Z</time></trkpt><trkpt lat="42.0614733" lon="12.1349783"><ele>242.28571428571428</ele><time>2026-03-22T08:59:43.483Z</time></trkpt><trkpt lat="42.061545" lon="12.134985"><ele>242.71428571428572</ele><time>2026-03-22T08:59:45.482Z</time></trkpt><trkpt lat="42.06162" lon="12.1349933"><ele>243.14285714285714</ele><time>2026-03-22T08:59:47.484Z</time></trkpt><trkpt lat="42.06169" lon="12.1349933"><ele>243.57142857142856</ele><time>2026-03-22T08:59:49.493Z</time></trkpt><trkpt lat="42.0617567" lon="12.1349867"><ele>243.99999999999997</ele><time>2026-03-22T08:59:51.483Z</time></trkpt><trkpt lat="42.0618217" lon="12.1349733"><ele>243.99999999999997</ele><time>2026-03-22T08:59:53.48Z</time></trkpt><trkpt lat="42.061885" lon="12.1349483"><ele>244.0</ele><time>2026-03-22T08:59:55.481Z</time></trkpt><trkpt lat="42.06197" lon="12.1348917"><ele>244.0</ele><time>2026-03-22T08:59:58.481Z</time></trkpt><trkpt lat="42.0620267" lon="12.1348517"><ele>244.0</ele><time>2026-03-22T09:00:00.486Z</time></trkpt><trkpt lat="42.0620817" lon="12.1348067"><ele>243.99999999999997</ele><time>2026-03-22T09:00:02.482Z</time></trkpt><trkpt lat="42.0621583" lon="12.13474"><ele>244.0</ele><time>2026-03-22T09:00:05.483Z</time></trkpt><trkpt lat="42.0622317" lon="12.1346683"><ele>243.99999999999997</ele><time>2026-03-22T09:00:08.483Z</time></trkpt><trkpt lat="42.062285" lon="12.1346217"><ele>244.0</ele><time>2026-03-22T09:00:10.48Z</time></trkpt><trkpt lat="42.0623417" lon="12.1345733"><ele>243.99999999999997</ele><time>2026-03-22T09:00:12.484Z</time></trkpt><trkpt lat="42.062405" lon="12.1345233"><ele>243.99999999999997</ele><time>2026-03-22T09:00:14.476Z</time></trkpt><trkpt lat="42.0624683" lon="12.1344667"><ele>244.0</ele><time>2026-03-22T09:00:16.484Z</time></trkpt><trkpt lat="42.062525" lon="12.1344133"><ele>243.99999999999997</ele><time>2026-03-22T09:00:18.482Z</time></trkpt><trkpt lat="42.062585" lon="12.134365"><ele>243.99999999999997</ele><time>2026-03-22T09:00:20.482Z</time></trkpt><trkpt lat="42.0626417" lon="12.1343167"><ele>243.99999999999997</ele><time>2026-03-22T09:00:22.489Z</time></trkpt><trkpt lat="42.0627017" lon="12.1342683"><ele>244.0</ele><time>2026-03-22T09:00:24.487Z</time></trkpt><trkpt lat="42.0627617" lon="12.1342267"><ele>243.99999999999997</ele><time>2026-03-22T09:00:26.486Z</time></trkpt><trkpt lat="42.06282" lon="12.1341783"><ele>243.99999999999997</ele><time>2026-03-22T09:00:28.482Z</time></trkpt><trkpt lat="42.06288" lon="12.1341267"><ele>244.0</ele><time>2026-03-22T09:00:30.482Z</time></trkpt><trkpt lat="42.0629417" lon="12.134075"><ele>243.99999999999997</ele><time>2026-03-22T09:00:32.486Z</time></trkpt><trkpt lat="42.0630033" lon="12.1340283"><ele>243.99999999999997</ele><time>2026-03-22T09:00:34.483Z</time></trkpt><trkpt lat="42.0630633" lon="12.133975"><ele>243.99999999999997</ele><time>2026-03-22T09:00:36.479Z</time></trkpt><trkpt lat="42.0631217" lon="12.13392"><ele>244.0</ele><time>2026-03-22T09:00:38.482Z</time></trkpt><trkpt lat="42.0631783" lon="12.133865"><ele>243.99999999999997</ele><time>2026-03-22T09:00:40.48Z</time></trkpt><trkpt lat="42.0632417" lon="12.1338217"><ele>243.99999999999997</ele><time>2026-03-22T09:00:42.488Z</time></trkpt><trkpt lat="42.0633017" lon="12.1337717"><ele>244.0</ele><time>2026-03-22T09:00:44.482Z</time></trkpt><trkpt lat="42.06336" lon="12.1337233"><ele>243.99999999999997</ele><time>2026-03-22T09:00:46.486Z</time></trkpt><trkpt lat="42.0634217" lon="12.133675"><ele>243.99999999999997</ele><time>2026-03-22T09:00:48.482Z</time></trkpt><trkpt lat="42.0634833" lon="12.133625"><ele>244.99999999999997</ele><time>2026-03-22T09:00:50.482Z</time></trkpt><trkpt lat="42.0635433" lon="12.1335783"><ele>246.0</ele><time>2026-03-22T09:00:52.485Z</time></trkpt><trkpt lat="42.0635983" lon="12.133525"><ele>246.99999999999997</ele><time>2026-03-22T09:00:54.484Z</time></trkpt><trkpt lat="42.0636583" lon="12.13347"><ele>247.99999999999997</ele><time>2026-03-22T09:00:56.484Z</time></trkpt><trkpt lat="42.06372" lon="12.1334117"><ele>249.0</ele><time>2026-03-22T09:00:58.481Z</time></trkpt><trkpt lat="42.0637767" lon="12.133345"><ele>249.99999999999997</ele><time>2026-03-22T09:01:00.479Z</time></trkpt><trkpt lat="42.0638317" lon="12.1332783"><ele>250.99999999999997</ele><time>2026-03-22T09:01:02.484Z</time></trkpt><trkpt lat="42.063885" lon="12.13323"><ele>250.71428571428567</ele><time>2026-03-22T09:01:04.478Z</time></trkpt><trkpt lat="42.06394" lon="12.1331883"><ele>250.42857142857142</ele><time>2026-03-22T09:01:06.486Z</time></trkpt><trkpt lat="42.0639933" lon="12.1331333"><ele>250.1428571428571</ele><time>2026-03-22T09:01:08.486Z</time></trkpt><trkpt lat="42.06405" lon="12.13307"><ele>249.85714285714283</ele><time>2026-03-22T09:01:10.479Z</time></trkpt><trkpt lat="42.0641067" lon="12.1330033"><ele>249.57142857142856</ele><time>2026-03-22T09:01:12.482Z</time></trkpt><trkpt lat="42.0641667" lon="12.13294"><ele>249.28571428571428</ele><time>2026-03-22T09:01:14.482Z</time></trkpt><trkpt lat="42.0642283" lon="12.132875"><ele>249.0</ele><time>2026-03-22T09:01:16.482Z</time></trkpt><trkpt lat="42.06429" lon="12.1328167"><ele>249.66666666666666</ele><time>2026-03-22T09:01:18.484Z</time></trkpt><trkpt lat="42.064345" lon="12.13275"><ele>250.33333333333331</ele><time>2026-03-22T09:01:20.481Z</time></trkpt><trkpt lat="42.064405" lon="12.1326817"><ele>251.0</ele><time>2026-03-22T09:01:22.483Z</time></trkpt><trkpt lat="42.064465" lon="12.132615"><ele>251.66666666666666</ele><time>2026-03-22T09:01:24.481Z</time></trkpt><trkpt lat="42.0645267" lon="12.132565"><ele>252.33333333333331</ele><time>2026-03-22T09:01:26.486Z</time></trkpt><trkpt lat="42.0645867" lon="12.1325083"><ele>253.0</ele><time>2026-03-22T09:01:28.484Z</time></trkpt><trkpt lat="42.0646533" lon="12.132445"><ele>253.16666666666666</ele><time>2026-03-22T09:01:30.483Z</time></trkpt><trkpt lat="42.06472" lon="12.1323817"><ele>253.33333333333331</ele><time>2026-03-22T09:01:32.481Z</time></trkpt><trkpt lat="42.0647917" lon="12.1323183"><ele>253.5</ele><time>2026-03-22T09:01:34.482Z</time></trkpt><trkpt lat="42.0648683" lon="12.1322583"><ele>253.66666666666669</ele><time>2026-03-22T09:01:36.481Z</time></trkpt><trkpt lat="42.0649467" lon="12.1322"><ele>253.83333333333334</ele><time>2026-03-22T09:01:38.486Z</time></trkpt><trkpt lat="42.0650233" lon="12.132145"><ele>254.0</ele><time>2026-03-22T09:01:40.483Z</time></trkpt><trkpt lat="42.065095" lon="12.1320867"><ele>254.00000000000003</ele><time>2026-03-22T09:01:42.482Z</time></trkpt><trkpt lat="42.0651683" lon="12.1320333"><ele>254.0</ele><time>2026-03-22T09:01:44.482Z</time></trkpt><trkpt lat="42.0652383" lon="12.1319817"><ele>254.0</ele><time>2026-03-22T09:01:46.481Z</time></trkpt><trkpt lat="42.0653117" lon="12.1319283"><ele>254.0</ele><time>2026-03-22T09:01:48.484Z</time></trkpt><trkpt lat="42.0653833" lon="12.1318817"><ele>254.00000000000003</ele><time>2026-03-22T09:01:50.479Z</time></trkpt><trkpt lat="42.0654583" lon="12.13184"><ele>254.0</ele><time>2026-03-22T09:01:52.48Z</time></trkpt><trkpt lat="42.0655317" lon="12.131795"><ele>254.00000000000003</ele><time>2026-03-22T09:01:54.479Z</time></trkpt><trkpt lat="42.0656" lon="12.1317533"><ele>254.0</ele><time>2026-03-22T09:01:56.485Z</time></trkpt><trkpt lat="42.0656783" lon="12.1317133"><ele>254.0</ele><time>2026-03-22T09:01:58.479Z</time></trkpt><trkpt lat="42.065755" lon="12.1316717"><ele>254.0</ele><time>2026-03-22T09:02:00.484Z</time></trkpt><trkpt lat="42.06583" lon="12.131625"><ele>254.00000000000003</ele><time>2026-03-22T09:02:02.483Z</time></trkpt><trkpt lat="42.0659067" lon="12.131575"><ele>254.0</ele><time>2026-03-22T09:02:04.482Z</time></trkpt><trkpt lat="42.065985" lon="12.1315367"><ele>253.33333333333334</ele><time>2026-03-22T09:02:06.483Z</time></trkpt><trkpt lat="42.0660633" lon="12.1314983"><ele>252.66666666666669</ele><time>2026-03-22T09:02:08.484Z</time></trkpt><trkpt lat="42.0661367" lon="12.13146"><ele>252.0</ele><time>2026-03-22T09:02:10.482Z</time></trkpt><trkpt lat="42.0662167" lon="12.13142"><ele>251.33333333333331</ele><time>2026-03-22T09:02:12.484Z</time></trkpt><trkpt lat="42.066295" lon="12.13138"><ele>250.66666666666666</ele><time>2026-03-22T09:02:14.483Z</time></trkpt><trkpt lat="42.0663733" lon="12.1313383"><ele>250.0</ele><time>2026-03-22T09:02:16.487Z</time></trkpt><trkpt lat="42.0664483" lon="12.1312867"><ele>249.99999999999997</ele><time>2026-03-22T09:02:18.482Z</time></trkpt><trkpt lat="42.0665267" lon="12.1312467"><ele>250.0</ele><time>2026-03-22T09:02:20.48Z</time></trkpt><trkpt lat="42.0666033" lon="12.131215"><ele>250.0</ele><time>2026-03-22T09:02:22.482Z</time></trkpt><trkpt lat="42.0666767" lon="12.1311767"><ele>250.0</ele><time>2026-03-22T09:02:24.485Z</time></trkpt><trkpt lat="42.066755" lon="12.1311433"><ele>249.99999999999997</ele><time>2026-03-22T09:02:26.48Z</time></trkpt><trkpt lat="42.0668317" lon="12.1311117"><ele>250.0</ele><time>2026-03-22T09:02:28.481Z</time></trkpt><trkpt lat="42.0669083" lon="12.131085"><ele>250.66666666666666</ele><time>2026-03-22T09:02:30.484Z</time></trkpt><trkpt lat="42.0669867" lon="12.13106"><ele>251.33333333333331</ele><time>2026-03-22T09:02:32.484Z</time></trkpt><trkpt lat="42.0670667" lon="12.1310317"><ele>252.0</ele><time>2026-03-22T09:02:34.484Z</time></trkpt><trkpt lat="42.0671467" lon="12.1309983"><ele>252.66666666666669</ele><time>2026-03-22T09:02:36.484Z</time></trkpt><trkpt lat="42.0672283" lon="12.13097"><ele>253.33333333333334</ele><time>2026-03-22T09:02:38.481Z</time></trkpt><trkpt lat="42.0673133" lon="12.1309467"><ele>254.0</ele><time>2026-03-22T09:02:40.479Z</time></trkpt><trkpt lat="42.0673917" lon="12.1309167"><ele>254.33333333333334</ele><time>2026-03-22T09:02:42.488Z</time></trkpt><trkpt lat="42.067465" lon="12.1308883"><ele>254.66666666666669</ele><time>2026-03-22T09:02:44.48Z</time></trkpt><trkpt lat="42.06754" lon="12.1308583"><ele>255.0</ele><time>2026-03-22T09:02:46.476Z</time></trkpt><trkpt lat="42.0676167" lon="12.1308283"><ele>255.33333333333331</ele><time>2026-03-22T09:02:48.484Z</time></trkpt><trkpt lat="42.0676917" lon="12.1308033"><ele>255.66666666666666</ele><time>2026-03-22T09:02:50.485Z</time></trkpt><trkpt lat="42.0677683" lon="12.130775"><ele>256.0</ele><time>2026-03-22T09:02:52.481Z</time></trkpt><trkpt lat="42.0678433" lon="12.1307483"><ele>255.99999999999997</ele><time>2026-03-22T09:02:54.48Z</time></trkpt><trkpt lat="42.0679133" lon="12.1307267"><ele>256.0</ele><time>2026-03-22T09:02:56.479Z</time></trkpt><trkpt lat="42.067985" lon="12.1307083"><ele>256.0</ele><time>2026-03-22T09:02:58.483Z</time></trkpt><trkpt lat="42.0680617" lon="12.1306983"><ele>256.0</ele><time>2026-03-22T09:03:00.478Z</time></trkpt><trkpt lat="42.06814" lon="12.130695"><ele>255.99999999999997</ele><time>2026-03-22T09:03:02.486Z</time></trkpt><trkpt lat="42.0682167" lon="12.130705"><ele>256.0</ele><time>2026-03-22T09:03:04.48Z</time></trkpt><trkpt lat="42.068295" lon="12.1307267"><ele>256.16666666666663</ele><time>2026-03-22T09:03:06.482Z</time></trkpt><trkpt lat="42.068375" lon="12.1307583"><ele>256.3333333333333</ele><time>2026-03-22T09:03:08.485Z</time></trkpt><trkpt lat="42.0684533" lon="12.13079"><ele>256.5</ele><time>2026-03-22T09:03:10.48Z</time></trkpt><trkpt lat="42.068525" lon="12.130835"><ele>256.6666666666667</ele><time>2026-03-22T09:03:12.481Z</time></trkpt><trkpt lat="42.0685917" lon="12.13089"><ele>256.83333333333337</ele><time>2026-03-22T09:03:14.484Z</time></trkpt><trkpt lat="42.0686533" lon="12.1309483"><ele>257.0</ele><time>2026-03-22T09:03:16.484Z</time></trkpt><trkpt lat="42.0687117" lon="12.1310017"><ele>257.0</ele><time>2026-03-22T09:03:18.488Z</time></trkpt><trkpt lat="42.0687733" lon="12.1310533"><ele>257.0</ele><time>2026-03-22T09:03:20.488Z</time></trkpt><trkpt lat="42.068835" lon="12.13111"><ele>257.0</ele><time>2026-03-22T09:03:22.485Z</time></trkpt><trkpt lat="42.068895" lon="12.1311717"><ele>257.0</ele><time>2026-03-22T09:03:24.484Z</time></trkpt><trkpt lat="42.0689617" lon="12.1312333"><ele>257.0</ele><time>2026-03-22T09:03:26.477Z</time></trkpt><trkpt lat="42.0690333" lon="12.131285"><ele>257.0</ele><time>2026-03-22T09:03:28.483Z</time></trkpt><trkpt lat="42.0691017" lon="12.1313417"><ele>257.1428571428571</ele><time>2026-03-22T09:03:30.484Z</time></trkpt><trkpt lat="42.06917" lon="12.1313967"><ele>257.2857142857143</ele><time>2026-03-22T09:03:32.483Z</time></trkpt><trkpt lat="42.069235" lon="12.13145"><ele>257.42857142857144</ele><time>2026-03-22T09:03:34.488Z</time></trkpt><trkpt lat="42.069295" lon="12.131505"><ele>257.57142857142856</ele><time>2026-03-22T09:03:36.487Z</time></trkpt><trkpt lat="42.06936" lon="12.1315533"><ele>257.7142857142857</ele><time>2026-03-22T09:03:38.479Z</time></trkpt><trkpt lat="42.0694217" lon="12.131605"><ele>257.85714285714283</ele><time>2026-03-22T09:03:40.484Z</time></trkpt><trkpt lat="42.0694783" lon="12.13165"><ele>258.0</ele><time>2026-03-22T09:03:42.484Z</time></trkpt><trkpt lat="42.0695383" lon="12.13169"><ele>258.1428571428571</ele><time>2026-03-22T09:03:44.482Z</time></trkpt><trkpt lat="42.069595" lon="12.131735"><ele>258.2857142857143</ele><time>2026-03-22T09:03:46.479Z</time></trkpt><trkpt lat="42.06965" lon="12.131785"><ele>258.42857142857144</ele><time>2026-03-22T09:03:48.484Z</time></trkpt><trkpt lat="42.069715" lon="12.13184"><ele>258.57142857142856</ele><time>2026-03-22T09:03:50.477Z</time></trkpt><trkpt lat="42.0697767" lon="12.13189"><ele>258.7142857142857</ele><time>2026-03-22T09:03:52.482Z</time></trkpt><trkpt lat="42.0698333" lon="12.1319383"><ele>258.85714285714283</ele><time>2026-03-22T09:03:54.485Z</time></trkpt><trkpt lat="42.0699117" lon="12.132"><ele>259.0</ele><time>2026-03-22T09:03:57.487Z</time></trkpt><trkpt lat="42.069985" lon="12.1320567"><ele>259.66666666666663</ele><time>2026-03-22T09:04:00.491Z</time></trkpt><trkpt lat="42.0700583" lon="12.1321133"><ele>260.3333333333333</ele><time>2026-03-22T09:04:03.483Z</time></trkpt><trkpt lat="42.0701217" lon="12.132175"><ele>261.0</ele><time>2026-03-22T09:04:06.483Z</time></trkpt><trkpt lat="42.0701933" lon="12.1322333"><ele>261.6666666666667</ele><time>2026-03-22T09:04:09.481Z</time></trkpt><trkpt lat="42.07027" lon="12.1322967"><ele>262.33333333333337</ele><time>2026-03-22T09:04:12.478Z</time></trkpt><trkpt lat="42.070345" lon="12.1323583"><ele>263.0</ele><time>2026-03-22T09:04:15.479Z</time></trkpt><trkpt lat="42.070425" lon="12.1324133"><ele>263.1666666666667</ele><time>2026-03-22T09:04:18.484Z</time></trkpt><trkpt lat="42.070505" lon="12.1324667"><ele>263.33333333333337</ele><time>2026-03-22T09:04:21.485Z</time></trkpt><trkpt lat="42.07059" lon="12.1325233"><ele>263.5</ele><time>2026-03-22T09:04:24.482Z</time></trkpt><trkpt lat="42.0706517" lon="12.1325583"><ele>263.6666666666667</ele><time>2026-03-22T09:04:26.492Z</time></trkpt><trkpt lat="42.0707367" lon="12.1326067"><ele>263.8333333333333</ele><time>2026-03-22T09:04:29.482Z</time></trkpt><trkpt lat="42.0708" lon="12.1326417"><ele>264.0</ele><time>2026-03-22T09:04:31.483Z</time></trkpt><trkpt lat="42.0708833" lon="12.1327017"><ele>264.5</ele><time>2026-03-22T09:04:34.481Z</time></trkpt><trkpt lat="42.0709667" lon="12.132745"><ele>265.0</ele><time>2026-03-22T09:04:37.489Z</time></trkpt><trkpt lat="42.071045" lon="12.1327933"><ele>265.5</ele><time>2026-03-22T09:04:40.484Z</time></trkpt><trkpt lat="42.07113" lon="12.1328383"><ele>266.0</ele><time>2026-03-22T09:04:43.485Z</time></trkpt><trkpt lat="42.0712233" lon="12.132875"><ele>266.5</ele><time>2026-03-22T09:04:46.485Z</time></trkpt><trkpt lat="42.0712883" lon="12.132905"><ele>267.0</ele><time>2026-03-22T09:04:48.486Z</time></trkpt><trkpt lat="42.0713767" lon="12.132945"><ele>267.0</ele><time>2026-03-22T09:04:51.485Z</time></trkpt><trkpt lat="42.0714433" lon="12.1329667"><ele>267.0</ele><time>2026-03-22T09:04:53.481Z</time></trkpt><trkpt lat="42.0715067" lon="12.1329967"><ele>267.0</ele><time>2026-03-22T09:04:55.488Z</time></trkpt><trkpt lat="42.0715683" lon="12.13302"><ele>267.0</ele><time>2026-03-22T09:04:57.485Z</time></trkpt><trkpt lat="42.0716583" lon="12.13305"><ele>267.0</ele><time>2026-03-22T09:05:00.477Z</time></trkpt><trkpt lat="42.07175" lon="12.13307"><ele>267.0</ele><time>2026-03-22T09:05:03.486Z</time></trkpt><trkpt lat="42.0718433" lon="12.133095"><ele>267.28571428571433</ele><time>2026-03-22T09:05:06.481Z</time></trkpt><trkpt lat="42.0719083" lon="12.1331183"><ele>267.57142857142856</ele><time>2026-03-22T09:05:08.486Z</time></trkpt><trkpt lat="42.07198" lon="12.1331383"><ele>267.8571428571429</ele><time>2026-03-22T09:05:10.479Z</time></trkpt><trkpt lat="42.0720467" lon="12.13317"><ele>268.14285714285717</ele><time>2026-03-22T09:05:12.479Z</time></trkpt><trkpt lat="42.0721133" lon="12.1331983"><ele>268.42857142857144</ele><time>2026-03-22T09:05:14.481Z</time></trkpt><trkpt lat="42.0721783" lon="12.13322"><ele>268.7142857142857</ele><time>2026-03-22T09:05:16.487Z</time></trkpt><trkpt lat="42.0722433" lon="12.1332433"><ele>269.0</ele><time>2026-03-22T09:05:18.484Z</time></trkpt><trkpt lat="42.0723083" lon="12.1332667"><ele>269.1666666666667</ele><time>2026-03-22T09:05:20.485Z</time></trkpt><trkpt lat="42.0723767" lon="12.1332883"><ele>269.33333333333337</ele><time>2026-03-22T09:05:22.476Z</time></trkpt><trkpt lat="42.0724483" lon="12.1333117"><ele>269.5</ele><time>2026-03-22T09:05:24.484Z</time></trkpt><trkpt lat="42.0725217" lon="12.1333333"><ele>269.6666666666667</ele><time>2026-03-22T09:05:26.479Z</time></trkpt><trkpt lat="42.0725983" lon="12.1333717"><ele>269.8333333333333</ele><time>2026-03-22T09:05:28.48Z</time></trkpt><trkpt lat="42.0726767" lon="12.1334033"><ele>270.0</ele><time>2026-03-22T09:05:30.483Z</time></trkpt><trkpt lat="42.07276" lon="12.133435"><ele>270.0</ele><time>2026-03-22T09:05:32.484Z</time></trkpt><trkpt lat="42.072845" lon="12.133465"><ele>270.0</ele><time>2026-03-22T09:05:34.481Z</time></trkpt><trkpt lat="42.0729217" lon="12.1335183"><ele>270.0</ele><time>2026-03-22T09:05:36.483Z</time></trkpt><trkpt lat="42.073005" lon="12.1335517"><ele>270.0</ele><time>2026-03-22T09:05:38.48Z</time></trkpt><trkpt lat="42.0730867" lon="12.1335917"><ele>270.0</ele><time>2026-03-22T09:05:40.482Z</time></trkpt><trkpt lat="42.0731567" lon="12.1336433"><ele>270.0</ele><time>2026-03-22T09:05:42.479Z</time></trkpt><trkpt lat="42.0732317" lon="12.1336967"><ele>269.8333333333333</ele><time>2026-03-22T09:05:44.481Z</time></trkpt><trkpt lat="42.0733017" lon="12.1337517"><ele>269.6666666666667</ele><time>2026-03-22T09:05:46.48Z</time></trkpt><trkpt lat="42.0733617" lon="12.1338217"><ele>269.5</ele><time>2026-03-22T09:05:48.487Z</time></trkpt><trkpt lat="42.0734317" lon="12.133875"><ele>269.33333333333337</ele><time>2026-03-22T09:05:50.479Z</time></trkpt><trkpt lat="42.0734983" lon="12.13393"><ele>269.1666666666667</ele><time>2026-03-22T09:05:52.481Z</time></trkpt><trkpt lat="42.0735633" lon="12.1339817"><ele>269.0</ele><time>2026-03-22T09:05:54.484Z</time></trkpt><trkpt lat="42.07363" lon="12.1340267"><ele>269.1666666666667</ele><time>2026-03-22T09:05:56.481Z</time></trkpt><trkpt lat="42.0736917" lon="12.1340817"><ele>269.33333333333337</ele><time>2026-03-22T09:05:58.488Z</time></trkpt><trkpt lat="42.0737683" lon="12.1341517"><ele>269.5</ele><time>2026-03-22T09:06:01.483Z</time></trkpt><trkpt lat="42.0738267" lon="12.13419"><ele>269.6666666666667</ele><time>2026-03-22T09:06:03.48Z</time></trkpt><trkpt lat="42.0738817" lon="12.134235"><ele>269.8333333333333</ele><time>2026-03-22T09:06:05.481Z</time></trkpt><trkpt lat="42.0739633" lon="12.1343"><ele>270.0</ele><time>2026-03-22T09:06:08.48Z</time></trkpt><trkpt lat="42.074045" lon="12.1343617"><ele>270.0</ele><time>2026-03-22T09:06:11.48Z</time></trkpt><trkpt lat="42.0741017" lon="12.134405"><ele>270.0</ele><time>2026-03-22T09:06:13.481Z</time></trkpt><trkpt lat="42.07416" lon="12.1344483"><ele>270.0</ele><time>2026-03-22T09:06:15.485Z</time></trkpt><trkpt lat="42.074215" lon="12.1344933"><ele>270.0</ele><time>2026-03-22T09:06:17.48Z</time></trkpt><trkpt lat="42.07427" lon="12.134535"><ele>270.0</ele><time>2026-03-22T09:06:19.481Z</time></trkpt><trkpt lat="42.0743283" lon="12.1345867"><ele>270.0</ele><time>2026-03-22T09:06:21.483Z</time></trkpt><trkpt lat="42.0743883" lon="12.1346383"><ele>270.0</ele><time>2026-03-22T09:06:23.482Z</time></trkpt><trkpt lat="42.074455" lon="12.1346883"><ele>270.2857142857143</ele><time>2026-03-22T09:06:25.479Z</time></trkpt><trkpt lat="42.07451" lon="12.1347367"><ele>270.57142857142856</ele><time>2026-03-22T09:06:27.488Z</time></trkpt><trkpt lat="42.0745667" lon="12.1347867"><ele>270.85714285714283</ele><time>2026-03-22T09:06:29.482Z</time></trkpt><trkpt lat="42.0746233" lon="12.1348367"><ele>271.1428571428571</ele><time>2026-03-22T09:06:31.483Z</time></trkpt><trkpt lat="42.0746833" lon="12.1348817"><ele>271.42857142857144</ele><time>2026-03-22T09:06:33.481Z</time></trkpt><trkpt lat="42.0747467" lon="12.1349183"><ele>271.71428571428567</ele><time>2026-03-22T09:06:35.479Z</time></trkpt><trkpt lat="42.0748083" lon="12.1349417"><ele>272.0</ele><time>2026-03-22T09:06:37.482Z</time></trkpt><trkpt lat="42.0748683" lon="12.1349767"><ele>273.0</ele><time>2026-03-22T09:06:40.485Z</time></trkpt><trkpt lat="42.074955" lon="12.1350233"><ele>274.0</ele><time>2026-03-22T09:06:43.481Z</time></trkpt><trkpt lat="42.07501" lon="12.1350733"><ele>275.0</ele><time>2026-03-22T09:06:45.482Z</time></trkpt><trkpt lat="42.0750717" lon="12.1351217"><ele>276.0</ele><time>2026-03-22T09:06:47.479Z</time></trkpt><trkpt lat="42.0751417" lon="12.1351683"><ele>277.0</ele><time>2026-03-22T09:06:49.478Z</time></trkpt><trkpt lat="42.07521" lon="12.1352133"><ele>278.0</ele><time>2026-03-22T09:06:51.481Z</time></trkpt><trkpt lat="42.07529" lon="12.1352783"><ele>278.0</ele><time>2026-03-22T09:06:54.48Z</time></trkpt><trkpt lat="42.0753533" lon="12.1353133"><ele>278.0</ele><time>2026-03-22T09:06:56.483Z</time></trkpt><trkpt lat="42.0754333" lon="12.1353833"><ele>278.0</ele><time>2026-03-22T09:06:59.481Z</time></trkpt><trkpt lat="42.0754733" lon="12.13545"><ele>278.0</ele><time>2026-03-22T09:07:01.481Z</time></trkpt><trkpt lat="42.0755233" lon="12.1355067"><ele>278.0</ele><time>2026-03-22T09:07:03.483Z</time></trkpt><trkpt lat="42.0756033" lon="12.1355717"><ele>278.0</ele><time>2026-03-22T09:07:06.483Z</time></trkpt><trkpt lat="42.07566" lon="12.1356217"><ele>278.0</ele><time>2026-03-22T09:07:08.477Z</time></trkpt><trkpt lat="42.07574" lon="12.13569"><ele>278.0</ele><time>2026-03-22T09:07:11.486Z</time></trkpt><trkpt lat="42.0758233" lon="12.13573"><ele>278.0</ele><time>2026-03-22T09:07:14.479Z</time></trkpt><trkpt lat="42.0758867" lon="12.13577"><ele>278.0</ele><time>2026-03-22T09:07:16.482Z</time></trkpt><trkpt lat="42.075955" lon="12.1358133"><ele>278.0</ele><time>2026-03-22T09:07:18.483Z</time></trkpt><trkpt lat="42.0760183" lon="12.1358533"><ele>278.0</ele><time>2026-03-22T09:07:20.485Z</time></trkpt><trkpt lat="42.0760883" lon="12.1358933"><ele>279.0</ele><time>2026-03-22T09:07:22.478Z</time></trkpt><trkpt lat="42.076155" lon="12.1359317"><ele>280.0</ele><time>2026-03-22T09:07:24.478Z</time></trkpt><trkpt lat="42.0762117" lon="12.13597"><ele>281.0</ele><time>2026-03-22T09:07:26.482Z</time></trkpt><trkpt lat="42.0762817" lon="12.13604"><ele>282.0</ele><time>2026-03-22T09:07:29.479Z</time></trkpt><trkpt lat="42.0763417" lon="12.136135"><ele>283.0</ele><time>2026-03-22T09:07:32.485Z</time></trkpt><trkpt lat="42.0763817" lon="12.1362067"><ele>284.0</ele><time>2026-03-22T09:07:34.48Z</time></trkpt><trkpt lat="42.07642" lon="12.1362833"><ele>284.0</ele><time>2026-03-22T09:07:36.48Z</time></trkpt><trkpt lat="42.0764633" lon="12.136355"><ele>284.0</ele><time>2026-03-22T09:07:38.479Z</time></trkpt><trkpt lat="42.0765167" lon="12.136455"><ele>284.0</ele><time>2026-03-22T09:07:41.48Z</time></trkpt><trkpt lat="42.0765517" lon="12.1365517"><ele>284.0</ele><time>2026-03-22T09:07:44.482Z</time></trkpt><trkpt lat="42.076575" lon="12.136655"><ele>284.0</ele><time>2026-03-22T09:07:47.481Z</time></trkpt><trkpt lat="42.0765917" lon="12.1367567"><ele>284.0</ele><time>2026-03-22T09:07:50.482Z</time></trkpt><trkpt lat="42.076625" lon="12.136865"><ele>283.6666666666667</ele><time>2026-03-22T09:07:53.484Z</time></trkpt><trkpt lat="42.076675" lon="12.1369667"><ele>283.33333333333337</ele><time>2026-03-22T09:07:56.481Z</time></trkpt><trkpt lat="42.07673" lon="12.1370667"><ele>283.0</ele><time>2026-03-22T09:07:59.479Z</time></trkpt><trkpt lat="42.076775" lon="12.1371367"><ele>282.6666666666667</ele><time>2026-03-22T09:08:01.482Z</time></trkpt><trkpt lat="42.0768283" lon="12.137205"><ele>282.3333333333333</ele><time>2026-03-22T09:08:03.483Z</time></trkpt><trkpt lat="42.076885" lon="12.1372583"><ele>282.0</ele><time>2026-03-22T09:08:05.487Z</time></trkpt><trkpt lat="42.0769433" lon="12.1373033"><ele>282.0</ele><time>2026-03-22T09:08:07.481Z</time></trkpt><trkpt lat="42.0769933" lon="12.1373717"><ele>282.0</ele><time>2026-03-22T09:08:09.484Z</time></trkpt><trkpt lat="42.0770467" lon="12.13744"><ele>282.0</ele><time>2026-03-22T09:08:11.481Z</time></trkpt><trkpt lat="42.0771017" lon="12.137505"><ele>282.0</ele><time>2026-03-22T09:08:13.486Z</time></trkpt><trkpt lat="42.0771567" lon="12.1375767"><ele>282.0</ele><time>2026-03-22T09:08:15.484Z</time></trkpt><trkpt lat="42.0772033" lon="12.137635"><ele>282.0</ele><time>2026-03-22T09:08:17.48Z</time></trkpt><trkpt lat="42.0772567" lon="12.13768"><ele>282.0</ele><time>2026-03-22T09:08:19.48Z</time></trkpt><trkpt lat="42.0773117" lon="12.1377333"><ele>281.8333333333333</ele><time>2026-03-22T09:08:21.482Z</time></trkpt><trkpt lat="42.07738" lon="12.1378067"><ele>281.6666666666667</ele><time>2026-03-22T09:08:23.481Z</time></trkpt><trkpt lat="42.0774433" lon="12.137865"><ele>281.5</ele><time>2026-03-22T09:08:25.48Z</time></trkpt><trkpt lat="42.0775233" lon="12.1379267"><ele>281.33333333333337</ele><time>2026-03-22T09:08:28.483Z</time></trkpt><trkpt lat="42.0775783" lon="12.1379733"><ele>281.1666666666667</ele><time>2026-03-22T09:08:30.481Z</time></trkpt><trkpt lat="42.077635" lon="12.13802"><ele>281.0</ele><time>2026-03-22T09:08:32.481Z</time></trkpt><trkpt lat="42.0776917" lon="12.1380633"><ele>281.00000000000006</ele><time>2026-03-22T09:08:34.488Z</time></trkpt><trkpt lat="42.07775" lon="12.1381117"><ele>281.0</ele><time>2026-03-22T09:08:36.481Z</time></trkpt><trkpt lat="42.0778133" lon="12.138155"><ele>281.0</ele><time>2026-03-22T09:08:38.487Z</time></trkpt><trkpt lat="42.077875" lon="12.1382"><ele>281.0</ele><time>2026-03-22T09:08:40.486Z</time></trkpt><trkpt lat="42.0779417" lon="12.1382433"><ele>281.0</ele><time>2026-03-22T09:08:42.484Z</time></trkpt><trkpt lat="42.0780017" lon="12.1382867"><ele>281.00000000000006</ele><time>2026-03-22T09:08:44.483Z</time></trkpt><trkpt lat="42.078065" lon="12.1383317"><ele>281.0</ele><time>2026-03-22T09:08:46.483Z</time></trkpt><trkpt lat="42.0781233" lon="12.13838"><ele>281.0</ele><time>2026-03-22T09:08:48.482Z</time></trkpt><trkpt lat="42.0781867" lon="12.1384267"><ele>281.0</ele><time>2026-03-22T09:08:50.485Z</time></trkpt><trkpt lat="42.0782417" lon="12.13847"><ele>281.0</ele><time>2026-03-22T09:08:52.484Z</time></trkpt><trkpt lat="42.0783317" lon="12.1385283"><ele>281.0</ele><time>2026-03-22T09:08:55.485Z</time></trkpt><trkpt lat="42.0784033" lon="12.138575"><ele>281.0</ele><time>2026-03-22T09:08:57.483Z</time></trkpt><trkpt lat="42.0784667" lon="12.13862"><ele>281.0</ele><time>2026-03-22T09:08:59.484Z</time></trkpt><trkpt lat="42.07853" lon="12.1386667"><ele>281.28571428571433</ele><time>2026-03-22T09:09:01.481Z</time></trkpt><trkpt lat="42.0785917" lon="12.1387083"><ele>281.57142857142856</ele><time>2026-03-22T09:09:03.488Z</time></trkpt><trkpt lat="42.078655" lon="12.1387533"><ele>281.8571428571429</ele><time>2026-03-22T09:09:05.484Z</time></trkpt><trkpt lat="42.078715" lon="12.1387983"><ele>282.14285714285717</ele><time>2026-03-22T09:09:07.481Z</time></trkpt><trkpt lat="42.0787783" lon="12.1388417"><ele>282.42857142857144</ele><time>2026-03-22T09:09:09.489Z</time></trkpt><trkpt lat="42.0788333" lon="12.13889"><ele>282.7142857142857</ele><time>2026-03-22T09:09:11.482Z</time></trkpt><trkpt lat="42.0788883" lon="12.13894"><ele>283.0</ele><time>2026-03-22T09:09:13.48Z</time></trkpt><trkpt lat="42.078945" lon="12.1389833"><ele>283.0</ele><time>2026-03-22T09:09:15.484Z</time></trkpt><trkpt lat="42.079005" lon="12.1390333"><ele>283.0</ele><time>2026-03-22T09:09:17.484Z</time></trkpt><trkpt lat="42.0790767" lon="12.1391083"><ele>283.0</ele><time>2026-03-22T09:09:20.482Z</time></trkpt><trkpt lat="42.0791567" lon="12.13917"><ele>283.0</ele><time>2026-03-22T09:09:23.484Z</time></trkpt><trkpt lat="42.079215" lon="12.1392217"><ele>283.0</ele><time>2026-03-22T09:09:25.48Z</time></trkpt><trkpt lat="42.0792833" lon="12.1392817"><ele>283.0</ele><time>2026-03-22T09:09:27.486Z</time></trkpt><trkpt lat="42.07936" lon="12.13935"><ele>283.6</ele><time>2026-03-22T09:09:29.483Z</time></trkpt><trkpt lat="42.0794433" lon="12.13943"><ele>284.20000000000005</ele><time>2026-03-22T09:09:31.484Z</time></trkpt><trkpt lat="42.07953" lon="12.1395167"><ele>284.8</ele><time>2026-03-22T09:09:33.485Z</time></trkpt><trkpt lat="42.0796217" lon="12.139585"><ele>285.40000000000003</ele><time>2026-03-22T09:09:35.481Z</time></trkpt><trkpt lat="42.0797083" lon="12.1396433"><ele>286.0</ele><time>2026-03-22T09:09:37.484Z</time></trkpt><trkpt lat="42.07979" lon="12.1396983"><ele>286.0</ele><time>2026-03-22T09:09:39.49Z</time></trkpt><trkpt lat="42.0798617" lon="12.139765"><ele>286.0</ele><time>2026-03-22T09:09:41.483Z</time></trkpt><trkpt lat="42.0799367" lon="12.13983"><ele>286.0</ele><time>2026-03-22T09:09:43.489Z</time></trkpt><trkpt lat="42.0800017" lon="12.1398783"><ele>286.0</ele><time>2026-03-22T09:09:45.489Z</time></trkpt><trkpt lat="42.0800633" lon="12.1399217"><ele>286.0</ele><time>2026-03-22T09:09:47.486Z</time></trkpt><trkpt lat="42.0801217" lon="12.1399617"><ele>286.0</ele><time>2026-03-22T09:09:49.482Z</time></trkpt><trkpt lat="42.080185" lon="12.140005"><ele>285.40000000000003</ele><time>2026-03-22T09:09:51.483Z</time></trkpt><trkpt lat="42.0802567" lon="12.140055"><ele>284.8</ele><time>2026-03-22T09:09:53.484Z</time></trkpt><trkpt lat="42.0803333" lon="12.1401033"><ele>284.20000000000005</ele><time>2026-03-22T09:09:55.486Z</time></trkpt><trkpt lat="42.0804033" lon="12.1401567"><ele>283.6</ele><time>2026-03-22T09:09:57.486Z</time></trkpt><trkpt lat="42.080485" lon="12.1402183"><ele>283.0</ele><time>2026-03-22T09:09:59.482Z</time></trkpt><trkpt lat="42.0805917" lon="12.140265"><ele>283.0</ele><time>2026-03-22T09:10:01.482Z</time></trkpt><trkpt lat="42.0806567" lon="12.1402783"><ele>283.0</ele><time>2026-03-22T09:10:02.48Z</time></trkpt><trkpt lat="42.0807233" lon="12.1402917"><ele>283.0</ele><time>2026-03-22T09:10:03.484Z</time></trkpt><trkpt lat="42.0808433" lon="12.1403117"><ele>283.0</ele><time>2026-03-22T09:10:05.484Z</time></trkpt><trkpt lat="42.0809533" lon="12.1403267"><ele>283.0</ele><time>2026-03-22T09:10:07.479Z</time></trkpt><trkpt lat="42.0810567" lon="12.140335"><ele>283.2</ele><time>2026-03-22T09:10:09.484Z</time></trkpt><trkpt lat="42.0811533" lon="12.14035"><ele>283.4</ele><time>2026-03-22T09:10:11.481Z</time></trkpt><trkpt lat="42.0812383" lon="12.1403667"><ele>283.59999999999997</ele><time>2026-03-22T09:10:13.481Z</time></trkpt><trkpt lat="42.0813283" lon="12.1403833"><ele>283.8</ele><time>2026-03-22T09:10:15.483Z</time></trkpt><trkpt lat="42.0814267" lon="12.1403967"><ele>284.0</ele><time>2026-03-22T09:10:17.481Z</time></trkpt><trkpt lat="42.08152" lon="12.1404183"><ele>283.4</ele><time>2026-03-22T09:10:19.479Z</time></trkpt><trkpt lat="42.0816183" lon="12.14045"><ele>282.79999999999995</ele><time>2026-03-22T09:10:21.481Z</time></trkpt><trkpt lat="42.0817117" lon="12.14048"><ele>282.20000000000005</ele><time>2026-03-22T09:10:23.482Z</time></trkpt><trkpt lat="42.081805" lon="12.1404967"><ele>281.6</ele><time>2026-03-22T09:10:25.478Z</time></trkpt><trkpt lat="42.081895" lon="12.1405117"><ele>281.0</ele><time>2026-03-22T09:10:27.485Z</time></trkpt><trkpt lat="42.0819883" lon="12.140525"><ele>281.0</ele><time>2026-03-22T09:10:29.477Z</time></trkpt><trkpt lat="42.082085" lon="12.14056"><ele>281.0</ele><time>2026-03-22T09:10:31.479Z</time></trkpt><trkpt lat="42.0821767" lon="12.1406317"><ele>281.0</ele><time>2026-03-22T09:10:33.481Z</time></trkpt><trkpt lat="42.0822533" lon="12.1407233"><ele>281.0</ele><time>2026-03-22T09:10:35.48Z</time></trkpt><trkpt lat="42.0823233" lon="12.14083"><ele>281.0</ele><time>2026-03-22T09:10:37.488Z</time></trkpt><trkpt lat="42.0823883" lon="12.140935"><ele>280.40000000000003</ele><time>2026-03-22T09:10:39.486Z</time></trkpt><trkpt lat="42.0824417" lon="12.141045"><ele>279.8</ele><time>2026-03-22T09:10:41.478Z</time></trkpt><trkpt lat="42.082495" lon="12.141165"><ele>279.20000000000005</ele><time>2026-03-22T09:10:43.484Z</time></trkpt><trkpt lat="42.0825367" lon="12.1412967"><ele>278.6</ele><time>2026-03-22T09:10:45.484Z</time></trkpt><trkpt lat="42.0825683" lon="12.14144"><ele>278.0</ele><time>2026-03-22T09:10:47.483Z</time></trkpt><trkpt lat="42.0825867" lon="12.1415833"><ele>277.8</ele><time>2026-03-22T09:10:49.486Z</time></trkpt><trkpt lat="42.0826017" lon="12.1417217"><ele>277.6</ele><time>2026-03-22T09:10:51.492Z</time></trkpt><trkpt lat="42.08262" lon="12.14186"><ele>277.4</ele><time>2026-03-22T09:10:53.478Z</time></trkpt><trkpt lat="42.0826667" lon="12.141985"><ele>277.2</ele><time>2026-03-22T09:10:55.48Z</time></trkpt><trkpt lat="42.0827267" lon="12.1420967"><ele>277.0</ele><time>2026-03-22T09:10:57.485Z</time></trkpt><trkpt lat="42.0827917" lon="12.142215"><ele>277.0</ele><time>2026-03-22T09:10:59.48Z</time></trkpt><trkpt lat="42.0828567" lon="12.1423167"><ele>277.0</ele><time>2026-03-22T09:11:01.482Z</time></trkpt><trkpt lat="42.082915" lon="12.142405"><ele>277.0</ele><time>2026-03-22T09:11:03.483Z</time></trkpt><trkpt lat="42.0829683" lon="12.1424883"><ele>277.0</ele><time>2026-03-22T09:11:05.483Z</time></trkpt><trkpt lat="42.0830283" lon="12.1425683"><ele>277.0</ele><time>2026-03-22T09:11:08.479Z</time></trkpt><trkpt lat="42.0830733" lon="12.1426333"><ele>277.0</ele><time>2026-03-22T09:11:10.484Z</time></trkpt><trkpt lat="42.083135" lon="12.1426983"><ele>276.4</ele><time>2026-03-22T09:11:12.487Z</time></trkpt><trkpt lat="42.0832067" lon="12.142765"><ele>275.79999999999995</ele><time>2026-03-22T09:11:14.484Z</time></trkpt><trkpt lat="42.083295" lon="12.14285"><ele>275.2</ele><time>2026-03-22T09:11:16.485Z</time></trkpt><trkpt lat="42.0833483" lon="12.1428967"><ele>274.59999999999997</ele><time>2026-03-22T09:11:17.484Z</time></trkpt><trkpt lat="42.08345" lon="12.1429917"><ele>274.0</ele><time>2026-03-22T09:11:19.481Z</time></trkpt><trkpt lat="42.0835533" lon="12.1430883"><ele>274.7142857142857</ele><time>2026-03-22T09:11:21.486Z</time></trkpt><trkpt lat="42.0836133" lon="12.1431417"><ele>275.42857142857144</ele><time>2026-03-22T09:11:22.484Z</time></trkpt><trkpt lat="42.083675" lon="12.1431917"><ele>276.1428571428571</ele><time>2026-03-22T09:11:23.481Z</time></trkpt><trkpt lat="42.0837383" lon="12.143235"><ele>276.8571428571429</ele><time>2026-03-22T09:11:24.49Z</time></trkpt><trkpt lat="42.0837933" lon="12.1432767"><ele>277.57142857142856</ele><time>2026-03-22T09:11:25.483Z</time></trkpt><trkpt lat="42.0838583" lon="12.1433233"><ele>278.2857142857143</ele><time>2026-03-22T09:11:26.482Z</time></trkpt><trkpt lat="42.0839133" lon="12.1433683"><ele>279.0</ele><time>2026-03-22T09:11:27.482Z</time></trkpt><trkpt lat="42.08397" lon="12.1434133"><ele>278.99999999999994</ele><time>2026-03-22T09:11:28.48Z</time></trkpt><trkpt lat="42.08402" lon="12.143465"><ele>279.0</ele><time>2026-03-22T09:11:29.48Z</time></trkpt><trkpt lat="42.08408" lon="12.1435167"><ele>279.0</ele><time>2026-03-22T09:11:30.479Z</time></trkpt><trkpt lat="42.084135" lon="12.1435733"><ele>279.0</ele><time>2026-03-22T09:11:31.482Z</time></trkpt><trkpt lat="42.0841967" lon="12.143635"><ele>279.0</ele><time>2026-03-22T09:11:32.48Z</time></trkpt><trkpt lat="42.0842517" lon="12.1437067"><ele>278.99999999999994</ele><time>2026-03-22T09:11:33.484Z</time></trkpt><trkpt lat="42.084305" lon="12.1437733"><ele>279.0</ele><time>2026-03-22T09:11:34.482Z</time></trkpt><trkpt lat="42.08436" lon="12.143835"><ele>277.4</ele><time>2026-03-22T09:11:35.487Z</time></trkpt><trkpt lat="42.0844167" lon="12.1438983"><ele>275.79999999999995</ele><time>2026-03-22T09:11:36.48Z</time></trkpt><trkpt lat="42.0844617" lon="12.143965"><ele>274.20000000000005</ele><time>2026-03-22T09:11:37.479Z</time></trkpt><trkpt lat="42.0845483" lon="12.1440867"><ele>272.6</ele><time>2026-03-22T09:11:39.481Z</time></trkpt><trkpt lat="42.0846283" lon="12.1441967"><ele>271.0</ele><time>2026-03-22T09:11:41.481Z</time></trkpt><trkpt lat="42.084705" lon="12.1443083"><ele>271.0</ele><time>2026-03-22T09:11:43.482Z</time></trkpt><trkpt lat="42.0847783" lon="12.1444283"><ele>271.0</ele><time>2026-03-22T09:11:45.487Z</time></trkpt><trkpt lat="42.0848417" lon="12.1445517"><ele>271.0</ele><time>2026-03-22T09:11:47.48Z</time></trkpt><trkpt lat="42.084905" lon="12.1446583"><ele>271.0</ele><time>2026-03-22T09:11:49.482Z</time></trkpt><trkpt lat="42.0849633" lon="12.1447667"><ele>271.0</ele><time>2026-03-22T09:11:51.481Z</time></trkpt><trkpt lat="42.085025" lon="12.1448683"><ele>270.5</ele><time>2026-03-22T09:11:53.486Z</time></trkpt><trkpt lat="42.0850867" lon="12.144945"><ele>270.0</ele><time>2026-03-22T09:11:55.483Z</time></trkpt><trkpt lat="42.0851383" lon="12.145025"><ele>269.5</ele><time>2026-03-22T09:11:57.487Z</time></trkpt><trkpt lat="42.0851917" lon="12.1451133"><ele>269.0</ele><time>2026-03-22T09:11:59.483Z</time></trkpt><trkpt lat="42.0852317" lon="12.1451867"><ele>268.5</ele><time>2026-03-22T09:12:01.481Z</time></trkpt><trkpt lat="42.0852717" lon="12.1452767"><ele>268.0</ele><time>2026-03-22T09:12:03.479Z</time></trkpt><trkpt lat="42.08529" lon="12.1453867"><ele>268.0</ele><time>2026-03-22T09:12:05.478Z</time></trkpt><trkpt lat="42.085295" lon="12.1455"><ele>268.0</ele><time>2026-03-22T09:12:07.479Z</time></trkpt><trkpt lat="42.08529" lon="12.1456083"><ele>268.0</ele><time>2026-03-22T09:12:09.48Z</time></trkpt><trkpt lat="42.0852867" lon="12.1457133"><ele>268.0</ele><time>2026-03-22T09:12:11.478Z</time></trkpt><trkpt lat="42.085285" lon="12.1458317"><ele>268.0</ele><time>2026-03-22T09:12:13.484Z</time></trkpt><trkpt lat="42.08528" lon="12.1459467"><ele>268.0</ele><time>2026-03-22T09:12:15.477Z</time></trkpt><trkpt lat="42.0852783" lon="12.1460667"><ele>268.0</ele><time>2026-03-22T09:12:17.477Z</time></trkpt><trkpt lat="42.0852633" lon="12.1461767"><ele>268.0</ele><time>2026-03-22T09:12:19.482Z</time></trkpt><trkpt lat="42.0852433" lon="12.1462767"><ele>268.0</ele><time>2026-03-22T09:12:21.479Z</time></trkpt><trkpt lat="42.0852183" lon="12.1463817"><ele>268.0</ele><time>2026-03-22T09:12:23.479Z</time></trkpt><trkpt lat="42.0851883" lon="12.1464633"><ele>268.0</ele><time>2026-03-22T09:12:25.482Z</time></trkpt><trkpt lat="42.08516" lon="12.1465483"><ele>268.0</ele><time>2026-03-22T09:12:27.48Z</time></trkpt><trkpt lat="42.0851233" lon="12.1466367"><ele>268.42857142857144</ele><time>2026-03-22T09:12:29.477Z</time></trkpt><trkpt lat="42.0850783" lon="12.1467083"><ele>268.85714285714283</ele><time>2026-03-22T09:12:31.479Z</time></trkpt><trkpt lat="42.0850417" lon="12.146795"><ele>269.2857142857143</ele><time>2026-03-22T09:12:33.481Z</time></trkpt><trkpt lat="42.08501" lon="12.14688"><ele>269.7142857142857</ele><time>2026-03-22T09:12:35.482Z</time></trkpt><trkpt lat="42.08498" lon="12.1469583"><ele>270.14285714285717</ele><time>2026-03-22T09:12:37.477Z</time></trkpt><trkpt lat="42.0849617" lon="12.1470433"><ele>270.57142857142856</ele><time>2026-03-22T09:12:39.48Z</time></trkpt><trkpt lat="42.0849467" lon="12.1471317"><ele>271.0</ele><time>2026-03-22T09:12:41.481Z</time></trkpt><trkpt lat="42.084935" lon="12.14722"><ele>271.0</ele><time>2026-03-22T09:12:43.478Z</time></trkpt><trkpt lat="42.08491" lon="12.1473517"><ele>271.0</ele><time>2026-03-22T09:12:46.477Z</time></trkpt><trkpt lat="42.0848883" lon="12.147465"><ele>271.0</ele><time>2026-03-22T09:12:49.487Z</time></trkpt><trkpt lat="42.084875" lon="12.1475767"><ele>271.0</ele><time>2026-03-22T09:12:52.477Z</time></trkpt><trkpt lat="42.0848717" lon="12.1476983"><ele>271.0</ele><time>2026-03-22T09:12:55.477Z</time></trkpt><trkpt lat="42.0848683" lon="12.147785"><ele>271.0</ele><time>2026-03-22T09:12:57.481Z</time></trkpt><trkpt lat="42.084855" lon="12.147905"><ele>271.0</ele><time>2026-03-22T09:13:00.479Z</time></trkpt><trkpt lat="42.084845" lon="12.14803"><ele>271.0</ele><time>2026-03-22T09:13:03.478Z</time></trkpt><trkpt lat="42.0848333" lon="12.1481167"><ele>271.0</ele><time>2026-03-22T09:13:05.478Z</time></trkpt><trkpt lat="42.0848117" lon="12.1481983"><ele>271.0</ele><time>2026-03-22T09:13:07.477Z</time></trkpt><trkpt lat="42.0848" lon="12.1482817"><ele>271.0</ele><time>2026-03-22T09:13:09.479Z</time></trkpt><trkpt lat="42.0847733" lon="12.1484017"><ele>271.0</ele><time>2026-03-22T09:13:12.479Z</time></trkpt><trkpt lat="42.08474" lon="12.14852"><ele>271.66666666666663</ele><time>2026-03-22T09:13:15.482Z</time></trkpt><trkpt lat="42.084705" lon="12.148635"><ele>272.3333333333333</ele><time>2026-03-22T09:13:18.481Z</time></trkpt><trkpt lat="42.0846767" lon="12.1487467"><ele>273.0</ele><time>2026-03-22T09:13:21.48Z</time></trkpt><trkpt lat="42.0846483" lon="12.148845"><ele>273.6666666666667</ele><time>2026-03-22T09:13:24.478Z</time></trkpt><trkpt lat="42.0846267" lon="12.1489367"><ele>274.33333333333337</ele><time>2026-03-22T09:13:27.479Z</time></trkpt><trkpt lat="42.0846017" lon="12.1490467"><ele>275.0</ele><time>2026-03-22T09:13:30.477Z</time></trkpt><trkpt lat="42.0845833" lon="12.149155"><ele>275.42857142857144</ele><time>2026-03-22T09:13:33.478Z</time></trkpt><trkpt lat="42.08456" lon="12.1492583"><ele>275.85714285714283</ele><time>2026-03-22T09:13:36.478Z</time></trkpt><trkpt lat="42.08454" lon="12.149355"><ele>276.2857142857143</ele><time>2026-03-22T09:13:39.479Z</time></trkpt><trkpt lat="42.0845217" lon="12.1494417"><ele>276.7142857142857</ele><time>2026-03-22T09:13:42.479Z</time></trkpt><trkpt lat="42.0845183" lon="12.149535"><ele>277.14285714285717</ele><time>2026-03-22T09:13:45.478Z</time></trkpt><trkpt lat="42.0845033" lon="12.1496183"><ele>277.57142857142856</ele><time>2026-03-22T09:13:48.477Z</time></trkpt><trkpt lat="42.084475" lon="12.1497083"><ele>278.0</ele><time>2026-03-22T09:13:51.479Z</time></trkpt><trkpt lat="42.084445" lon="12.1498033"><ele>278.2857142857143</ele><time>2026-03-22T09:13:54.481Z</time></trkpt><trkpt lat="42.0844267" lon="12.14991"><ele>278.57142857142856</ele><time>2026-03-22T09:13:57.48Z</time></trkpt><trkpt lat="42.0844067" lon="12.1499917"><ele>278.8571428571429</ele><time>2026-03-22T09:13:59.477Z</time></trkpt><trkpt lat="42.08438" lon="12.150075"><ele>279.1428571428571</ele><time>2026-03-22T09:14:01.482Z</time></trkpt><trkpt lat="42.0843567" lon="12.1501633"><ele>279.42857142857144</ele><time>2026-03-22T09:14:03.479Z</time></trkpt><trkpt lat="42.0843333" lon="12.150255"><ele>279.7142857142857</ele><time>2026-03-22T09:14:05.477Z</time></trkpt><trkpt lat="42.084305" lon="12.1503417"><ele>280.0</ele><time>2026-03-22T09:14:07.479Z</time></trkpt><trkpt lat="42.08427" lon="12.1504483"><ele>280.0</ele><time>2026-03-22T09:14:10.48Z</time></trkpt><trkpt lat="42.0842433" lon="12.150535"><ele>280.0</ele><time>2026-03-22T09:14:13.477Z</time></trkpt><trkpt lat="42.0842217" lon="12.150625"><ele>280.0</ele><time>2026-03-22T09:14:16.478Z</time></trkpt><trkpt lat="42.0842017" lon="12.1507133"><ele>280.0</ele><time>2026-03-22T09:14:19.476Z</time></trkpt><trkpt lat="42.0841683" lon="12.1508133"><ele>280.0</ele><time>2026-03-22T09:14:23.481Z</time></trkpt><trkpt lat="42.08417" lon="12.1509233"><ele>280.0</ele><time>2026-03-22T09:15:13.48Z</time></trkpt><trkpt lat="42.08418" lon="12.1510567"><ele>279.66666666666663</ele><time>2026-03-22T09:15:16.484Z</time></trkpt><trkpt lat="42.08416" lon="12.1511717"><ele>279.3333333333333</ele><time>2026-03-22T09:15:18.482Z</time></trkpt><trkpt lat="42.0841367" lon="12.1512867"><ele>279.0</ele><time>2026-03-22T09:15:20.483Z</time></trkpt><trkpt lat="42.0841033" lon="12.1514217"><ele>278.6666666666667</ele><time>2026-03-22T09:15:22.485Z</time></trkpt><trkpt lat="42.0840817" lon="12.1515033"><ele>278.33333333333337</ele><time>2026-03-22T09:15:23.481Z</time></trkpt><trkpt lat="42.0840617" lon="12.15159"><ele>278.0</ele><time>2026-03-22T09:15:24.479Z</time></trkpt><trkpt lat="42.08404" lon="12.15168"><ele>278.0</ele><time>2026-03-22T09:15:25.486Z</time></trkpt><trkpt lat="42.0840133" lon="12.1517717"><ele>278.0</ele><time>2026-03-22T09:15:26.481Z</time></trkpt><trkpt lat="42.0839883" lon="12.1518617"><ele>278.0</ele><time>2026-03-22T09:15:27.481Z</time></trkpt><trkpt lat="42.0839633" lon="12.1519533"><ele>278.0</ele><time>2026-03-22T09:15:28.482Z</time></trkpt><trkpt lat="42.0839367" lon="12.152045"><ele>278.0</ele><time>2026-03-22T09:15:29.477Z</time></trkpt><trkpt lat="42.0839167" lon="12.15214"><ele>278.0</ele><time>2026-03-22T09:15:30.487Z</time></trkpt><trkpt lat="42.0839" lon="12.1522317"><ele>278.0</ele><time>2026-03-22T09:15:31.483Z</time></trkpt><trkpt lat="42.0838767" lon="12.152325"><ele>277.6666666666667</ele><time>2026-03-22T09:15:32.482Z</time></trkpt><trkpt lat="42.0838533" lon="12.152425"><ele>277.33333333333337</ele><time>2026-03-22T09:15:33.479Z</time></trkpt><trkpt lat="42.0838283" lon="12.1525233"><ele>277.0</ele><time>2026-03-22T09:15:34.485Z</time></trkpt><trkpt lat="42.0838" lon="12.152625"><ele>276.6666666666667</ele><time>2026-03-22T09:15:35.484Z</time></trkpt><trkpt lat="42.083775" lon="12.15273"><ele>276.3333333333333</ele><time>2026-03-22T09:15:36.478Z</time></trkpt><trkpt lat="42.08375" lon="12.1528383"><ele>276.0</ele><time>2026-03-22T09:15:37.479Z</time></trkpt><trkpt lat="42.0837233" lon="12.1529483"><ele>276.0</ele><time>2026-03-22T09:15:38.479Z</time></trkpt><trkpt lat="42.0836983" lon="12.1530667"><ele>276.0</ele><time>2026-03-22T09:15:39.483Z</time></trkpt><trkpt lat="42.0836733" lon="12.1531817"><ele>276.0</ele><time>2026-03-22T09:15:40.485Z</time></trkpt><trkpt lat="42.083645" lon="12.1533017"><ele>276.0</ele><time>2026-03-22T09:15:41.479Z</time></trkpt><trkpt lat="42.0836183" lon="12.153425"><ele>276.0</ele><time>2026-03-22T09:15:42.48Z</time></trkpt><trkpt lat="42.083595" lon="12.1535517"><ele>274.8</ele><time>2026-03-22T09:15:43.48Z</time></trkpt><trkpt lat="42.083565" lon="12.1536717"><ele>273.6</ele><time>2026-03-22T09:15:44.478Z</time></trkpt><trkpt lat="42.083535" lon="12.15379"><ele>272.4</ele><time>2026-03-22T09:15:45.483Z</time></trkpt><trkpt lat="42.0835067" lon="12.153905"><ele>271.2</ele><time>2026-03-22T09:15:46.48Z</time></trkpt><trkpt lat="42.08348" lon="12.15402"><ele>270.0</ele><time>2026-03-22T09:15:47.482Z</time></trkpt><trkpt lat="42.08345" lon="12.1541333"><ele>269.3333333333333</ele><time>2026-03-22T09:15:48.479Z</time></trkpt><trkpt lat="42.08342" lon="12.1542433"><ele>268.6666666666667</ele><time>2026-03-22T09:15:49.483Z</time></trkpt><trkpt lat="42.08339" lon="12.15435"><ele>268.0</ele><time>2026-03-22T09:15:50.482Z</time></trkpt><trkpt lat="42.0833583" lon="12.1544533"><ele>267.33333333333337</ele><time>2026-03-22T09:15:51.481Z</time></trkpt><trkpt lat="42.0833283" lon="12.1545583"><ele>266.6666666666667</ele><time>2026-03-22T09:15:52.481Z</time></trkpt><trkpt lat="42.0833017" lon="12.1546617"><ele>266.0</ele><time>2026-03-22T09:15:53.478Z</time></trkpt><trkpt lat="42.0832767" lon="12.154765"><ele>266.33333333333337</ele><time>2026-03-22T09:15:54.485Z</time></trkpt><trkpt lat="42.0832517" lon="12.15487"><ele>266.6666666666667</ele><time>2026-03-22T09:15:55.48Z</time></trkpt><trkpt lat="42.0832267" lon="12.15497"><ele>267.0</ele><time>2026-03-22T09:15:56.479Z</time></trkpt><trkpt lat="42.0832017" lon="12.1550683"><ele>267.3333333333333</ele><time>2026-03-22T09:15:57.484Z</time></trkpt><trkpt lat="42.0831767" lon="12.1551633"><ele>267.66666666666663</ele><time>2026-03-22T09:15:58.483Z</time></trkpt><trkpt lat="42.083155" lon="12.1552583"><ele>268.0</ele><time>2026-03-22T09:15:59.481Z</time></trkpt><trkpt lat="42.0831333" lon="12.1553583"><ele>267.2857142857143</ele><time>2026-03-22T09:16:00.48Z</time></trkpt><trkpt lat="42.0831083" lon="12.155455"><ele>266.57142857142856</ele><time>2026-03-22T09:16:01.479Z</time></trkpt><trkpt lat="42.083085" lon="12.1555483"><ele>265.85714285714283</ele><time>2026-03-22T09:16:02.482Z</time></trkpt><trkpt lat="42.0830567" lon="12.1556417"><ele>265.1428571428571</ele><time>2026-03-22T09:16:03.478Z</time></trkpt><trkpt lat="42.0830333" lon="12.1557333"><ele>264.4285714285714</ele><time>2026-03-22T09:16:04.478Z</time></trkpt><trkpt lat="42.08301" lon="12.1558283"><ele>263.7142857142857</ele><time>2026-03-22T09:16:05.477Z</time></trkpt><trkpt lat="42.0829883" lon="12.1559183"><ele>263.0</ele><time>2026-03-22T09:16:06.479Z</time></trkpt><trkpt lat="42.082965" lon="12.156005"><ele>263.0</ele><time>2026-03-22T09:16:07.48Z</time></trkpt><trkpt lat="42.082945" lon="12.1560883"><ele>263.0</ele><time>2026-03-22T09:16:08.476Z</time></trkpt><trkpt lat="42.0829267" lon="12.15618"><ele>263.0</ele><time>2026-03-22T09:16:09.48Z</time></trkpt><trkpt lat="42.0829117" lon="12.156275"><ele>263.0</ele><time>2026-03-22T09:16:10.476Z</time></trkpt><trkpt lat="42.0828917" lon="12.1563717"><ele>263.0</ele><time>2026-03-22T09:16:11.477Z</time></trkpt><trkpt lat="42.0828683" lon="12.1564633"><ele>263.0</ele><time>2026-03-22T09:16:12.476Z</time></trkpt><trkpt lat="42.082845" lon="12.1565467"><ele>263.0</ele><time>2026-03-22T09:16:13.478Z</time></trkpt><trkpt lat="42.0828183" lon="12.15664"><ele>263.1666666666667</ele><time>2026-03-22T09:16:14.477Z</time></trkpt><trkpt lat="42.0827933" lon="12.1567283"><ele>263.33333333333337</ele><time>2026-03-22T09:16:15.478Z</time></trkpt><trkpt lat="42.0827683" lon="12.1568217"><ele>263.5</ele><time>2026-03-22T09:16:16.479Z</time></trkpt><trkpt lat="42.08274" lon="12.1569183"><ele>263.6666666666667</ele><time>2026-03-22T09:16:17.479Z</time></trkpt><trkpt lat="42.0827133" lon="12.157015"><ele>263.8333333333333</ele><time>2026-03-22T09:16:18.479Z</time></trkpt><trkpt lat="42.082685" lon="12.1571083"><ele>264.0</ele><time>2026-03-22T09:16:19.492Z</time></trkpt><trkpt lat="42.0826567" lon="12.1572083"><ele>264.0</ele><time>2026-03-22T09:16:20.486Z</time></trkpt><trkpt lat="42.0826333" lon="12.157305"><ele>264.0</ele><time>2026-03-22T09:16:21.48Z</time></trkpt><trkpt lat="42.0826117" lon="12.1573983"><ele>264.0</ele><time>2026-03-22T09:16:22.484Z</time></trkpt><trkpt lat="42.0825933" lon="12.1574917"><ele>264.0</ele><time>2026-03-22T09:16:23.483Z</time></trkpt><trkpt lat="42.0825733" lon="12.1575833"><ele>264.0</ele><time>2026-03-22T09:16:24.486Z</time></trkpt><trkpt lat="42.0825383" lon="12.157735"><ele>264.0</ele><time>2026-03-22T09:16:26.48Z</time></trkpt><trkpt lat="42.0825067" lon="12.1578833"><ele>263.8333333333333</ele><time>2026-03-22T09:16:28.483Z</time></trkpt><trkpt lat="42.082465" lon="12.1580417"><ele>263.6666666666667</ele><time>2026-03-22T09:16:30.477Z</time></trkpt><trkpt lat="42.0824433" lon="12.15813"><ele>263.5</ele><time>2026-03-22T09:16:31.484Z</time></trkpt><trkpt lat="42.0824267" lon="12.1582217"><ele>263.33333333333337</ele><time>2026-03-22T09:16:32.48Z</time></trkpt><trkpt lat="42.0824067" lon="12.1583067"><ele>263.1666666666667</ele><time>2026-03-22T09:16:33.48Z</time></trkpt><trkpt lat="42.08236" lon="12.1584483"><ele>263.0</ele><time>2026-03-22T09:16:35.482Z</time></trkpt><trkpt lat="42.0823233" lon="12.1585833"><ele>262.83333333333337</ele><time>2026-03-22T09:16:37.481Z</time></trkpt><trkpt lat="42.08229" lon="12.1587133"><ele>262.6666666666667</ele><time>2026-03-22T09:16:39.484Z</time></trkpt><trkpt lat="42.0822717" lon="12.15883"><ele>262.5</ele><time>2026-03-22T09:16:41.484Z</time></trkpt><trkpt lat="42.0822333" lon="12.158955"><ele>262.3333333333333</ele><time>2026-03-22T09:16:43.482Z</time></trkpt><trkpt lat="42.0822167" lon="12.15905"><ele>262.16666666666663</ele><time>2026-03-22T09:16:45.48Z</time></trkpt><trkpt lat="42.0821867" lon="12.1591567"><ele>262.0</ele><time>2026-03-22T09:16:47.483Z</time></trkpt><trkpt lat="42.08217" lon="12.159285"><ele>262.5</ele><time>2026-03-22T09:16:49.486Z</time></trkpt><trkpt lat="42.0821533" lon="12.1594167"><ele>263.0</ele><time>2026-03-22T09:16:51.48Z</time></trkpt><trkpt lat="42.0821317" lon="12.159545"><ele>263.5</ele><time>2026-03-22T09:16:53.478Z</time></trkpt><trkpt lat="42.0821033" lon="12.1596517"><ele>264.0</ele><time>2026-03-22T09:16:55.488Z</time></trkpt><trkpt lat="42.0820783" lon="12.1597483"><ele>264.5</ele><time>2026-03-22T09:16:57.485Z</time></trkpt><trkpt lat="42.0820533" lon="12.159865"><ele>265.0</ele><time>2026-03-22T09:16:59.481Z</time></trkpt><trkpt lat="42.08203" lon="12.1599883"><ele>266.0</ele><time>2026-03-22T09:17:01.485Z</time></trkpt><trkpt lat="42.0819983" lon="12.1601267"><ele>267.0</ele><time>2026-03-22T09:17:03.483Z</time></trkpt><trkpt lat="42.0819683" lon="12.1602383"><ele>268.0</ele><time>2026-03-22T09:17:05.483Z</time></trkpt><trkpt lat="42.0819333" lon="12.1603317"><ele>269.0</ele><time>2026-03-22T09:17:07.481Z</time></trkpt><trkpt lat="42.081915" lon="12.1604333"><ele>270.0</ele><time>2026-03-22T09:17:09.482Z</time></trkpt><trkpt lat="42.0818933" lon="12.1605167"><ele>271.0</ele><time>2026-03-22T09:17:11.482Z</time></trkpt><trkpt lat="42.0818617" lon="12.1606067"><ele>271.0</ele><time>2026-03-22T09:17:14.482Z</time></trkpt><trkpt lat="42.08182" lon="12.160695"><ele>271.0</ele><time>2026-03-22T09:17:17.49Z</time></trkpt><trkpt lat="42.081795" lon="12.1608017"><ele>271.0</ele><time>2026-03-22T09:17:20.485Z</time></trkpt><trkpt lat="42.0817667" lon="12.1608983"><ele>271.0</ele><time>2026-03-22T09:17:23.487Z</time></trkpt><trkpt lat="42.0817383" lon="12.16098"><ele>271.0</ele><time>2026-03-22T09:17:26.486Z</time></trkpt><trkpt lat="42.0817033" lon="12.1610833"><ele>271.0</ele><time>2026-03-22T09:17:30.481Z</time></trkpt><trkpt lat="42.0816833" lon="12.1611667"><ele>271.1428571428571</ele><time>2026-03-22T09:17:33.481Z</time></trkpt><trkpt lat="42.0816617" lon="12.1612567"><ele>271.2857142857143</ele><time>2026-03-22T09:17:36.481Z</time></trkpt><trkpt lat="42.08164" lon="12.1613483"><ele>271.42857142857144</ele><time>2026-03-22T09:17:39.483Z</time></trkpt><trkpt lat="42.0816133" lon="12.1614533"><ele>271.57142857142856</ele><time>2026-03-22T09:17:42.48Z</time></trkpt><trkpt lat="42.081595" lon="12.1615467"><ele>271.7142857142857</ele><time>2026-03-22T09:17:45.482Z</time></trkpt><trkpt lat="42.0815683" lon="12.1616367"><ele>271.85714285714283</ele><time>2026-03-22T09:17:49.488Z</time></trkpt><trkpt lat="42.081545" lon="12.1617167"><ele>272.0</ele><time>2026-03-22T09:17:52.485Z</time></trkpt><trkpt lat="42.0815333" lon="12.1618017"><ele>272.1666666666667</ele><time>2026-03-22T09:17:55.484Z</time></trkpt><trkpt lat="42.0815283" lon="12.1618867"><ele>272.33333333333337</ele><time>2026-03-22T09:17:58.482Z</time></trkpt><trkpt lat="42.0815017" lon="12.1619967"><ele>272.5</ele><time>2026-03-22T09:18:02.489Z</time></trkpt><trkpt lat="42.081475" lon="12.1621067"><ele>272.6666666666667</ele><time>2026-03-22T09:18:05.485Z</time></trkpt><trkpt lat="42.0814533" lon="12.1622317"><ele>272.8333333333333</ele><time>2026-03-22T09:18:08.479Z</time></trkpt><trkpt lat="42.08144" lon="12.1623233"><ele>273.0</ele><time>2026-03-22T09:18:10.482Z</time></trkpt><trkpt lat="42.08142" lon="12.1624233"><ele>272.4</ele><time>2026-03-22T09:18:12.481Z</time></trkpt><trkpt lat="42.0813933" lon="12.1625367"><ele>271.8</ele><time>2026-03-22T09:18:14.482Z</time></trkpt><trkpt lat="42.081365" lon="12.1626767"><ele>271.2</ele><time>2026-03-22T09:18:16.483Z</time></trkpt><trkpt lat="42.0813317" lon="12.1628317"><ele>270.6</ele><time>2026-03-22T09:18:18.477Z</time></trkpt><trkpt lat="42.08131" lon="12.1629267"><ele>270.0</ele><time>2026-03-22T09:18:19.48Z</time></trkpt><trkpt lat="42.081285" lon="12.1630183"><ele>270.0</ele><time>2026-03-22T09:18:20.492Z</time></trkpt><trkpt lat="42.081265" lon="12.1631117"><ele>270.0</ele><time>2026-03-22T09:18:21.484Z</time></trkpt><trkpt lat="42.081245" lon="12.1632067"><ele>270.0</ele><time>2026-03-22T09:18:22.487Z</time></trkpt><trkpt lat="42.0812267" lon="12.1632967"><ele>270.0</ele><time>2026-03-22T09:18:23.481Z</time></trkpt><trkpt lat="42.0812117" lon="12.16339"><ele>270.0</ele><time>2026-03-22T09:18:24.483Z</time></trkpt><trkpt lat="42.0811933" lon="12.1634833"><ele>270.0</ele><time>2026-03-22T09:18:25.482Z</time></trkpt><trkpt lat="42.081175" lon="12.16358"><ele>270.0</ele><time>2026-03-22T09:18:26.481Z</time></trkpt><trkpt lat="42.0811533" lon="12.1636783"><ele>269.8333333333333</ele><time>2026-03-22T09:18:27.487Z</time></trkpt><trkpt lat="42.081135" lon="12.1637683"><ele>269.6666666666667</ele><time>2026-03-22T09:18:28.479Z</time></trkpt><trkpt lat="42.0811133" lon="12.1638567"><ele>269.5</ele><time>2026-03-22T09:18:29.479Z</time></trkpt><trkpt lat="42.0810883" lon="12.1639467"><ele>269.33333333333337</ele><time>2026-03-22T09:18:30.484Z</time></trkpt><trkpt lat="42.08107" lon="12.16403"><ele>269.1666666666667</ele><time>2026-03-22T09:18:31.483Z</time></trkpt><trkpt lat="42.0810367" lon="12.16419"><ele>269.0</ele><time>2026-03-22T09:18:33.479Z</time></trkpt><trkpt lat="42.081005" lon="12.1643367"><ele>269.0</ele><time>2026-03-22T09:18:35.482Z</time></trkpt><trkpt lat="42.0809717" lon="12.1644883"><ele>269.0</ele><time>2026-03-22T09:18:37.482Z</time></trkpt><trkpt lat="42.0809367" lon="12.1646417"><ele>269.0</ele><time>2026-03-22T09:18:39.481Z</time></trkpt><trkpt lat="42.0809133" lon="12.16478"><ele>269.0</ele><time>2026-03-22T09:18:41.483Z</time></trkpt><trkpt lat="42.080885" lon="12.16493"><ele>269.0</ele><time>2026-03-22T09:18:43.478Z</time></trkpt><trkpt lat="42.0808467" lon="12.1650867"><ele>269.0</ele><time>2026-03-22T09:18:45.485Z</time></trkpt><trkpt lat="42.0808183" lon="12.1652433"><ele>269.0</ele><time>2026-03-22T09:18:47.486Z</time></trkpt><trkpt lat="42.0807933" lon="12.1653917"><ele>269.0</ele><time>2026-03-22T09:18:49.481Z</time></trkpt><trkpt lat="42.0807617" lon="12.1655567"><ele>269.1666666666667</ele><time>2026-03-22T09:18:51.486Z</time></trkpt><trkpt lat="42.0807417" lon="12.16564"><ele>269.33333333333337</ele><time>2026-03-22T09:18:52.481Z</time></trkpt><trkpt lat="42.0807033" lon="12.1657983"><ele>269.5</ele><time>2026-03-22T09:18:54.479Z</time></trkpt><trkpt lat="42.0806867" lon="12.1658867"><ele>269.6666666666667</ele><time>2026-03-22T09:18:55.482Z</time></trkpt><trkpt lat="42.080655" lon="12.16605"><ele>269.8333333333333</ele><time>2026-03-22T09:18:57.488Z</time></trkpt><trkpt lat="42.0806383" lon="12.1661367"><ele>270.0</ele><time>2026-03-22T09:18:58.482Z</time></trkpt><trkpt lat="42.08062" lon="12.16622"><ele>270.0</ele><time>2026-03-22T09:18:59.481Z</time></trkpt><trkpt lat="42.0805833" lon="12.1663783"><ele>270.0</ele><time>2026-03-22T09:19:01.482Z</time></trkpt><trkpt lat="42.0805517" lon="12.1665317"><ele>270.0</ele><time>2026-03-22T09:19:03.484Z</time></trkpt><trkpt lat="42.0805167" lon="12.1666817"><ele>270.0</ele><time>2026-03-22T09:19:05.482Z</time></trkpt><trkpt lat="42.0804883" lon="12.1668383"><ele>269.6</ele><time>2026-03-22T09:19:07.481Z</time></trkpt><trkpt lat="42.0804633" lon="12.1669567"><ele>269.2</ele><time>2026-03-22T09:19:09.481Z</time></trkpt><trkpt lat="42.0804333" lon="12.1671017"><ele>268.8</ele><time>2026-03-22T09:19:11.482Z</time></trkpt><trkpt lat="42.0804083" lon="12.1672283"><ele>268.4</ele><time>2026-03-22T09:19:13.482Z</time></trkpt><trkpt lat="42.0803867" lon="12.1673517"><ele>268.0</ele><time>2026-03-22T09:19:15.487Z</time></trkpt><trkpt lat="42.08036" lon="12.167485"><ele>267.8</ele><time>2026-03-22T09:19:17.48Z</time></trkpt><trkpt lat="42.0803283" lon="12.167625"><ele>267.6</ele><time>2026-03-22T09:19:19.477Z</time></trkpt><trkpt lat="42.0802933" lon="12.16777"><ele>267.4</ele><time>2026-03-22T09:19:21.479Z</time></trkpt><trkpt lat="42.0802667" lon="12.1679117"><ele>267.2</ele><time>2026-03-22T09:19:23.479Z</time></trkpt><trkpt lat="42.0802417" lon="12.1680483"><ele>267.0</ele><time>2026-03-22T09:19:25.479Z</time></trkpt><trkpt lat="42.0802167" lon="12.1681733"><ele>267.0</ele><time>2026-03-22T09:19:27.477Z</time></trkpt><trkpt lat="42.0801883" lon="12.1683"><ele>267.0</ele><time>2026-03-22T09:19:29.476Z</time></trkpt><trkpt lat="42.0801633" lon="12.16843"><ele>267.0</ele><time>2026-03-22T09:19:31.477Z</time></trkpt><trkpt lat="42.0801367" lon="12.1685533"><ele>267.0</ele><time>2026-03-22T09:19:33.481Z</time></trkpt><trkpt lat="42.0801117" lon="12.16868"><ele>267.0</ele><time>2026-03-22T09:19:35.481Z</time></trkpt><trkpt lat="42.080085" lon="12.1688017"><ele>267.0</ele><time>2026-03-22T09:19:37.478Z</time></trkpt><trkpt lat="42.0800533" lon="12.1689233"><ele>267.0</ele><time>2026-03-22T09:19:39.48Z</time></trkpt><trkpt lat="42.0800283" lon="12.16905"><ele>267.0</ele><time>2026-03-22T09:19:41.476Z</time></trkpt><trkpt lat="42.0800033" lon="12.1691767"><ele>267.0</ele><time>2026-03-22T09:19:43.479Z</time></trkpt><trkpt lat="42.079995" lon="12.1693133"><ele>267.0</ele><time>2026-03-22T09:19:45.481Z</time></trkpt><trkpt lat="42.0799917" lon="12.1694533"><ele>267.5</ele><time>2026-03-22T09:19:47.478Z</time></trkpt><trkpt lat="42.0799983" lon="12.1695817"><ele>268.0</ele><time>2026-03-22T09:19:49.479Z</time></trkpt><trkpt lat="42.080005" lon="12.169705"><ele>268.5</ele><time>2026-03-22T09:19:51.477Z</time></trkpt><trkpt lat="42.080005" lon="12.1698217"><ele>269.0</ele><time>2026-03-22T09:19:53.477Z</time></trkpt><trkpt lat="42.0800083" lon="12.1699317"><ele>269.5</ele><time>2026-03-22T09:19:55.479Z</time></trkpt><trkpt lat="42.08001" lon="12.1700283"><ele>270.0</ele><time>2026-03-22T09:19:57.48Z</time></trkpt><trkpt lat="42.0800183" lon="12.1701317"><ele>270.5</ele><time>2026-03-22T09:20:00.475Z</time></trkpt><trkpt lat="42.080095" lon="12.1701767"><ele>271.0</ele><time>2026-03-22T09:20:03.479Z</time></trkpt><trkpt lat="42.080185" lon="12.1701517"><ele>271.5</ele><time>2026-03-22T09:20:05.477Z</time></trkpt><trkpt lat="42.0802667" lon="12.1701283"><ele>272.0</ele><time>2026-03-22T09:20:07.484Z</time></trkpt><trkpt lat="42.08035" lon="12.17012"><ele>272.5</ele><time>2026-03-22T09:20:09.479Z</time></trkpt><trkpt lat="42.080435" lon="12.170105"><ele>273.0</ele><time>2026-03-22T09:20:11.48Z</time></trkpt><trkpt lat="42.0805183" lon="12.17009"><ele>273.0</ele><time>2026-03-22T09:20:13.482Z</time></trkpt><trkpt lat="42.080595" lon="12.1700717"><ele>273.0</ele><time>2026-03-22T09:20:15.484Z</time></trkpt><trkpt lat="42.080675" lon="12.170055"><ele>273.0</ele><time>2026-03-22T09:20:17.483Z</time></trkpt><trkpt lat="42.080755" lon="12.1700367"><ele>273.0</ele><time>2026-03-22T09:20:19.482Z</time></trkpt><trkpt lat="42.0808433" lon="12.1700183"><ele>273.0</ele><time>2026-03-22T09:20:21.485Z</time></trkpt><trkpt lat="42.0809283" lon="12.170005"><ele>273.0</ele><time>2026-03-22T09:20:23.487Z</time></trkpt><trkpt lat="42.0810133" lon="12.169985"><ele>273.1666666666667</ele><time>2026-03-22T09:20:25.479Z</time></trkpt><trkpt lat="42.0810933" lon="12.16997"><ele>273.3333333333333</ele><time>2026-03-22T09:20:27.481Z</time></trkpt><trkpt lat="42.081175" lon="12.1699533"><ele>273.5</ele><time>2026-03-22T09:20:29.483Z</time></trkpt><trkpt lat="42.0812533" lon="12.169935"><ele>273.66666666666663</ele><time>2026-03-22T09:20:31.478Z</time></trkpt><trkpt lat="42.0813317" lon="12.1699133"><ele>273.8333333333333</ele><time>2026-03-22T09:20:33.482Z</time></trkpt><trkpt lat="42.0814133" lon="12.1698917"><ele>274.0</ele><time>2026-03-22T09:20:35.482Z</time></trkpt><trkpt lat="42.081495" lon="12.1698767"><ele>274.00000000000006</ele><time>2026-03-22T09:20:37.479Z</time></trkpt><trkpt lat="42.0815767" lon="12.1698633"><ele>274.0</ele><time>2026-03-22T09:20:39.479Z</time></trkpt><trkpt lat="42.08165" lon="12.1698417"><ele>274.0</ele><time>2026-03-22T09:20:41.485Z</time></trkpt><trkpt lat="42.08172" lon="12.1698283"><ele>274.0</ele><time>2026-03-22T09:20:43.478Z</time></trkpt><trkpt lat="42.0818083" lon="12.1698117"><ele>274.0</ele><time>2026-03-22T09:20:46.481Z</time></trkpt><trkpt lat="42.081875" lon="12.1697983"><ele>274.00000000000006</ele><time>2026-03-22T09:20:48.477Z</time></trkpt><trkpt lat="42.0819383" lon="12.1697817"><ele>274.0</ele><time>2026-03-22T09:20:50.478Z</time></trkpt><trkpt lat="42.0820017" lon="12.1697633"><ele>274.5</ele><time>2026-03-22T09:20:52.48Z</time></trkpt><trkpt lat="42.082065" lon="12.169755"><ele>275.0</ele><time>2026-03-22T09:20:54.475Z</time></trkpt><trkpt lat="42.08213" lon="12.1697467"><ele>275.5</ele><time>2026-03-22T09:20:56.483Z</time></trkpt><trkpt lat="42.082215" lon="12.1697333"><ele>276.0</ele><time>2026-03-22T09:20:59.478Z</time></trkpt><trkpt lat="42.0823017" lon="12.16972"><ele>276.5</ele><time>2026-03-22T09:21:02.479Z</time></trkpt><trkpt lat="42.082385" lon="12.1697067"><ele>277.0</ele><time>2026-03-22T09:21:05.48Z</time></trkpt><trkpt lat="42.082465" lon="12.1696833"><ele>277.57142857142856</ele><time>2026-03-22T09:21:08.476Z</time></trkpt><trkpt lat="42.08253" lon="12.1696517"><ele>278.1428571428571</ele><time>2026-03-22T09:21:11.481Z</time></trkpt><trkpt lat="42.082595" lon="12.169635"><ele>278.7142857142857</ele><time>2026-03-22T09:21:14.492Z</time></trkpt><trkpt lat="42.0826567" lon="12.1696167"><ele>279.2857142857143</ele><time>2026-03-22T09:21:17.48Z</time></trkpt><trkpt lat="42.0827217" lon="12.16961"><ele>279.8571428571429</ele><time>2026-03-22T09:21:20.479Z</time></trkpt><trkpt lat="42.0827867" lon="12.169605"><ele>280.42857142857144</ele><time>2026-03-22T09:21:23.478Z</time></trkpt><trkpt lat="42.08285" lon="12.1695933"><ele>281.0</ele><time>2026-03-22T09:21:26.48Z</time></trkpt><trkpt lat="42.0829317" lon="12.1695717"><ele>281.00000000000006</ele><time>2026-03-22T09:21:30.477Z</time></trkpt><trkpt lat="42.0829967" lon="12.1695583"><ele>281.0</ele><time>2026-03-22T09:21:33.478Z</time></trkpt><trkpt lat="42.0830667" lon="12.1695483"><ele>281.0</ele><time>2026-03-22T09:21:36.482Z</time></trkpt><trkpt lat="42.08315" lon="12.1695467"><ele>281.0</ele><time>2026-03-22T09:21:40.477Z</time></trkpt><trkpt lat="42.0832267" lon="12.1695483"><ele>281.0</ele><time>2026-03-22T09:21:44.475Z</time></trkpt><trkpt lat="42.08329" lon="12.1695383"><ele>281.00000000000006</ele><time>2026-03-22T09:21:47.48Z</time></trkpt><trkpt lat="42.0833717" lon="12.16952"><ele>281.0</ele><time>2026-03-22T09:21:51.478Z</time></trkpt><trkpt lat="42.0834367" lon="12.1695117"><ele>281.7142857142857</ele><time>2026-03-22T09:21:54.479Z</time></trkpt><trkpt lat="42.0835067" lon="12.1694933"><ele>282.42857142857144</ele><time>2026-03-22T09:21:57.482Z</time></trkpt><trkpt lat="42.0835683" lon="12.1694717"><ele>283.1428571428571</ele><time>2026-03-22T09:22:00.482Z</time></trkpt><trkpt lat="42.0836483" lon="12.1694633"><ele>283.8571428571429</ele><time>2026-03-22T09:22:04.479Z</time></trkpt><trkpt lat="42.0837133" lon="12.1694417"><ele>284.57142857142856</ele><time>2026-03-22T09:22:07.479Z</time></trkpt><trkpt lat="42.0837767" lon="12.1694267"><ele>285.2857142857143</ele><time>2026-03-22T09:22:10.481Z</time></trkpt><trkpt lat="42.08384" lon="12.169405"><ele>286.0</ele><time>2026-03-22T09:22:13.48Z</time></trkpt><trkpt lat="42.0839017" lon="12.1693833"><ele>285.99999999999994</ele><time>2026-03-22T09:22:16.48Z</time></trkpt><trkpt lat="42.083965" lon="12.1694033"><ele>286.0</ele><time>2026-03-22T09:22:19.479Z</time></trkpt><trkpt lat="42.084005" lon="12.1694867"><ele>286.0</ele><time>2026-03-22T09:22:22.483Z</time></trkpt><trkpt lat="42.08402" lon="12.1695733"><ele>286.0</ele><time>2026-03-22T09:22:25.477Z</time></trkpt><trkpt lat="42.0840367" lon="12.1696717"><ele>286.0</ele><time>2026-03-22T09:22:29.481Z</time></trkpt><trkpt lat="42.084045" lon="12.1697567"><ele>285.99999999999994</ele><time>2026-03-22T09:22:32.482Z</time></trkpt><trkpt lat="42.0840417" lon="12.169855"><ele>286.0</ele><time>2026-03-22T09:22:35.478Z</time></trkpt><trkpt lat="42.0840383" lon="12.1699567"><ele>286.3333333333333</ele><time>2026-03-22T09:22:38.484Z</time></trkpt><trkpt lat="42.0840533" lon="12.1700617"><ele>286.66666666666663</ele><time>2026-03-22T09:22:41.483Z</time></trkpt><trkpt lat="42.084065" lon="12.1701817"><ele>287.0</ele><time>2026-03-22T09:22:44.482Z</time></trkpt><trkpt lat="42.08407" lon="12.1702717"><ele>287.3333333333333</ele><time>2026-03-22T09:22:46.482Z</time></trkpt><trkpt lat="42.08407" lon="12.1704"><ele>287.6666666666667</ele><time>2026-03-22T09:22:49.481Z</time></trkpt><trkpt lat="42.0840783" lon="12.1704917"><ele>288.0</ele><time>2026-03-22T09:22:51.483Z</time></trkpt><trkpt lat="42.0840767" lon="12.1705783"><ele>288.5</ele><time>2026-03-22T09:22:53.483Z</time></trkpt><trkpt lat="42.0840767" lon="12.1706983"><ele>289.0</ele><time>2026-03-22T09:22:56.483Z</time></trkpt><trkpt lat="42.0840767" lon="12.1708183"><ele>289.5</ele><time>2026-03-22T09:22:59.481Z</time></trkpt><trkpt lat="42.08408" lon="12.1709033"><ele>290.0</ele><time>2026-03-22T09:23:01.489Z</time></trkpt><trkpt lat="42.084085" lon="12.1710267"><ele>290.5</ele><time>2026-03-22T09:23:04.483Z</time></trkpt><trkpt lat="42.0840883" lon="12.1711117"><ele>291.0</ele><time>2026-03-22T09:23:06.482Z</time></trkpt><trkpt lat="42.0840933" lon="12.1711967"><ele>291.8333333333333</ele><time>2026-03-22T09:23:08.484Z</time></trkpt><trkpt lat="42.084105" lon="12.1713183"><ele>292.6666666666667</ele><time>2026-03-22T09:23:11.481Z</time></trkpt><trkpt lat="42.084105" lon="12.1714267"><ele>293.5</ele><time>2026-03-22T09:23:14.482Z</time></trkpt><trkpt lat="42.0841" lon="12.171535"><ele>294.33333333333337</ele><time>2026-03-22T09:23:17.485Z</time></trkpt><trkpt lat="42.0840983" lon="12.1716583"><ele>295.1666666666667</ele><time>2026-03-22T09:23:20.485Z</time></trkpt><trkpt lat="42.0841" lon="12.1717467"><ele>296.0</ele><time>2026-03-22T09:23:22.483Z</time></trkpt><trkpt lat="42.0840983" lon="12.171835"><ele>296.0</ele><time>2026-03-22T09:23:24.482Z</time></trkpt><trkpt lat="42.0841" lon="12.171925"><ele>296.0</ele><time>2026-03-22T09:23:26.478Z</time></trkpt><trkpt lat="42.08411" lon="12.1720167"><ele>296.0</ele><time>2026-03-22T09:23:28.484Z</time></trkpt><trkpt lat="42.084105" lon="12.17211"><ele>296.0</ele><time>2026-03-22T09:23:30.489Z</time></trkpt><trkpt lat="42.0841083" lon="12.1722183"><ele>296.0</ele><time>2026-03-22T09:23:32.482Z</time></trkpt><trkpt lat="42.08411" lon="12.1723617"><ele>296.0</ele><time>2026-03-22T09:23:34.482Z</time></trkpt><trkpt lat="42.0841167" lon="12.172515"><ele>295.6666666666667</ele><time>2026-03-22T09:23:36.481Z</time></trkpt><trkpt lat="42.0841183" lon="12.1726067"><ele>295.33333333333337</ele><time>2026-03-22T09:23:37.488Z</time></trkpt><trkpt lat="42.0841217" lon="12.17271"><ele>295.0</ele><time>2026-03-22T09:23:38.483Z</time></trkpt><trkpt lat="42.0841283" lon="12.1728167"><ele>294.6666666666667</ele><time>2026-03-22T09:23:39.482Z</time></trkpt><trkpt lat="42.084135" lon="12.1729333"><ele>294.3333333333333</ele><time>2026-03-22T09:23:40.479Z</time></trkpt><trkpt lat="42.084135" lon="12.173065"><ele>294.0</ele><time>2026-03-22T09:23:41.483Z</time></trkpt><trkpt lat="42.0841433" lon="12.173195"><ele>293.2</ele><time>2026-03-22T09:23:42.481Z</time></trkpt><trkpt lat="42.08415" lon="12.1733283"><ele>292.4</ele><time>2026-03-22T09:23:43.482Z</time></trkpt><trkpt lat="42.0841567" lon="12.1734483"><ele>291.6</ele><time>2026-03-22T09:23:44.482Z</time></trkpt><trkpt lat="42.0841633" lon="12.173565"><ele>290.8</ele><time>2026-03-22T09:23:45.482Z</time></trkpt><trkpt lat="42.08417" lon="12.173685"><ele>290.0</ele><time>2026-03-22T09:23:46.481Z</time></trkpt><trkpt lat="42.0841683" lon="12.173805"><ele>290.0</ele><time>2026-03-22T09:23:47.48Z</time></trkpt><trkpt lat="42.0841683" lon="12.1739267"><ele>290.0</ele><time>2026-03-22T09:23:48.481Z</time></trkpt><trkpt lat="42.0841683" lon="12.1740483"><ele>290.0</ele><time>2026-03-22T09:23:49.48Z</time></trkpt><trkpt lat="42.0841717" lon="12.17417"><ele>290.0</ele><time>2026-03-22T09:23:50.49Z</time></trkpt><trkpt lat="42.084175" lon="12.17429"><ele>290.0</ele><time>2026-03-22T09:23:51.491Z</time></trkpt><trkpt lat="42.0841783" lon="12.1744133"><ele>289.5</ele><time>2026-03-22T09:23:52.484Z</time></trkpt><trkpt lat="42.0841833" lon="12.174535"><ele>289.0</ele><time>2026-03-22T09:23:53.48Z</time></trkpt><trkpt lat="42.0841867" lon="12.1746567"><ele>288.5</ele><time>2026-03-22T09:23:54.481Z</time></trkpt><trkpt lat="42.0841883" lon="12.174775"><ele>288.0</ele><time>2026-03-22T09:23:55.476Z</time></trkpt><trkpt lat="42.0841917" lon="12.1748867"><ele>287.5</ele><time>2026-03-22T09:23:56.478Z</time></trkpt><trkpt lat="42.084195" lon="12.1749967"><ele>287.0</ele><time>2026-03-22T09:23:57.477Z</time></trkpt><trkpt lat="42.0841933" lon="12.1751067"><ele>286.5</ele><time>2026-03-22T09:23:58.48Z</time></trkpt><trkpt lat="42.0841917" lon="12.175215"><ele>286.0</ele><time>2026-03-22T09:23:59.48Z</time></trkpt><trkpt lat="42.0841967" lon="12.1753183"><ele>285.5</ele><time>2026-03-22T09:24:00.482Z</time></trkpt><trkpt lat="42.0842033" lon="12.17542"><ele>285.0</ele><time>2026-03-22T09:24:01.482Z</time></trkpt><trkpt lat="42.0842083" lon="12.1755217"><ele>284.5</ele><time>2026-03-22T09:24:02.479Z</time></trkpt><trkpt lat="42.0842117" lon="12.17563"><ele>284.0</ele><time>2026-03-22T09:24:03.479Z</time></trkpt><trkpt lat="42.0842133" lon="12.1757433"><ele>283.6666666666667</ele><time>2026-03-22T09:24:04.474Z</time></trkpt><trkpt lat="42.0842183" lon="12.17586"><ele>283.33333333333337</ele><time>2026-03-22T09:24:05.477Z</time></trkpt><trkpt lat="42.084225" lon="12.1759767"><ele>283.0</ele><time>2026-03-22T09:24:06.477Z</time></trkpt><trkpt lat="42.0842317" lon="12.17609"><ele>282.6666666666667</ele><time>2026-03-22T09:24:07.48Z</time></trkpt><trkpt lat="42.0842333" lon="12.176195"><ele>282.3333333333333</ele><time>2026-03-22T09:24:08.481Z</time></trkpt><trkpt lat="42.084235" lon="12.1762983"><ele>282.0</ele><time>2026-03-22T09:24:09.481Z</time></trkpt><trkpt lat="42.0842383" lon="12.1763983"><ele>282.0</ele><time>2026-03-22T09:24:10.479Z</time></trkpt><trkpt lat="42.0842433" lon="12.176495"><ele>282.0</ele><time>2026-03-22T09:24:11.484Z</time></trkpt><trkpt lat="42.0842467" lon="12.1765933"><ele>282.0</ele><time>2026-03-22T09:24:12.478Z</time></trkpt><trkpt lat="42.0842517" lon="12.1766883"><ele>282.0</ele><time>2026-03-22T09:24:13.477Z</time></trkpt><trkpt lat="42.0842533" lon="12.1767817"><ele>282.0</ele><time>2026-03-22T09:24:14.482Z</time></trkpt><trkpt lat="42.08426" lon="12.1768683"><ele>282.0</ele><time>2026-03-22T09:24:15.481Z</time></trkpt><trkpt lat="42.084265" lon="12.1769533"><ele>282.0</ele><time>2026-03-22T09:24:16.476Z</time></trkpt><trkpt lat="42.0842717" lon="12.1770383"><ele>281.8</ele><time>2026-03-22T09:24:17.476Z</time></trkpt><trkpt lat="42.084275" lon="12.177195"><ele>281.6</ele><time>2026-03-22T09:24:19.481Z</time></trkpt><trkpt lat="42.0842783" lon="12.17735"><ele>281.40000000000003</ele><time>2026-03-22T09:24:21.483Z</time></trkpt><trkpt lat="42.084265" lon="12.17749"><ele>281.2</ele><time>2026-03-22T09:24:23.48Z</time></trkpt><trkpt lat="42.0842633" lon="12.1775867"><ele>281.0</ele><time>2026-03-22T09:24:25.476Z</time></trkpt><trkpt lat="42.0842783" lon="12.1776783"><ele>280.40000000000003</ele><time>2026-03-22T09:24:27.477Z</time></trkpt><trkpt lat="42.0843183" lon="12.1777583"><ele>279.8</ele><time>2026-03-22T09:24:29.48Z</time></trkpt><trkpt lat="42.0843717" lon="12.1778383"><ele>279.20000000000005</ele><time>2026-03-22T09:24:31.475Z</time></trkpt><trkpt lat="42.0844433" lon="12.177915"><ele>278.6</ele><time>2026-03-22T09:24:33.477Z</time></trkpt><trkpt lat="42.0845217" lon="12.1780067"><ele>278.0</ele><time>2026-03-22T09:24:35.476Z</time></trkpt><trkpt lat="42.084605" lon="12.1781233"><ele>278.0</ele><time>2026-03-22T09:24:37.477Z</time></trkpt><trkpt lat="42.0846583" lon="12.1781833"><ele>278.0</ele><time>2026-03-22T09:24:38.479Z</time></trkpt><trkpt lat="42.0847033" lon="12.1782483"><ele>278.0</ele><time>2026-03-22T09:24:39.479Z</time></trkpt><trkpt lat="42.084755" lon="12.1783267"><ele>278.0</ele><time>2026-03-22T09:24:40.476Z</time></trkpt><trkpt lat="42.0848133" lon="12.178405"><ele>278.0</ele><time>2026-03-22T09:24:41.479Z</time></trkpt><trkpt lat="42.08487" lon="12.1784883"><ele>278.0</ele><time>2026-03-22T09:24:42.48Z</time></trkpt><trkpt lat="42.084925" lon="12.178565"><ele>276.83333333333337</ele><time>2026-03-22T09:24:43.478Z</time></trkpt><trkpt lat="42.08499" lon="12.1786333"><ele>275.6666666666667</ele><time>2026-03-22T09:24:44.478Z</time></trkpt><trkpt lat="42.0850633" lon="12.17868"><ele>274.5</ele><time>2026-03-22T09:24:45.483Z</time></trkpt><trkpt lat="42.085145" lon="12.1786967"><ele>273.3333333333333</ele><time>2026-03-22T09:24:46.481Z</time></trkpt><trkpt lat="42.08522" lon="12.1787233"><ele>272.16666666666663</ele><time>2026-03-22T09:24:47.481Z</time></trkpt><trkpt lat="42.0852767" lon="12.1787667"><ele>271.0</ele><time>2026-03-22T09:24:48.481Z</time></trkpt><trkpt lat="42.0853417" lon="12.1788967"><ele>271.0</ele><time>2026-03-22T09:24:50.483Z</time></trkpt><trkpt lat="42.0853417" lon="12.178985"><ele>271.0</ele><time>2026-03-22T09:24:51.48Z</time></trkpt><trkpt lat="42.0853217" lon="12.17907"><ele>271.0</ele><time>2026-03-22T09:24:52.481Z</time></trkpt><trkpt lat="42.0852717" lon="12.1791467"><ele>271.0</ele><time>2026-03-22T09:24:53.481Z</time></trkpt><trkpt lat="42.0852183" lon="12.1792267"><ele>271.0</ele><time>2026-03-22T09:24:54.478Z</time></trkpt><trkpt lat="42.0851683" lon="12.1793133"><ele>271.0</ele><time>2026-03-22T09:24:55.477Z</time></trkpt><trkpt lat="42.08511" lon="12.1793917"><ele>270.66666666666663</ele><time>2026-03-22T09:24:56.479Z</time></trkpt><trkpt lat="42.08505" lon="12.1794717"><ele>270.3333333333333</ele><time>2026-03-22T09:24:57.486Z</time></trkpt><trkpt lat="42.0849867" lon="12.1795517"><ele>270.0</ele><time>2026-03-22T09:24:58.484Z</time></trkpt><trkpt lat="42.0849117" lon="12.17961"><ele>269.6666666666667</ele><time>2026-03-22T09:24:59.478Z</time></trkpt><trkpt lat="42.0848383" lon="12.1796417"><ele>269.33333333333337</ele><time>2026-03-22T09:25:00.478Z</time></trkpt><trkpt lat="42.084765" lon="12.179655"><ele>269.0</ele><time>2026-03-22T09:25:01.481Z</time></trkpt><trkpt lat="42.0846983" lon="12.1796583"><ele>269.0</ele><time>2026-03-22T09:25:02.482Z</time></trkpt><trkpt lat="42.0845917" lon="12.1796517"><ele>269.0</ele><time>2026-03-22T09:25:04.478Z</time></trkpt><trkpt lat="42.0845033" lon="12.179645"><ele>269.0</ele><time>2026-03-22T09:25:06.479Z</time></trkpt><trkpt lat="42.08443" lon="12.17964"><ele>269.0</ele><time>2026-03-22T09:25:08.479Z</time></trkpt></trkseg></trk></gpx>